Darstellungsparameter: Aktuell verwendete Einstellungen:
Skalierung der Graphiken ... ?
xyx+y,   Skalierungsfaktor:      Skalierung: Modus: x, Faktor: 1
Darstellungszeitraum ... ?
Vom - - bis: - -   Zeitraum: 14.03.2015 - 03.04.2015
Min/Max/Avg-Anzeige ... ?
Zeige MMA aktuell
Zeige MMA Monat
Zeige MMA alles
Zeige --A aktuell
Zeige --A Monat
Zeige --A alles
Keine MMA-Anzeige
MMA:
Average (ber die Originaldaten)
MMA-Basis: 14.03.2015 - 03.04.2015
Quicknavigation für Darstellung... ?
Tage:      1T, 2T, 3T, 5T -1T -2T -3T -5T +1T +2T +3T +5T
Wochen: 1W, 2W, 3W -1W -2W -3W +1W +2W +3W
Monate: 1M, 3M, 6M -1M -3M -6M +1M +3M +6M
Jahre:    1J, 3J, 5J, 10J -1J -3J -5J -10J +1J +3J +5J +10J
Nutze für die Darstellung ... ?
Originaldaten oder Mittelwerte auf ...
Stundenbasis Tagesbasis Wochenbasis
Monatsbasis Jahresbasis      Datenbasis: Original-Daten
Darstellen als:
Statistik (Auto) Statistik J:M      Darstellung:
Zur Graphik,    zurück zur Übersicht aller Sensoren.
 
Tabellarische Datenbersicht: ?
 
Sensor: Nr:Datum:Temp:Feuchte:
Aussen-T/F 1 14-03-2015 00:06:17 3.9 C 63 %
2 14-03-2015 00:18:17 3.9 C 62 %
3 14-03-2015 00:30:17 3.6 C 65 %
4 14-03-2015 00:42:17 3.7 C 63 %
5 14-03-2015 00:54:17 3.5 C 64 %
6 14-03-2015 01:06:17 3.3 C 65 %
7 14-03-2015 01:18:17 3.2 C 65 %
8 14-03-2015 01:30:17 3.3 C 65 %
9 14-03-2015 01:42:18 3.4 C 63 %
10 14-03-2015 01:54:17 3.5 C 62 %
11 14-03-2015 02:06:17 3.3 C 64 %
12 14-03-2015 02:18:17 3.1 C 65 %
13 14-03-2015 02:30:17 3.2 C 65 %
14 14-03-2015 02:42:17 3.2 C 65 %
15 14-03-2015 02:54:17 3.4 C 63 %
16 14-03-2015 03:06:17 3.1 C 65 %
17 14-03-2015 03:18:17 3.1 C 65 %
18 14-03-2015 03:30:17 3 C 66 %
19 14-03-2015 03:42:17 3 C 66 %
20 14-03-2015 03:54:17 3.1 C 65 %
21 14-03-2015 04:06:17 2.8 C 67 %
22 14-03-2015 04:18:17 2.6 C 68 %
23 14-03-2015 04:30:17 2.3 C 69 %
24 14-03-2015 04:42:17 2.2 C 70 %
25 14-03-2015 04:54:17 2.2 C 71 %
Sensor: Nr:Datum:Temp:Feuchte:
Aussen-T/F 26 14-03-2015 05:06:17 2.2 C 70 %
27 14-03-2015 05:18:17 2.1 C 70 %
28 14-03-2015 05:30:17 1.6 C 72 %
29 14-03-2015 05:42:17 1.5 C 73 %
30 14-03-2015 05:54:17 1.2 C 74 %
31 14-03-2015 06:06:17 0.9 C 76 %
32 14-03-2015 06:18:17 0.9 C 77 %
33 14-03-2015 06:30:17 0.8 C 77 %
34 14-03-2015 06:42:17 1 C 77 %
35 14-03-2015 06:54:17 1.2 C 77 %
36 14-03-2015 07:06:17 1.3 C 78 %
37 14-03-2015 07:18:17 1.7 C 78 %
38 14-03-2015 07:30:17 2 C 77 %
39 14-03-2015 07:42:17 2.2 C 75 %
40 14-03-2015 07:54:16 2.3 C 75 %
41 14-03-2015 08:06:17 2.4 C 74 %
42 14-03-2015 08:18:16 2.7 C 72 %
43 14-03-2015 08:30:17 3 C 68 %
44 14-03-2015 08:42:17 3.1 C 67 %
45 14-03-2015 08:54:17 3.3 C 65 %
46 14-03-2015 09:06:17 3.5 C 65 %
47 14-03-2015 09:18:17 3.7 C 62 %
48 14-03-2015 09:30:17 4 C 60 %
49 14-03-2015 09:42:17 4.2 C 59 %
50 14-03-2015 09:54:17 4.4 C 58 %
Sensor: Nr:Datum:Temp:Feuchte:
Aussen-T/F 51 14-03-2015 10:06:17 4.5 C 58 %
52 14-03-2015 10:18:17 4.7 C 58 %
53 14-03-2015 10:30:17 4.7 C 58 %
54 14-03-2015 10:42:17 4.9 C 57 %
55 14-03-2015 10:54:17 4.9 C 58 %
56 14-03-2015 11:06:17 5 C 57 %
57 14-03-2015 11:18:17 5 C 57 %
58 14-03-2015 11:30:17 5.2 C 57 %
59 14-03-2015 11:42:17 5.2 C 57 %
60 14-03-2015 11:54:17 5.2 C 57 %
61 14-03-2015 12:06:17 5.3 C 57 %
62 14-03-2015 12:18:17 5.4 C 57 %
63 14-03-2015 12:30:17 5.5 C 57 %
64 14-03-2015 12:42:17 5.5 C 58 %
65 14-03-2015 12:54:17 5.9 C 57 %
66 14-03-2015 13:06:17 6.2 C 56 %
67 14-03-2015 13:18:17 6.8 C 55 %
68 14-03-2015 13:30:17 6.9 C 55 %
69 14-03-2015 13:42:17 6.8 C 56 %
70 14-03-2015 13:54:17 6.8 C 56 %
71 14-03-2015 14:06:17 6.7 C 56 %
72 14-03-2015 14:18:17 6.9 C 56 %
73 14-03-2015 14:30:17 6.9 C 56 %
74 14-03-2015 14:42:17 7 C 56 %
75 14-03-2015 14:54:17 7.2 C 56 %
Sensor: Nr:Datum:Temp:Feuchte:
Aussen-T/F 76 14-03-2015 15:06:17 7.2 C 55 %
77 14-03-2015 15:18:17 7.2 C 55 %
78 14-03-2015 15:30:17 7 C 56 %
79 14-03-2015 15:42:17 7 C 56 %
80 14-03-2015 15:54:17 6.9 C 59 %
81 14-03-2015 16:06:17 6.6 C 64 %
82 14-03-2015 16:18:17 6.3 C 67 %
83 14-03-2015 16:30:17 6.1 C 71 %
84 14-03-2015 16:42:17 5.8 C 74 %
85 14-03-2015 16:54:17 5.7 C 77 %
86 14-03-2015 17:06:17 5.6 C 80 %
87 14-03-2015 17:18:17 5.4 C 81 %
88 14-03-2015 17:30:17 5.2 C 82 %
89 14-03-2015 17:42:17 5.1 C 83 %
90 14-03-2015 17:54:17 5 C 84 %
91 14-03-2015 18:06:17 4.9 C 86 %
92 14-03-2015 18:18:16 4.7 C 86 %
93 14-03-2015 18:30:17 4.7 C 87 %
94 14-03-2015 18:42:17 4.6 C 88 %
95 14-03-2015 18:54:17 4.4 C 89 %
96 14-03-2015 19:06:17 4.4 C 89 %
97 14-03-2015 19:18:17 4.4 C 90 %
98 14-03-2015 19:30:17 4.4 C 90 %
99 14-03-2015 19:42:17 4.2 C 90 %
100 14-03-2015 19:54:17 4.1 C 89 %
Sensor: Nr:Datum:Temp:Feuchte:
Aussen-T/F 101 14-03-2015 20:06:17 4 C 88 %
102 14-03-2015 20:18:17 4 C 88 %
103 14-03-2015 20:30:17 3.8 C 89 %
104 14-03-2015 20:42:17 3.7 C 89 %
105 14-03-2015 20:54:17 3.7 C 89 %
106 14-03-2015 21:06:17 3.6 C 89 %
107 14-03-2015 21:18:17 3.7 C 89 %
108 14-03-2015 21:30:17 3.7 C 89 %
109 14-03-2015 21:42:17 3.7 C 88 %
110 14-03-2015 21:54:17 3.6 C 88 %
111 14-03-2015 22:06:17 3.6 C 88 %
112 14-03-2015 22:18:17 3.6 C 88 %
113 14-03-2015 22:30:17 3.6 C 88 %
114 14-03-2015 22:42:17 3.7 C 87 %
115 14-03-2015 22:54:17 3.7 C 86 %
116 14-03-2015 23:06:18 3.5 C 86 %
117 14-03-2015 23:18:17 3.5 C 86 %
118 14-03-2015 23:30:17 3.5 C 86 %
119 14-03-2015 23:42:18 3.5 C 86 %
120 14-03-2015 23:54:17 3.5 C 86 %
121 15-03-2015 00:06:17 3.7 C 84 %
122 15-03-2015 00:18:17 3.6 C 84 %
123 15-03-2015 00:30:17 3.6 C 84 %
124 15-03-2015 00:42:17 3.5 C 84 %
125 15-03-2015 00:54:17 3.6 C 84 %
Sensor: Nr:Datum:Temp:Feuchte:
Aussen-T/F 126 15-03-2015 01:06:17 3.5 C 83 %
127 15-03-2015 01:18:17 3.3 C 84 %
128 15-03-2015 01:30:17 3.3 C 84 %
129 15-03-2015 01:42:17 3.3 C 85 %
130 15-03-2015 01:54:17 3.3 C 85 %
131 15-03-2015 02:06:17 3.3 C 85 %
132 15-03-2015 02:18:17 3.3 C 86 %
133 15-03-2015 02:30:17 3.4 C 85 %
134 15-03-2015 02:42:18 3.4 C 85 %
135 15-03-2015 02:54:17 3.4 C 85 %
136 15-03-2015 03:06:17 3.4 C 85 %
137 15-03-2015 03:18:17 3.4 C 85 %
138 15-03-2015 03:30:17 3.3 C 86 %
139 15-03-2015 03:42:17 3.3 C 87 %
140 15-03-2015 03:54:17 3.4 C 87 %
141 15-03-2015 04:06:17 3.4 C 88 %
142 15-03-2015 04:18:17 3.3 C 89 %
143 15-03-2015 04:30:17 3.3 C 89 %
144 15-03-2015 04:42:17 3.3 C 90 %
145 15-03-2015 04:54:17 3.3 C 90 %
146 15-03-2015 05:06:17 3.3 C 91 %
147 15-03-2015 05:18:17 3.3 C 91 %
148 15-03-2015 05:30:17 3.3 C 92 %
149 15-03-2015 05:42:17 3.3 C 92 %
150 15-03-2015 05:54:17 3.3 C 92 %
Sensor: Nr:Datum:Temp:Feuchte:
Aussen-T/F 151 15-03-2015 06:06:17 3.2 C 93 %
152 15-03-2015 06:18:17 3.3 C 93 %
153 15-03-2015 06:30:17 3.3 C 93 %
154 15-03-2015 06:42:17 3.3 C 93 %
155 15-03-2015 06:54:17 3.3 C 93 %
156 15-03-2015 07:06:17 3.3 C 93 %
157 15-03-2015 07:18:17 3.3 C 94 %
158 15-03-2015 07:30:17 3.4 C 94 %
159 15-03-2015 07:42:17 3.4 C 94 %
160 15-03-2015 07:54:17 3.5 C 94 %
161 15-03-2015 08:06:17 3.6 C 94 %
162 15-03-2015 08:18:17 3.7 C 94 %
163 15-03-2015 08:30:17 4 C 94 %
164 15-03-2015 08:42:17 4 C 94 %
165 15-03-2015 08:54:17 4 C 94 %
166 15-03-2015 09:06:17 4.1 C 93 %
167 15-03-2015 09:18:16 4.3 C 93 %
168 15-03-2015 09:30:17 4.4 C 92 %
169 15-03-2015 09:42:17 4.6 C 91 %
170 15-03-2015 09:54:17 4.8 C 90 %
171 15-03-2015 10:06:17 4.9 C 88 %
172 15-03-2015 10:18:17 5.1 C 86 %
173 15-03-2015 10:30:17 5.1 C 83 %
174 15-03-2015 10:42:17 5.2 C 80 %
175 15-03-2015 10:54:17 5.3 C 79 %
Sensor: Nr:Datum:Temp:Feuchte:
Aussen-T/F 176 15-03-2015 11:06:17 5.4 C 77 %
177 15-03-2015 11:18:17 5.5 C 76 %
178 15-03-2015 11:31:17 5.7 C 75 %
179 15-03-2015 11:43:17 5.5 C 74 %
180 15-03-2015 11:54:17 5.6 C 73 %
181 15-03-2015 12:06:17 5.7 C 72 %
182 15-03-2015 12:18:17 5.8 C 71 %
183 15-03-2015 12:30:17 6 C 69 %
184 15-03-2015 12:42:17 6.1 C 68 %
185 15-03-2015 12:55:17 6.4 C 68 %
186 15-03-2015 13:07:17 6.4 C 67 %
187 15-03-2015 13:18:17 6.4 C 67 %
188 15-03-2015 13:30:17 6.3 C 66 %
189 15-03-2015 13:42:17 6.6 C 66 %
190 15-03-2015 13:54:17 6.7 C 65 %
191 15-03-2015 14:06:17 6.8 C 64 %
192 15-03-2015 14:19:17 6.9 C 63 %
193 15-03-2015 14:31:17 6.8 C 63 %
194 15-03-2015 14:42:17 6.7 C 64 %
195 15-03-2015 14:54:17 6.8 C 64 %
196 15-03-2015 15:06:17 6.7 C 64 %
197 15-03-2015 15:19:17 6.8 C 65 %
198 15-03-2015 15:31:17 6.6 C 64 %
199 15-03-2015 15:42:17 6.5 C 65 %
200 15-03-2015 15:55:17 6.4 C 66 %
Sensor: Nr:Datum:Temp:Feuchte:
Aussen-T/F 201 15-03-2015 16:06:17 6.5 C 66 %
202 15-03-2015 16:18:17 6.5 C 65 %
203 15-03-2015 16:31:17 6.7 C 65 %
204 15-03-2015 16:43:17 6.7 C 65 %
205 15-03-2015 16:55:17 6.4 C 66 %
206 15-03-2015 17:06:18 6.4 C 66 %
207 15-03-2015 17:19:17 6.2 C 67 %
208 15-03-2015 17:30:17 6.3 C 68 %
209 15-03-2015 17:42:17 6 C 68 %
210 15-03-2015 17:54:17 6.1 C 67 %
211 15-03-2015 18:07:17 5.9 C 70 %
212 15-03-2015 18:18:17 5.8 C 71 %
213 15-03-2015 18:31:17 5.6 C 73 %
214 15-03-2015 18:43:17 5.4 C 75 %
215 15-03-2015 18:55:17 5.1 C 76 %
216 15-03-2015 19:06:17 4.7 C 77 %
217 15-03-2015 19:19:17 4.5 C 78 %
218 15-03-2015 19:31:17 4.2 C 78 %
219 15-03-2015 19:43:17 3.9 C 80 %
220 15-03-2015 19:55:17 3.5 C 80 %
221 15-03-2015 20:07:17 3.4 C 81 %
222 15-03-2015 20:19:17 3 C 81 %
223 15-03-2015 20:30:18 2.8 C 82 %
224 15-03-2015 20:42:18 2.6 C 83 %
225 15-03-2015 20:55:17 2.4 C 84 %
Sensor: Nr:Datum:Temp:Feuchte:
Aussen-T/F 226 15-03-2015 21:07:17 2.5 C 85 %
227 15-03-2015 21:18:17 2 C 86 %
228 15-03-2015 21:30:17 1.9 C 87 %
229 15-03-2015 21:42:17 1.8 C 88 %
230 15-03-2015 21:55:17 1.3 C 88 %
231 15-03-2015 22:07:17 1.3 C 89 %
232 15-03-2015 22:19:17 1.2 C 89 %
233 15-03-2015 22:30:17 0.9 C 90 %
234 15-03-2015 22:42:17 0.6 C 90 %
235 15-03-2015 22:55:17 0.5 C 91 %
236 15-03-2015 23:07:17 0.4 C 91 %
237 15-03-2015 23:19:17 0.5 C 92 %
238 15-03-2015 23:31:17 0.3 C 92 %
239 15-03-2015 23:43:17 0.4 C 92 %
240 15-03-2015 23:55:17 0.1 C 92 %
241 16-03-2015 00:06:18 0 C 93 %
242 16-03-2015 00:19:16 -0.2 C 93 %
243 16-03-2015 00:31:17 -0.3 C 93 %
244 16-03-2015 00:43:17 -0.4 C 93 %
245 16-03-2015 00:55:17 -0.2 C 94 %
246 16-03-2015 01:07:17 -0.2 C 94 %
247 16-03-2015 01:18:17 -0.3 C 94 %
248 16-03-2015 01:30:17 -0.6 C 94 %
249 16-03-2015 01:42:18 -0.6 C 94 %
250 16-03-2015 01:55:17 -0.6 C 94 %
Sensor: Nr:Datum:Temp:Feuchte:
Aussen-T/F 251 16-03-2015 02:07:17 -0.7 C 94 %
252 16-03-2015 02:19:17 -0.8 C 94 %
253 16-03-2015 02:31:17 -0.9 C 94 %
254 16-03-2015 02:42:17 -0.9 C 95 %
255 16-03-2015 02:55:17 -0.9 C 95 %
256 16-03-2015 03:07:17 -1 C 95 %
257 16-03-2015 03:19:17 -1.2 C 95 %
258 16-03-2015 03:31:16 -1.2 C 95 %
259 16-03-2015 03:43:16 -1.2 C 95 %
260 16-03-2015 03:55:17 -1.3 C 95 %
261 16-03-2015 04:07:17 -1.3 C 95 %
262 16-03-2015 04:19:17 -1.3 C 95 %
263 16-03-2015 04:31:16 -1.3 C 95 %
264 16-03-2015 04:43:16 -1.5 C 95 %
265 16-03-2015 04:55:16 -1.4 C 95 %
266 16-03-2015 05:07:17 -1.3 C 95 %
267 16-03-2015 05:19:16 -1.2 C 95 %
268 16-03-2015 05:31:17 -1.3 C 95 %
269 16-03-2015 05:43:17 -1.4 C 95 %
270 16-03-2015 05:55:17 -1.1 C 95 %
271 16-03-2015 06:07:17 -1 C 95 %
272 16-03-2015 06:19:17 -0.9 C 95 %
273 16-03-2015 06:31:17 -0.9 C 95 %
274 16-03-2015 06:43:17 -1.2 C 95 %
275 16-03-2015 06:55:17 -1.3 C 95 %
Sensor: Nr:Datum:Temp:Feuchte:
Aussen-T/F 276 16-03-2015 07:07:17 -1.4 C 95 %
277 16-03-2015 07:19:17 -1.3 C 95 %
278 16-03-2015 07:31:17 -1.3 C 95 %
279 16-03-2015 07:43:17 -1.1 C 95 %
280 16-03-2015 07:55:16 -0.8 C 95 %
281 16-03-2015 08:07:17 -0.6 C 95 %
282 16-03-2015 08:19:17 -0.3 C 95 %
283 16-03-2015 08:31:17 0.1 C 95 %
284 16-03-2015 08:43:17 0.3 C 95 %
285 16-03-2015 08:55:16 0.8 C 95 %
286 16-03-2015 09:07:16 1.1 C 95 %
287 16-03-2015 09:19:16 1.8 C 95 %
288 16-03-2015 09:31:17 2.2 C 95 %
289 16-03-2015 09:43:17 2.6 C 95 %
290 16-03-2015 09:55:17 3 C 95 %
291 16-03-2015 10:07:17 3.2 C 95 %
292 16-03-2015 10:19:16 3.6 C 95 %
293 16-03-2015 10:31:17 4 C 94 %
294 16-03-2015 10:43:17 4.5 C 93 %
295 16-03-2015 10:55:17 4.9 C 92 %
296 16-03-2015 11:07:17 5.2 C 88 %
297 16-03-2015 11:19:17 5.8 C 84 %
298 16-03-2015 11:31:16 6.5 C 75 %
299 16-03-2015 11:43:16 6.9 C 66 %
300 16-03-2015 11:55:17 6.9 C 62 %
Sensor: Nr:Datum:Temp:Feuchte:
Aussen-T/F 301 16-03-2015 12:07:16 7.1 C 60 %
302 16-03-2015 12:19:16 7.4 C 59 %
303 16-03-2015 12:31:17 7.7 C 58 %
304 16-03-2015 12:43:18 8 C 57 %
305 16-03-2015 12:55:16 8.4 C 56 %
306 16-03-2015 13:07:16 8.7 C 55 %
307 16-03-2015 13:19:16 9.2 C 54 %
308 16-03-2015 13:31:16 9.6 C 52 %
309 16-03-2015 13:43:16 9.8 C 51 %
310 16-03-2015 13:55:16 10 C 50 %
311 16-03-2015 14:07:17 10.4 C 50 %
312 16-03-2015 14:19:17 10.6 C 50 %
313 16-03-2015 14:31:16 10.9 C 50 %
314 16-03-2015 14:43:16 11 C 48 %
315 16-03-2015 14:55:17 11.4 C 47 %
316 16-03-2015 15:07:16 11.3 C 47 %
317 16-03-2015 15:19:16 11.7 C 46 %
318 16-03-2015 15:31:16 12.2 C 44 %
319 16-03-2015 15:43:16 12.3 C 45 %
320 16-03-2015 15:55:16 12.8 C 43 %
321 16-03-2015 16:07:16 12.4 C 43 %
322 16-03-2015 16:19:17 12.4 C 45 %
323 16-03-2015 16:31:16 12.8 C 44 %
324 16-03-2015 16:43:16 12.9 C 45 %
325 16-03-2015 16:55:16 13.5 C 44 %
Sensor: Nr:Datum:Temp:Feuchte:
Aussen-T/F 326 16-03-2015 17:07:16 12.9 C 48 %
327 16-03-2015 17:19:16 11.6 C 54 %
328 16-03-2015 17:31:16 10.7 C 59 %
329 16-03-2015 17:43:16 10.4 C 60 %
330 16-03-2015 17:55:16 10.2 C 61 %
331 16-03-2015 18:07:16 9.9 C 60 %
332 16-03-2015 18:19:16 8.6 C 64 %
333 16-03-2015 18:31:16 7.9 C 67 %
334 16-03-2015 18:43:16 7.4 C 69 %
335 16-03-2015 18:55:16 7.1 C 69 %
336 16-03-2015 19:07:16 6.9 C 70 %
337 16-03-2015 19:19:16 6.2 C 72 %
338 16-03-2015 19:31:16 5.8 C 74 %
339 16-03-2015 19:43:16 6 C 74 %
340 16-03-2015 19:55:16 5.3 C 74 %
341 16-03-2015 20:07:16 5 C 76 %
342 16-03-2015 20:19:16 4.8 C 78 %
343 16-03-2015 20:31:16 4.8 C 79 %
344 16-03-2015 20:43:16 4.3 C 79 %
345 16-03-2015 20:55:16 4.1 C 79 %
346 16-03-2015 21:07:16 4 C 80 %
347 16-03-2015 21:19:16 3.7 C 81 %
348 16-03-2015 21:31:16 3.5 C 82 %
349 16-03-2015 21:43:16 3.3 C 82 %
350 16-03-2015 21:55:15 3.5 C 84 %
Sensor: Nr:Datum:Temp:Feuchte:
Aussen-T/F 351 16-03-2015 22:07:15 3.2 C 84 %
352 16-03-2015 22:19:15 3.1 C 84 %
353 16-03-2015 22:31:16 3.1 C 85 %
354 16-03-2015 22:43:16 3.1 C 85 %
355 16-03-2015 22:55:15 2.9 C 86 %
356 16-03-2015 23:07:16 2.5 C 86 %
357 16-03-2015 23:19:15 2.5 C 87 %
358 16-03-2015 23:31:16 2.1 C 87 %
359 16-03-2015 23:43:16 2 C 87 %
360 16-03-2015 23:55:16 1.8 C 88 %
361 17-03-2015 00:07:16 1.7 C 89 %
362 17-03-2015 00:19:16 1.7 C 89 %
363 17-03-2015 00:31:15 1.8 C 90 %
364 17-03-2015 00:43:15 1.5 C 90 %
365 17-03-2015 00:55:15 1.5 C 91 %
366 17-03-2015 01:07:16 1.3 C 91 %
367 17-03-2015 01:19:15 1 C 91 %
368 17-03-2015 01:31:16 0.9 C 92 %
369 17-03-2015 01:43:16 0.9 C 92 %
370 17-03-2015 01:55:16 0.7 C 93 %
371 17-03-2015 02:07:16 0.5 C 93 %
372 17-03-2015 02:19:15 0.4 C 93 %
373 17-03-2015 02:31:15 0.4 C 93 %
374 17-03-2015 02:43:15 0.4 C 93 %
375 17-03-2015 02:55:17 0.4 C 94 %
Sensor: Nr:Datum:Temp:Feuchte:
Aussen-T/F 376 17-03-2015 03:07:17 0.5 C 94 %
377 17-03-2015 03:19:16 0.2 C 94 %
378 17-03-2015 03:31:17 0.3 C 94 %
379 17-03-2015 03:43:17 0.1 C 94 %
380 17-03-2015 03:55:17 0 C 94 %
381 17-03-2015 04:07:17 -0.1 C 94 %
382 17-03-2015 04:19:17 -0.2 C 95 %
383 17-03-2015 04:31:18 -0.1 C 95 %
384 17-03-2015 04:43:18 -0.2 C 95 %
385 17-03-2015 04:55:17 0 C 95 %
386 17-03-2015 05:07:17 0.1 C 95 %
387 17-03-2015 05:19:17 -0.3 C 95 %
388 17-03-2015 05:31:17 -0.4 C 95 %
389 17-03-2015 05:43:17 -0.4 C 95 %
390 17-03-2015 05:55:17 -0.4 C 95 %
391 17-03-2015 06:07:17 -0.4 C 95 %
392 17-03-2015 06:19:17 -0.4 C 95 %
393 17-03-2015 06:31:17 -0.4 C 95 %
394 17-03-2015 06:43:17 -0.3 C 95 %
395 17-03-2015 06:55:17 -0.1 C 95 %
396 17-03-2015 07:07:17 -0.2 C 95 %
397 17-03-2015 07:19:17 0.3 C 95 %
398 17-03-2015 07:31:17 0.6 C 95 %
399 17-03-2015 07:43:17 0.8 C 95 %
400 17-03-2015 07:55:17 0.9 C 95 %
Sensor: Nr:Datum:Temp:Feuchte:
Aussen-T/F 401 17-03-2015 08:07:17 0.9 C 95 %
402 17-03-2015 08:19:17 1.1 C 95 %
403 17-03-2015 08:31:17 1.1 C 95 %
404 17-03-2015 08:43:17 1.2 C 95 %
405 17-03-2015 08:55:17 1.4 C 95 %
406 17-03-2015 09:07:17 1.6 C 95 %
407 17-03-2015 09:19:17 1.7 C 95 %
408 17-03-2015 09:31:17 1.9 C 95 %
409 17-03-2015 09:43:17 2.1 C 95 %
410 17-03-2015 09:55:17 2.9 C 95 %
411 17-03-2015 10:07:17 3.5 C 95 %
412 17-03-2015 10:19:17 4.4 C 95 %
413 17-03-2015 10:31:17 5.3 C 94 %
414 17-03-2015 10:43:17 5.8 C 92 %
415 17-03-2015 10:55:17 6.5 C 90 %
416 17-03-2015 11:07:17 7 C 86 %
417 17-03-2015 11:19:17 7.7 C 83 %
418 17-03-2015 11:31:17 8.2 C 78 %
419 17-03-2015 11:43:17 8.8 C 72 %
420 17-03-2015 11:55:17 9.5 C 68 %
421 17-03-2015 12:07:17 10.2 C 59 %
422 17-03-2015 12:19:17 10.7 C 58 %
423 17-03-2015 12:31:17 11.2 C 55 %
424 17-03-2015 12:43:17 11.6 C 55 %
425 17-03-2015 12:55:17 12.1 C 50 %
Sensor: Nr:Datum:Temp:Feuchte:
Aussen-T/F 426 17-03-2015 13:07:17 12.5 C 49 %
427 17-03-2015 13:19:17 13.1 C 45 %
428 17-03-2015 13:31:17 13.6 C 43 %
429 17-03-2015 13:43:17 14.2 C 40 %
430 17-03-2015 13:55:17 14.3 C 40 %
431 17-03-2015 14:07:17 14.6 C 41 %
432 17-03-2015 14:19:17 14.9 C 39 %
433 17-03-2015 14:31:17 15.2 C 39 %
434 17-03-2015 14:43:17 15.1 C 40 %
435 17-03-2015 14:55:17 15.9 C 37 %
436 17-03-2015 15:07:17 16.2 C 36 %
437 17-03-2015 15:19:17 17.4 C 34 %
438 17-03-2015 15:31:18 17.9 C 32 %
439 17-03-2015 15:43:18 17.7 C 32 %
440 17-03-2015 15:55:17 18.2 C 32 %
441 17-03-2015 16:07:17 18.2 C 30 %
442 17-03-2015 16:19:17 17.5 C 32 %
443 17-03-2015 16:31:17 17.1 C 32 %
444 17-03-2015 16:43:17 17.2 C 35 %
445 17-03-2015 16:55:17 17.7 C 31 %
446 17-03-2015 17:07:17 16.8 C 36 %
447 17-03-2015 17:19:17 15.8 C 42 %
448 17-03-2015 17:31:17 15.1 C 46 %
449 17-03-2015 17:43:17 14.5 C 49 %
450 17-03-2015 17:55:17 13.7 C 51 %
Sensor: Nr:Datum:Temp:Feuchte:
Aussen-T/F 451 17-03-2015 18:07:17 14 C 49 %
452 17-03-2015 18:19:17 12.1 C 54 %
453 17-03-2015 18:31:18 11.4 C 57 %
454 17-03-2015 18:43:18 10.7 C 60 %
455 17-03-2015 18:55:16 10.1 C 61 %
456 17-03-2015 19:07:17 9.8 C 63 %
457 17-03-2015 19:19:17 9.8 C 64 %
458 17-03-2015 19:31:17 9.5 C 63 %
459 17-03-2015 19:43:17 9.2 C 64 %
460 17-03-2015 19:55:17 8.7 C 65 %
461 17-03-2015 20:07:17 8.2 C 67 %
462 17-03-2015 20:19:17 8.1 C 70 %
463 17-03-2015 20:31:17 8.1 C 69 %
464 17-03-2015 20:43:17 7.8 C 71 %
465 17-03-2015 20:55:17 7.8 C 71 %
466 17-03-2015 21:07:17 7.2 C 72 %
467 17-03-2015 21:19:17 7 C 72 %
468 17-03-2015 21:31:17 6.6 C 74 %
469 17-03-2015 21:43:17 6 C 75 %
470 17-03-2015 21:55:17 5.6 C 78 %
471 17-03-2015 22:07:17 5.3 C 79 %
472 17-03-2015 22:19:17 5.3 C 80 %
473 17-03-2015 22:31:17 5 C 81 %
474 17-03-2015 22:43:17 4.8 C 82 %
475 17-03-2015 22:55:16 4.8 C 83 %
Sensor: Nr:Datum:Temp:Feuchte:
Aussen-T/F 476 17-03-2015 23:07:17 4.4 C 83 %
477 17-03-2015 23:19:17 4.3 C 83 %
478 17-03-2015 23:31:17 4.1 C 84 %
479 17-03-2015 23:43:17 4 C 85 %
480 17-03-2015 23:55:17 4 C 86 %
481 18-03-2015 00:07:17 3.8 C 87 %
482 18-03-2015 00:19:17 3.6 C 87 %
483 18-03-2015 00:31:17 3.5 C 88 %
484 18-03-2015 00:43:17 3.8 C 89 %
485 18-03-2015 00:55:17 3.3 C 88 %
486 18-03-2015 01:07:17 3.2 C 88 %
487 18-03-2015 01:19:17 3.1 C 89 %
488 18-03-2015 01:31:17 2.8 C 90 %
489 18-03-2015 01:43:17 2.7 C 90 %
490 18-03-2015 01:55:17 2.6 C 91 %
491 18-03-2015 02:07:17 2.4 C 91 %
492 18-03-2015 02:19:17 2.7 C 92 %
493 18-03-2015 02:31:17 2.6 C 92 %
494 18-03-2015 02:43:18 2.5 C 92 %
495 18-03-2015 02:55:17 2.2 C 92 %
496 18-03-2015 03:07:17 2.3 C 93 %
497 18-03-2015 03:19:17 2.2 C 93 %
498 18-03-2015 03:31:17 2 C 93 %
499 18-03-2015 03:43:17 1.8 C 94 %
500 18-03-2015 03:55:17 1.9 C 94 %
Sensor: Nr:Datum:Temp:Feuchte:
Aussen-T/F 501 18-03-2015 04:07:17 1.7 C 94 %
502 18-03-2015 04:19:17 1.8 C 95 %
503 18-03-2015 04:31:17 1.7 C 95 %
504 18-03-2015 04:43:17 1.4 C 95 %
505 18-03-2015 04:55:17 1.7 C 95 %
506 18-03-2015 05:07:17 1.4 C 95 %
507 18-03-2015 05:19:16 1.1 C 95 %
508 18-03-2015 05:31:17 1.4 C 95 %
509 18-03-2015 05:43:17 1 C 95 %
510 18-03-2015 05:55:17 0.9 C 95 %
511 18-03-2015 06:07:17 0.8 C 95 %
512 18-03-2015 06:19:17 0.8 C 95 %
513 18-03-2015 06:31:17 0.6 C 95 %
514 18-03-2015 06:43:17 0.5 C 95 %
515 18-03-2015 06:55:17 0.6 C 95 %
516 18-03-2015 07:07:17 1 C 95 %
517 18-03-2015 07:19:17 1 C 95 %
518 18-03-2015 07:31:17 1.2 C 95 %
519 18-03-2015 07:43:17 1.2 C 95 %
520 18-03-2015 07:55:17 1.5 C 95 %
521 18-03-2015 08:07:17 1.5 C 95 %
522 18-03-2015 08:19:16 1.7 C 95 %
523 18-03-2015 08:31:17 1.8 C 95 %
524 18-03-2015 08:43:17 2.3 C 95 %
525 18-03-2015 08:55:17 2.7 C 95 %
Sensor: Nr:Datum:Temp:Feuchte:
Aussen-T/F 526 18-03-2015 09:07:17 3.1 C 95 %
527 18-03-2015 09:19:17 3.4 C 95 %
528 18-03-2015 09:31:17 3.8 C 95 %
529 18-03-2015 09:43:17 4.4 C 95 %
530 18-03-2015 09:55:17 5 C 95 %
531 18-03-2015 10:07:17 5.4 C 94 %
532 18-03-2015 10:19:17 5.9 C 94 %
533 18-03-2015 10:31:17 6.7 C 92 %
534 18-03-2015 10:43:17 7.1 C 89 %
535 18-03-2015 10:55:17 7.7 C 87 %
536 18-03-2015 11:07:17 8.3 C 84 %
537 18-03-2015 11:19:17 9.2 C 80 %
538 18-03-2015 11:31:17 9.8 C 77 %
539 18-03-2015 11:43:17 10.3 C 70 %
540 18-03-2015 11:55:17 11 C 65 %
541 18-03-2015 12:07:17 11.7 C 61 %
542 18-03-2015 12:19:16 12.2 C 59 %
543 18-03-2015 12:31:17 12.6 C 59 %
544 18-03-2015 12:43:17 13.1 C 55 %
545 18-03-2015 12:55:17 13.6 C 52 %
546 18-03-2015 13:07:17 13.9 C 50 %
547 18-03-2015 13:19:17 14.3 C 49 %
548 18-03-2015 13:31:17 14.7 C 48 %
549 18-03-2015 13:43:17 15.1 C 46 %
550 18-03-2015 13:55:17 15.5 C 46 %
Sensor: Nr:Datum:Temp:Feuchte:
Aussen-T/F 551 18-03-2015 14:07:17 16 C 44 %
552 18-03-2015 14:19:17 16 C 42 %
553 18-03-2015 14:31:17 16.4 C 41 %
554 18-03-2015 14:43:17 16.6 C 41 %
555 18-03-2015 14:55:17 16.8 C 41 %
556 18-03-2015 15:07:17 16.9 C 40 %
557 18-03-2015 15:19:17 16.9 C 41 %
558 18-03-2015 15:31:17 17.3 C 41 %
559 18-03-2015 15:43:17 17.2 C 40 %
560 18-03-2015 15:55:17 17.8 C 40 %
561 18-03-2015 16:07:17 18.6 C 38 %
562 18-03-2015 16:19:17 18.3 C 36 %
563 18-03-2015 16:31:17 18.3 C 37 %
564 18-03-2015 16:43:17 17.5 C 37 %
565 18-03-2015 16:55:17 17.2 C 37 %
566 18-03-2015 17:07:17 17.2 C 37 %
567 18-03-2015 17:19:17 17.2 C 39 %
568 18-03-2015 17:31:17 17.2 C 40 %
569 18-03-2015 17:43:17 16.2 C 42 %
570 18-03-2015 17:55:17 15.6 C 45 %
571 18-03-2015 18:07:17 14.7 C 48 %
572 18-03-2015 18:19:17 14.2 C 48 %
573 18-03-2015 18:31:17 13.2 C 52 %
574 18-03-2015 18:43:17 12.1 C 55 %
575 18-03-2015 18:55:17 11.6 C 59 %
Sensor: Nr:Datum:Temp:Feuchte:
Aussen-T/F 576 18-03-2015 19:07:17 11.6 C 57 %
577 18-03-2015 19:19:16 10.8 C 61 %
578 18-03-2015 19:31:17 10.8 C 61 %
579 18-03-2015 19:43:17 11.5 C 59 %
580 18-03-2015 19:55:17 11.5 C 58 %
581 18-03-2015 20:07:17 11.2 C 58 %
582 18-03-2015 20:19:17 11.4 C 58 %
583 18-03-2015 20:31:17 10.9 C 60 %
584 18-03-2015 20:43:17 11.1 C 59 %
585 18-03-2015 20:55:17 11 C 60 %
586 18-03-2015 21:07:17 10.4 C 63 %
587 18-03-2015 21:19:17 10.4 C 66 %
588 18-03-2015 21:31:17 9.8 C 70 %
589 18-03-2015 21:43:18 9.5 C 72 %
590 18-03-2015 21:55:17 9.8 C 74 %
591 18-03-2015 22:07:17 9.3 C 74 %
592 18-03-2015 22:19:17 8.9 C 77 %
593 18-03-2015 22:31:18 8.6 C 78 %
594 18-03-2015 22:43:18 8.6 C 79 %
595 18-03-2015 22:55:17 8.5 C 79 %
596 18-03-2015 23:07:17 8.7 C 81 %
597 18-03-2015 23:19:17 8.6 C 80 %
598 18-03-2015 23:31:17 8.5 C 81 %
599 18-03-2015 23:43:17 8.7 C 80 %
600 18-03-2015 23:55:17 8.7 C 79 %
Sensor: Nr:Datum:Temp:Feuchte:
Aussen-T/F 601 19-03-2015 00:07:17 8.7 C 79 %
602 19-03-2015 00:19:17 8.6 C 78 %
603 19-03-2015 00:31:17 8.6 C 79 %
604 19-03-2015 00:43:17 8.5 C 79 %
605 19-03-2015 00:55:17 8.5 C 79 %
606 19-03-2015 01:07:17 8.4 C 79 %
607 19-03-2015 01:19:17 8.3 C 80 %
608 19-03-2015 01:31:17 8.2 C 80 %
609 19-03-2015 01:43:17 8.2 C 81 %
610 19-03-2015 01:55:17 8.1 C 81 %
611 19-03-2015 02:07:17 8.1 C 81 %
612 19-03-2015 02:19:17 8 C 82 %
613 19-03-2015 02:31:17 7.9 C 83 %
614 19-03-2015 02:43:17 7.8 C 83 %
615 19-03-2015 02:55:17 7.8 C 84 %
616 19-03-2015 03:07:17 7.6 C 84 %
617 19-03-2015 03:19:17 7.6 C 85 %
618 19-03-2015 03:31:17 7.5 C 85 %
619 19-03-2015 03:43:17 7.4 C 85 %
620 19-03-2015 03:55:17 7.4 C 86 %
621 19-03-2015 04:07:17 7.3 C 86 %
622 19-03-2015 04:19:17 7.3 C 86 %
623 19-03-2015 04:31:17 7.3 C 87 %
624 19-03-2015 04:43:17 7.2 C 87 %
625 19-03-2015 04:55:17 7.1 C 87 %
Sensor: Nr:Datum:Temp:Feuchte:
Aussen-T/F 626 19-03-2015 05:07:17 7.1 C 87 %
627 19-03-2015 05:19:17 7.1 C 87 %
628 19-03-2015 05:31:16 7 C 88 %
629 19-03-2015 05:43:17 7 C 88 %
630 19-03-2015 05:55:16 6.9 C 89 %
631 19-03-2015 06:07:17 6.9 C 89 %
632 19-03-2015 06:19:17 6.8 C 89 %
633 19-03-2015 06:31:17 6.8 C 89 %
634 19-03-2015 06:43:17 6.8 C 89 %
635 19-03-2015 06:55:17 6.8 C 89 %
636 19-03-2015 07:07:17 6.7 C 89 %
637 19-03-2015 07:19:17 6.7 C 90 %
638 19-03-2015 07:31:17 6.8 C 90 %
639 19-03-2015 07:43:17 6.7 C 90 %
640 19-03-2015 07:55:17 6.7 C 90 %
641 19-03-2015 08:07:17 6.8 C 89 %
642 19-03-2015 08:19:17 6.9 C 89 %
643 19-03-2015 08:31:17 6.9 C 89 %
644 19-03-2015 08:43:17 6.9 C 88 %
645 19-03-2015 08:55:17 7 C 86 %
646 19-03-2015 09:07:17 7.1 C 85 %
647 19-03-2015 09:19:17 7.3 C 83 %
648 19-03-2015 09:31:17 7.5 C 82 %
649 19-03-2015 09:43:17 7.7 C 80 %
650 19-03-2015 09:55:17 7.7 C 79 %
Sensor: Nr:Datum:Temp:Feuchte:
Aussen-T/F 651 19-03-2015 10:07:17 7.8 C 78 %
652 19-03-2015 10:19:17 7.9 C 77 %
653 19-03-2015 10:31:17 7.9 C 76 %
654 19-03-2015 10:43:18 7.9 C 76 %
655 19-03-2015 10:55:17 7.9 C 76 %
656 19-03-2015 11:07:17 7.8 C 76 %
657 19-03-2015 11:19:17 7.8 C 77 %
658 19-03-2015 11:31:17 7.8 C 78 %
659 19-03-2015 11:43:17 7.9 C 78 %
660 19-03-2015 11:55:17 8 C 76 %
661 19-03-2015 12:07:17 8 C 76 %
662 19-03-2015 12:19:16 8.1 C 76 %
663 19-03-2015 12:31:17 8 C 76 %
664 19-03-2015 12:43:17 7.8 C 78 %
665 19-03-2015 12:55:17 7.9 C 78 %
666 19-03-2015 13:07:17 8.1 C 77 %
667 19-03-2015 13:19:17 8.1 C 77 %
668 19-03-2015 13:31:17 8.1 C 77 %
669 19-03-2015 13:43:17 7.9 C 78 %
670 19-03-2015 13:55:17 8 C 77 %
671 19-03-2015 14:07:17 8 C 77 %
672 19-03-2015 14:19:17 8.1 C 77 %
673 19-03-2015 14:31:17 8.2 C 77 %
674 19-03-2015 14:43:17 8.2 C 76 %
675 19-03-2015 14:55:17 8.4 C 76 %
Sensor: Nr:Datum:Temp:Feuchte:
Aussen-T/F 676 19-03-2015 15:07:17 8.4 C 75 %
677 19-03-2015 15:19:17 8.4 C 75 %
678 19-03-2015 15:31:17 8.5 C 75 %
679 19-03-2015 15:43:17 8.7 C 74 %
680 19-03-2015 15:55:17 8.7 C 73 %
681 19-03-2015 16:07:17 8.6 C 74 %
682 19-03-2015 16:19:17 8.6 C 74 %
683 19-03-2015 16:31:17 8.5 C 74 %
684 19-03-2015 16:43:17 8.4 C 75 %
685 19-03-2015 16:55:17 8.4 C 75 %
686 19-03-2015 17:07:17 8.2 C 75 %
687 19-03-2015 17:19:17 8.1 C 76 %
688 19-03-2015 17:31:17 8.2 C 76 %
689 19-03-2015 17:43:17 8.1 C 76 %
690 19-03-2015 17:55:17 8.1 C 76 %
691 19-03-2015 18:07:17 8.1 C 76 %
692 19-03-2015 18:19:17 7.9 C 77 %
693 19-03-2015 18:31:17 7.9 C 77 %
694 19-03-2015 18:43:17 7.9 C 78 %
695 19-03-2015 18:55:17 7.8 C 78 %
696 19-03-2015 19:07:17 7.8 C 78 %
697 19-03-2015 19:19:17 7.7 C 78 %
698 19-03-2015 19:31:17 7.7 C 78 %
699 19-03-2015 19:43:17 7.7 C 78 %
700 19-03-2015 19:55:17 7.6 C 78 %
Sensor: Nr:Datum:Temp:Feuchte:
Aussen-T/F 701 19-03-2015 20:07:17 7.6 C 78 %
702 19-03-2015 20:19:17 7.6 C 78 %
703 19-03-2015 20:31:17 7.5 C 78 %
704 19-03-2015 20:43:17 7.5 C 78 %
705 19-03-2015 20:55:17 7.4 C 78 %
706 19-03-2015 21:07:17 7.4 C 78 %
707 19-03-2015 21:19:16 7.4 C 78 %
708 19-03-2015 21:31:17 7.4 C 78 %
709 19-03-2015 21:43:17 7.4 C 78 %
710 19-03-2015 21:55:17 7.3 C 78 %
711 19-03-2015 22:07:17 7.3 C 79 %
712 19-03-2015 22:19:17 7.3 C 79 %
713 19-03-2015 22:31:17 7.3 C 79 %
714 19-03-2015 22:43:17 7.3 C 79 %
715 19-03-2015 22:55:17 7.3 C 79 %
716 19-03-2015 23:07:17 7.2 C 79 %
717 19-03-2015 23:19:17 7.2 C 79 %
718 19-03-2015 23:31:17 7.1 C 79 %
719 19-03-2015 23:43:17 7.1 C 79 %
720 19-03-2015 23:55:17 7.1 C 79 %
721 20-03-2015 00:07:17 7.1 C 79 %
722 20-03-2015 00:19:17 7 C 79 %
723 20-03-2015 00:31:17 7 C 79 %
724 20-03-2015 00:43:17 6.9 C 80 %
725 20-03-2015 00:55:17 6.9 C 80 %
Sensor: Nr:Datum:Temp:Feuchte:
Aussen-T/F 726 20-03-2015 01:07:17 6.9 C 80 %
727 20-03-2015 01:19:17 6.9 C 80 %
728 20-03-2015 01:31:17 6.9 C 80 %
729 20-03-2015 01:43:17 6.9 C 79 %
730 20-03-2015 01:55:17 6.8 C 79 %
731 20-03-2015 02:07:17 6.7 C 80 %
732 20-03-2015 02:19:17 6.7 C 80 %
733 20-03-2015 02:31:17 6.7 C 80 %
734 20-03-2015 02:43:17 6.7 C 79 %
735 20-03-2015 02:55:17 6.7 C 79 %
736 20-03-2015 03:07:17 6.7 C 78 %
737 20-03-2015 03:19:17 6.6 C 78 %
738 20-03-2015 03:31:17 6.6 C 77 %
739 20-03-2015 03:43:17 6.5 C 77 %
740 20-03-2015 03:55:17 6.5 C 77 %
741 20-03-2015 04:07:17 6.4 C 77 %
742 20-03-2015 04:19:17 6.4 C 77 %
743 20-03-2015 04:31:17 6.3 C 77 %
744 20-03-2015 04:43:17 6.3 C 77 %
745 20-03-2015 04:55:17 6.3 C 77 %
746 20-03-2015 05:07:17 6.2 C 77 %
747 20-03-2015 05:19:17 6.2 C 77 %
748 20-03-2015 05:31:17 6.1 C 77 %
749 20-03-2015 05:43:17 6.1 C 77 %
750 20-03-2015 05:55:17 6 C 77 %
Sensor: Nr:Datum:Temp:Feuchte:
Aussen-T/F 751 20-03-2015 06:07:17 6 C 77 %
752 20-03-2015 06:19:17 6 C 77 %
753 20-03-2015 06:31:17 5.9 C 78 %
754 20-03-2015 06:43:17 5.9 C 78 %
755 20-03-2015 06:55:17 5.9 C 78 %
756 20-03-2015 07:07:17 6 C 77 %
757 20-03-2015 07:19:17 6 C 77 %
758 20-03-2015 07:31:17 6.1 C 77 %
759 20-03-2015 07:43:18 6.2 C 76 %
760 20-03-2015 07:55:17 6.2 C 76 %
761 20-03-2015 08:07:17 6.3 C 75 %
762 20-03-2015 08:19:17 6.4 C 74 %
763 20-03-2015 08:31:17 6.7 C 73 %
764 20-03-2015 08:43:17 6.7 C 72 %
765 20-03-2015 08:55:17 6.8 C 71 %
766 20-03-2015 09:07:17 7 C 69 %
767 20-03-2015 09:19:17 7.1 C 68 %
768 20-03-2015 09:31:17 7.3 C 67 %
769 20-03-2015 09:43:17 7.3 C 66 %
770 20-03-2015 09:55:17 7.5 C 66 %
771 20-03-2015 10:07:17 7.5 C 66 %
772 20-03-2015 10:19:17 7.3 C 65 %
773 20-03-2015 10:31:17 6.9 C 67 %
774 20-03-2015 10:43:17 6.8 C 68 %
775 20-03-2015 10:55:17 6.8 C 69 %
Sensor: Nr:Datum:Temp:Feuchte:
Aussen-T/F 776 20-03-2015 11:07:17 7.1 C 67 %
777 20-03-2015 11:19:17 7.4 C 65 %
778 20-03-2015 11:31:17 8 C 63 %
779 20-03-2015 11:43:17 7.8 C 62 %
780 20-03-2015 11:55:17 8 C 62 %
781 20-03-2015 12:07:17 8.1 C 62 %
782 20-03-2015 12:19:17 8 C 62 %
783 20-03-2015 12:31:17 8.4 C 61 %
784 20-03-2015 12:43:18 8.6 C 60 %
785 20-03-2015 12:55:17 8.9 C 60 %
786 20-03-2015 13:07:17 9.2 C 57 %
787 20-03-2015 13:19:17 9.6 C 56 %
788 20-03-2015 13:31:17 10.1 C 55 %
789 20-03-2015 13:43:17 10.5 C 53 %
790 20-03-2015 13:55:17 10.7 C 52 %
791 20-03-2015 14:07:17 11.1 C 50 %
792 20-03-2015 14:19:17 11.5 C 50 %
793 20-03-2015 14:31:17 12 C 48 %
794 20-03-2015 14:43:17 12.3 C 46 %
795 20-03-2015 14:55:17 12.6 C 45 %
796 20-03-2015 15:07:17 13.6 C 43 %
797 20-03-2015 15:19:17 14.8 C 41 %
798 20-03-2015 15:31:17 14.6 C 39 %
799 20-03-2015 15:43:17 14.5 C 38 %
800 20-03-2015 15:55:17 16.1 C 36 %
Sensor: Nr:Datum:Temp:Feuchte:
Aussen-T/F 801 20-03-2015 16:07:17 16.6 C 35 %
802 20-03-2015 16:19:17 16.4 C 34 %
803 20-03-2015 16:31:17 16 C 35 %
804 20-03-2015 16:43:17 15.6 C 35 %
805 20-03-2015 16:55:17 15.5 C 34 %
806 20-03-2015 17:07:17 15.4 C 35 %
807 20-03-2015 17:19:17 16 C 32 %
808 20-03-2015 17:31:17 15.7 C 36 %
809 20-03-2015 17:43:17 14.9 C 41 %
810 20-03-2015 17:55:17 13.3 C 45 %
811 20-03-2015 18:07:17 11.4 C 51 %
812 20-03-2015 18:19:17 10.2 C 56 %
813 20-03-2015 18:31:17 9.7 C 59 %
814 20-03-2015 18:43:17 8.7 C 62 %
815 20-03-2015 18:55:17 7.9 C 65 %
816 20-03-2015 19:07:17 7.7 C 68 %
817 20-03-2015 19:19:17 7.4 C 68 %
818 20-03-2015 19:31:17 6.9 C 71 %
819 20-03-2015 19:43:17 7 C 71 %
820 20-03-2015 19:55:17 6.7 C 71 %
821 20-03-2015 20:07:17 6.3 C 74 %
822 20-03-2015 20:19:16 6 C 74 %
823 20-03-2015 20:31:17 5.4 C 77 %
824 20-03-2015 20:43:17 5 C 79 %
825 20-03-2015 20:55:17 4.9 C 82 %
Sensor: Nr:Datum:Temp:Feuchte:
Aussen-T/F 826 20-03-2015 21:07:17 4.8 C 83 %
827 20-03-2015 21:19:17 4.6 C 84 %
828 20-03-2015 21:31:17 4.3 C 84 %
829 20-03-2015 21:43:17 4.1 C 85 %
830 20-03-2015 21:55:17 3.7 C 86 %
831 20-03-2015 22:07:17 3.7 C 86 %
832 20-03-2015 22:19:17 3.8 C 87 %
833 20-03-2015 22:31:17 4 C 88 %
834 20-03-2015 22:43:17 3.8 C 89 %
835 20-03-2015 22:55:17 3.7 C 89 %
836 20-03-2015 23:07:17 4.3 C 89 %
837 20-03-2015 23:19:17 4.7 C 90 %
838 20-03-2015 23:31:17 4.9 C 90 %
839 20-03-2015 23:43:17 5.1 C 89 %
840 20-03-2015 23:55:17 5.2 C 88 %
841 21-03-2015 00:07:18 5.3 C 88 %
842 21-03-2015 00:19:17 5.4 C 87 %
843 21-03-2015 00:31:17 5.4 C 86 %
844 21-03-2015 00:43:17 5.5 C 85 %
845 21-03-2015 00:55:17 5.4 C 84 %
846 21-03-2015 01:07:17 5.4 C 83 %
847 21-03-2015 01:19:17 5.4 C 83 %
848 21-03-2015 01:31:17 5.4 C 83 %
849 21-03-2015 01:43:17 5.5 C 83 %
850 21-03-2015 01:55:17 5.5 C 82 %
Sensor: Nr:Datum:Temp:Feuchte:
Aussen-T/F 851 21-03-2015 02:07:17 5.5 C 82 %
852 21-03-2015 02:19:16 5.5 C 82 %
853 21-03-2015 02:31:17 5.5 C 81 %
854 21-03-2015 02:43:17 5.4 C 80 %
855 21-03-2015 02:55:17 5.3 C 80 %
856 21-03-2015 03:07:17 5.3 C 80 %
857 21-03-2015 03:19:17 5.3 C 81 %
858 21-03-2015 03:31:17 5.3 C 81 %
859 21-03-2015 03:43:17 5.3 C 81 %
860 21-03-2015 03:55:17 5.3 C 81 %
861 21-03-2015 04:07:17 5.2 C 80 %
862 21-03-2015 04:19:17 5.2 C 80 %
863 21-03-2015 04:31:17 5.2 C 80 %
864 21-03-2015 04:43:17 5.1 C 80 %
865 21-03-2015 04:55:17 5 C 81 %
866 21-03-2015 05:07:18 4.9 C 82 %
867 21-03-2015 05:19:17 4.8 C 82 %
868 21-03-2015 05:31:17 4.7 C 82 %
869 21-03-2015 05:43:17 4.8 C 82 %
870 21-03-2015 05:55:17 4.7 C 82 %
871 21-03-2015 06:07:17 4.6 C 81 %
872 21-03-2015 06:19:17 4.6 C 80 %
873 21-03-2015 06:31:17 4.5 C 79 %
874 21-03-2015 06:43:17 4.6 C 79 %
875 21-03-2015 06:55:17 4.7 C 78 %
Sensor: Nr:Datum:Temp:Feuchte:
Aussen-T/F 876 21-03-2015 07:07:17 4.8 C 77 %
877 21-03-2015 07:19:17 4.8 C 76 %
878 21-03-2015 07:31:17 5 C 74 %
879 21-03-2015 07:43:17 5 C 74 %
880 21-03-2015 07:55:17 5 C 74 %
881 21-03-2015 08:07:17 5.1 C 74 %
882 21-03-2015 08:19:17 5.2 C 74 %
883 21-03-2015 08:31:17 5.2 C 73 %
884 21-03-2015 08:43:17 5.7 C 73 %
885 21-03-2015 08:55:17 6 C 70 %
886 21-03-2015 09:07:17 5.5 C 72 %
887 21-03-2015 09:19:17 5.5 C 74 %
888 21-03-2015 09:31:17 5.3 C 74 %
889 21-03-2015 09:43:17 5.4 C 75 %
890 21-03-2015 09:55:17 5.1 C 76 %
891 21-03-2015 10:07:17 5.1 C 78 %
892 21-03-2015 10:19:17 5.1 C 79 %
893 21-03-2015 10:31:17 5.2 C 79 %
894 21-03-2015 10:43:17 5.3 C 81 %
895 21-03-2015 10:55:17 5.3 C 81 %
896 21-03-2015 11:07:17 5.4 C 81 %
897 21-03-2015 11:19:16 5.4 C 82 %
898 21-03-2015 11:31:17 5.4 C 83 %
899 21-03-2015 11:43:17 5.7 C 84 %
900 21-03-2015 11:55:17 6.1 C 82 %
Sensor: Nr:Datum:Temp:Feuchte:
Aussen-T/F 901 21-03-2015 12:07:17 6.1 C 78 %
902 21-03-2015 12:19:17 6.7 C 74 %
903 21-03-2015 12:31:17 6.9 C 71 %
904 21-03-2015 12:43:17 7.5 C 67 %
905 21-03-2015 12:55:17 7.9 C 64 %
906 21-03-2015 13:07:17 7.4 C 62 %
907 21-03-2015 13:19:17 8.2 C 61 %
908 21-03-2015 13:31:17 9.1 C 57 %
909 21-03-2015 13:43:17 9.1 C 55 %
910 21-03-2015 13:55:17 8.5 C 57 %
911 21-03-2015 14:07:17 7.8 C 58 %
912 21-03-2015 14:19:17 7.3 C 60 %
913 21-03-2015 14:31:17 7.3 C 61 %
914 21-03-2015 14:43:17 7.5 C 61 %
915 21-03-2015 14:55:17 7.4 C 60 %
916 21-03-2015 15:07:17 7.3 C 61 %
917 21-03-2015 15:19:17 7.3 C 62 %
918 21-03-2015 15:31:17 7.1 C 64 %
919 21-03-2015 15:43:17 6.8 C 68 %
920 21-03-2015 15:55:17 6.4 C 73 %
921 21-03-2015 16:07:17 6 C 78 %
922 21-03-2015 16:19:17 5.9 C 82 %
923 21-03-2015 16:31:17 5.4 C 84 %
924 21-03-2015 16:43:17 5.4 C 85 %
925 21-03-2015 16:55:17 5.6 C 86 %
Sensor: Nr:Datum:Temp:Feuchte:
Aussen-T/F 926 21-03-2015 17:07:17 6 C 84 %
927 21-03-2015 17:19:17 6.7 C 82 %
928 21-03-2015 17:31:17 6.2 C 81 %
929 21-03-2015 17:43:17 6 C 82 %
930 21-03-2015 17:55:17 5.8 C 84 %
931 21-03-2015 18:07:17 5.6 C 86 %
932 21-03-2015 18:19:17 5.8 C 86 %
933 21-03-2015 18:31:17 5.7 C 86 %
934 21-03-2015 18:43:17 5.8 C 86 %
935 21-03-2015 18:55:17 5.9 C 84 %
936 21-03-2015 19:07:17 5.9 C 82 %
937 21-03-2015 19:19:17 5.6 C 82 %
938 21-03-2015 19:31:17 5.4 C 84 %
939 21-03-2015 19:43:17 5.2 C 86 %
940 21-03-2015 19:55:17 5.2 C 87 %
941 21-03-2015 20:07:17 5.1 C 88 %
942 21-03-2015 20:19:17 5 C 89 %
943 21-03-2015 20:31:17 5 C 90 %
944 21-03-2015 20:43:17 4.9 C 91 %
945 21-03-2015 20:55:17 4.7 C 92 %
946 21-03-2015 21:07:17 4.3 C 92 %
947 21-03-2015 21:19:16 4.2 C 92 %
948 21-03-2015 21:31:17 4.2 C 92 %
949 21-03-2015 21:43:17 4.4 C 93 %
950 21-03-2015 21:55:17 4.5 C 93 %
Sensor: Nr:Datum:Temp:Feuchte:
Aussen-T/F 951 21-03-2015 22:07:17 4.4 C 93 %
952 21-03-2015 22:19:17 4.4 C 94 %
953 21-03-2015 22:31:17 4.6 C 94 %
954 21-03-2015 22:43:17 4.6 C 94 %
955 21-03-2015 22:55:17 4.5 C 94 %
956 21-03-2015 23:07:17 4.6 C 95 %
957 21-03-2015 23:19:17 4.8 C 95 %
958 21-03-2015 23:31:17 4.8 C 95 %
959 21-03-2015 23:43:17 4.9 C 95 %
960 21-03-2015 23:55:17 5 C 95 %
961 22-03-2015 00:07:17 5 C 95 %
962 22-03-2015 00:19:17 5 C 95 %
963 22-03-2015 00:31:17 5.1 C 95 %
964 22-03-2015 00:43:17 5.1 C 95 %
965 22-03-2015 00:55:17 5.1 C 95 %
966 22-03-2015 01:07:17 5 C 95 %
967 22-03-2015 01:19:17 5 C 94 %
968 22-03-2015 01:31:17 5 C 94 %
969 22-03-2015 01:43:17 5 C 94 %
970 22-03-2015 01:55:17 4.9 C 95 %
971 22-03-2015 02:07:17 4.8 C 95 %
972 22-03-2015 02:19:16 4.7 C 95 %
973 22-03-2015 02:31:17 4.6 C 95 %
974 22-03-2015 02:43:17 4.5 C 95 %
975 22-03-2015 02:55:17 4.5 C 95 %
Sensor: Nr:Datum:Temp:Feuchte:
Aussen-T/F 976 22-03-2015 03:07:17 4.4 C 95 %
977 22-03-2015 03:19:17 4.3 C 95 %
978 22-03-2015 03:31:17 4.5 C 95 %
979 22-03-2015 03:43:17 4.5 C 95 %
980 22-03-2015 03:55:17 4.6 C 95 %
981 22-03-2015 04:07:17 4.7 C 95 %
982 22-03-2015 04:19:17 4.7 C 95 %
983 22-03-2015 04:31:17 4.8 C 94 %
984 22-03-2015 04:43:17 4.8 C 94 %
985 22-03-2015 04:55:17 4.8 C 94 %
986 22-03-2015 05:07:18 4.9 C 94 %
987 22-03-2015 05:19:17 5 C 92 %
988 22-03-2015 05:31:17 5 C 92 %
989 22-03-2015 05:43:17 5 C 91 %
990 22-03-2015 05:55:17 5 C 88 %
991 22-03-2015 06:07:17 4.7 C 86 %
992 22-03-2015 06:19:17 4.7 C 85 %
993 22-03-2015 06:31:17 4.7 C 83 %
994 22-03-2015 06:43:17 4.7 C 80 %
995 22-03-2015 06:55:17 4.6 C 79 %
996 22-03-2015 07:07:17 4.6 C 78 %
997 22-03-2015 07:19:17 4.6 C 78 %
998 22-03-2015 07:31:17 4.7 C 74 %
999 22-03-2015 07:43:17 4.6 C 72 %
1000 22-03-2015 07:55:17 4.6 C 70 %
Sensor: Nr:Datum:Temp:Feuchte:
Aussen-T/F 1001 22-03-2015 08:07:17 4.7 C 68 %
1002 22-03-2015 08:19:17 4.6 C 67 %
1003 22-03-2015 08:31:17 4.7 C 65 %
1004 22-03-2015 08:43:17 4.7 C 65 %
1005 22-03-2015 08:55:17 4.8 C 63 %
1006 22-03-2015 09:07:17 4.9 C 62 %
1007 22-03-2015 09:19:17 5 C 61 %
1008 22-03-2015 09:31:17 5.3 C 61 %
1009 22-03-2015 09:43:17 4.9 C 60 %
1010 22-03-2015 09:55:17 5.4 C 59 %
1011 22-03-2015 10:07:17 5.7 C 59 %
1012 22-03-2015 10:19:17 5.9 C 58 %
1013 22-03-2015 10:31:17 6 C 57 %
1014 22-03-2015 10:43:17 6.2 C 57 %
1015 22-03-2015 10:55:17 6.4 C 56 %
1016 22-03-2015 11:07:17 6.5 C 56 %
1017 22-03-2015 11:19:17 6.7 C 55 %
1018 22-03-2015 11:31:20 6.6 C 55 %
1019 22-03-2015 11:43:20 6.5 C 55 %
1020 22-03-2015 11:55:18 6.7 C 55 %
1021 22-03-2015 11:55:18 6.7 C 55 %
1022 22-03-2015 12:07:20 6.5 C 55 %
1023 22-03-2015 12:19:16 6.7 C 55 %
1024 22-03-2015 12:31:17 7.1 C 53 %
1025 22-03-2015 12:43:17 7.3 C 51 %
Sensor: Nr:Datum:Temp:Feuchte:
Aussen-T/F 1026 22-03-2015 12:55:17 7.3 C 51 %
1027 22-03-2015 13:07:17 7.2 C 51 %
1028 22-03-2015 13:19:17 7.7 C 51 %
1029 22-03-2015 13:31:17 7.6 C 51 %
1030 22-03-2015 13:43:17 7.8 C 50 %
1031 22-03-2015 13:55:17 7.3 C 50 %
1032 22-03-2015 14:07:17 6.9 C 51 %
1033 22-03-2015 14:19:17 7 C 51 %
1034 22-03-2015 14:31:17 7 C 50 %
1035 22-03-2015 14:43:17 6.7 C 52 %
1036 22-03-2015 14:55:17 6.7 C 51 %
1037 22-03-2015 15:07:17 6.5 C 51 %
1038 22-03-2015 15:19:17 6.7 C 52 %
1039 22-03-2015 15:31:17 7 C 50 %
1040 22-03-2015 15:43:17 6.8 C 50 %
1041 22-03-2015 15:55:17 6.6 C 50 %
1042 22-03-2015 16:07:17 6.8 C 50 %
1043 22-03-2015 16:19:17 7.3 C 50 %
1044 22-03-2015 16:31:17 8.3 C 46 %
1045 22-03-2015 16:43:17 8.8 C 45 %
1046 22-03-2015 16:55:17 10.3 C 40 %
1047 22-03-2015 17:07:17 11.7 C 37 %
1048 22-03-2015 17:19:17 12 C 35 %
1049 22-03-2015 17:31:17 11.3 C 37 %
1050 22-03-2015 17:43:17 10.4 C 38 %
Sensor: Nr:Datum:Temp:Feuchte:
Aussen-T/F 1051 22-03-2015 17:55:17 9.4 C 41 %
1052 22-03-2015 18:07:17 7.6 C 45 %
1053 22-03-2015 18:19:17 6.7 C 49 %
1054 22-03-2015 18:31:17 6 C 52 %
1055 22-03-2015 18:43:17 4.9 C 58 %
1056 22-03-2015 18:55:17 4 C 61 %
1057 22-03-2015 19:07:17 3.4 C 65 %
1058 22-03-2015 19:19:17 3.1 C 67 %
1059 22-03-2015 19:31:17 2.7 C 69 %
1060 22-03-2015 19:43:17 2.4 C 70 %
1061 22-03-2015 19:55:17 2 C 71 %
1062 22-03-2015 20:07:17 1.7 C 73 %
1063 22-03-2015 20:19:17 1.6 C 74 %
1064 22-03-2015 20:31:17 1.4 C 75 %
1065 22-03-2015 20:43:17 1.6 C 75 %
1066 22-03-2015 20:55:17 1.3 C 75 %
1067 22-03-2015 21:07:17 1.2 C 76 %
1068 22-03-2015 21:19:16 1.1 C 77 %
1069 22-03-2015 21:31:17 1 C 77 %
1070 22-03-2015 21:43:17 0.7 C 78 %
1071 22-03-2015 21:55:17 0.8 C 79 %
1072 22-03-2015 22:07:17 0.4 C 79 %
1073 22-03-2015 22:19:17 0.5 C 81 %
1074 22-03-2015 22:31:17 0.4 C 80 %
1075 22-03-2015 22:43:17 0.3 C 81 %
Sensor: Nr:Datum:Temp:Feuchte:
Aussen-T/F 1076 22-03-2015 22:55:17 0.2 C 81 %
1077 22-03-2015 23:07:17 0 C 81 %
1078 22-03-2015 23:19:17 -0.1 C 82 %
1079 22-03-2015 23:31:17 -0.2 C 82 %
1080 22-03-2015 23:43:17 -0.3 C 83 %
1081 22-03-2015 23:55:17 -0.4 C 83 %
1082 23-03-2015 00:07:17 -0.4 C 84 %
1083 23-03-2015 00:19:17 -0.7 C 83 %
1084 23-03-2015 00:31:17 -0.7 C 84 %
1085 23-03-2015 00:43:17 -0.6 C 85 %
1086 23-03-2015 00:55:17 -0.8 C 85 %
1087 23-03-2015 01:07:17 -1 C 85 %
1088 23-03-2015 01:19:17 -0.9 C 86 %
1089 23-03-2015 01:31:17 -0.9 C 86 %
1090 23-03-2015 01:43:17 -1.1 C 86 %
1091 23-03-2015 01:55:17 -1.1 C 86 %
1092 23-03-2015 02:07:17 -1.3 C 86 %
1093 23-03-2015 02:19:17 -1.4 C 87 %
1094 23-03-2015 02:31:17 -1.4 C 87 %
1095 23-03-2015 02:43:17 -1.5 C 87 %
1096 23-03-2015 02:55:17 -1.7 C 88 %
1097 23-03-2015 03:07:17 -1.8 C 88 %
1098 23-03-2015 03:19:17 -1.8 C 88 %
1099 23-03-2015 03:31:17 -1.7 C 89 %
1100 23-03-2015 03:43:17 -1.7 C 89 %
Sensor: Nr:Datum:Temp:Feuchte:
Aussen-T/F 1101 23-03-2015 03:55:17 -2 C 89 %
1102 23-03-2015 04:07:17 -2 C 89 %
1103 23-03-2015 04:19:17 -2.1 C 89 %
1104 23-03-2015 04:31:17 -2.2 C 89 %
1105 23-03-2015 04:43:17 -2.3 C 89 %
1106 23-03-2015 04:55:17 -2.1 C 89 %
1107 23-03-2015 05:07:17 -1.9 C 90 %
1108 23-03-2015 05:19:17 -1.9 C 90 %
1109 23-03-2015 05:31:17 -2.1 C 90 %
1110 23-03-2015 05:43:17 -2.3 C 90 %
1111 23-03-2015 05:55:17 -2.3 C 90 %
1112 23-03-2015 06:07:17 -2.2 C 91 %
1113 23-03-2015 06:19:16 -2.4 C 91 %
1114 23-03-2015 06:31:17 -2.6 C 91 %
1115 23-03-2015 06:43:17 -2.1 C 91 %
1116 23-03-2015 06:55:17 -2.3 C 91 %
1117 23-03-2015 07:07:17 -2.1 C 91 %
1118 23-03-2015 07:19:17 -1.8 C 92 %
1119 23-03-2015 07:31:17 -1.6 C 92 %
1120 23-03-2015 07:43:17 -1.3 C 92 %
1121 23-03-2015 07:55:17 -1.1 C 92 %
1122 23-03-2015 08:07:17 -0.9 C 92 %
1123 23-03-2015 08:19:17 -0.8 C 92 %
1124 23-03-2015 08:31:17 -0.4 C 92 %
1125 23-03-2015 08:43:17 -0.1 C 92 %
Sensor: Nr:Datum:Temp:Feuchte:
Aussen-T/F 1126 23-03-2015 08:55:17 0.1 C 91 %
1127 23-03-2015 09:07:17 0.5 C 90 %
1128 23-03-2015 09:19:17 0.9 C 89 %
1129 23-03-2015 09:31:17 1.3 C 87 %
1130 23-03-2015 09:43:17 1.7 C 84 %
1131 23-03-2015 09:55:17 1.9 C 79 %
1132 23-03-2015 10:07:17 2.7 C 75 %
1133 23-03-2015 10:19:17 2.9 C 73 %
1134 23-03-2015 10:31:17 3.5 C 71 %
1135 23-03-2015 10:43:17 4.3 C 68 %
1136 23-03-2015 10:55:17 4.5 C 66 %
1137 23-03-2015 11:07:17 5 C 64 %
1138 23-03-2015 11:19:17 5.6 C 64 %
1139 23-03-2015 11:31:17 5.6 C 62 %
1140 23-03-2015 11:43:17 6.4 C 61 %
1141 23-03-2015 11:55:17 6.9 C 59 %
1142 23-03-2015 12:07:17 7.3 C 58 %
1143 23-03-2015 12:19:17 7.6 C 57 %
1144 23-03-2015 12:31:17 8.2 C 56 %
1145 23-03-2015 12:43:17 8.7 C 55 %
1146 23-03-2015 12:55:17 9.3 C 55 %
1147 23-03-2015 13:07:17 9.7 C 51 %
1148 23-03-2015 13:19:17 10.2 C 48 %
1149 23-03-2015 13:31:17 10.3 C 48 %
1150 23-03-2015 13:43:17 10.2 C 48 %
Sensor: Nr:Datum:Temp:Feuchte:
Aussen-T/F 1151 23-03-2015 13:55:17 10.1 C 48 %
1152 23-03-2015 14:07:17 10 C 49 %
1153 23-03-2015 14:19:17 10.1 C 48 %
1154 23-03-2015 14:31:17 9.8 C 48 %
1155 23-03-2015 14:43:17 10.3 C 49 %
1156 23-03-2015 14:55:17 10.7 C 49 %
1157 23-03-2015 15:07:17 11.9 C 47 %
1158 23-03-2015 15:19:17 12.7 C 43 %
1159 23-03-2015 15:31:17 11.5 C 45 %
1160 23-03-2015 15:43:17 10.9 C 47 %
1161 23-03-2015 15:55:17 11.5 C 45 %
1162 23-03-2015 16:07:17 10.8 C 47 %
1163 23-03-2015 16:19:17 10.7 C 47 %
1164 23-03-2015 16:31:17 11.1 C 46 %
1165 23-03-2015 16:43:17 10.8 C 46 %
1166 23-03-2015 16:55:17 10.3 C 47 %
1167 23-03-2015 17:07:17 10.2 C 48 %
1168 23-03-2015 17:19:17 10 C 49 %
1169 23-03-2015 17:31:17 10 C 48 %
1170 23-03-2015 17:43:17 10.8 C 48 %
1171 23-03-2015 17:55:17 10.6 C 47 %
1172 23-03-2015 18:07:17 9.7 C 49 %
1173 23-03-2015 18:19:17 9.5 C 50 %
1174 23-03-2015 18:31:17 8.8 C 54 %
1175 23-03-2015 18:43:17 7.8 C 57 %
Sensor: Nr:Datum:Temp:Feuchte:
Aussen-T/F 1176 23-03-2015 18:55:17 7.3 C 58 %
1177 23-03-2015 19:07:17 7 C 59 %
1178 23-03-2015 19:19:17 6.7 C 61 %
1179 23-03-2015 19:31:17 6.4 C 62 %
1180 23-03-2015 19:43:18 6.4 C 63 %
1181 23-03-2015 19:55:17 6.1 C 64 %
1182 23-03-2015 20:07:17 5.9 C 65 %
1183 23-03-2015 20:19:17 5.9 C 66 %
1184 23-03-2015 20:31:17 5.9 C 65 %
1185 23-03-2015 20:43:17 5.6 C 66 %
1186 23-03-2015 20:55:17 5.1 C 68 %
1187 23-03-2015 21:07:17 4.4 C 71 %
1188 23-03-2015 21:19:16 4 C 74 %
1189 23-03-2015 21:31:17 3.8 C 77 %
1190 23-03-2015 21:43:17 3.5 C 78 %
1191 23-03-2015 21:55:17 3.3 C 79 %
1192 23-03-2015 22:07:17 3 C 79 %
1193 23-03-2015 22:19:17 2.8 C 81 %
1194 23-03-2015 22:31:17 2.7 C 83 %
1195 23-03-2015 22:43:17 2.5 C 83 %
1196 23-03-2015 22:55:17 2.1 C 83 %
1197 23-03-2015 23:07:17 1.6 C 84 %
1198 23-03-2015 23:19:17 1.7 C 85 %
1199 23-03-2015 23:31:17 1.4 C 86 %
1200 23-03-2015 23:43:17 1.3 C 86 %
Sensor: Nr:Datum:Temp:Feuchte:
Aussen-T/F 1201 23-03-2015 23:55:17 1.1 C 86 %
1202 24-03-2015 00:07:17 1.1 C 87 %
1203 24-03-2015 00:19:17 1.1 C 88 %
1204 24-03-2015 00:31:17 0.8 C 88 %
1205 24-03-2015 00:43:17 0.9 C 89 %
1206 24-03-2015 00:55:17 1.1 C 89 %
1207 24-03-2015 01:07:17 0.7 C 89 %
1208 24-03-2015 01:19:17 0.6 C 89 %
1209 24-03-2015 01:31:17 1 C 90 %
1210 24-03-2015 01:43:17 1.4 C 91 %
1211 24-03-2015 01:55:17 1.5 C 91 %
1212 24-03-2015 02:07:17 1.2 C 90 %
1213 24-03-2015 02:19:17 1 C 90 %
1214 24-03-2015 02:31:17 0.9 C 91 %
1215 24-03-2015 02:43:17 1 C 91 %
1216 24-03-2015 02:55:17 1.5 C 91 %
1217 24-03-2015 03:07:17 1.8 C 92 %
1218 24-03-2015 03:19:17 2 C 91 %
1219 24-03-2015 03:31:17 2.2 C 91 %
1220 24-03-2015 03:43:17 2.3 C 90 %
1221 24-03-2015 03:55:17 2.4 C 90 %
1222 24-03-2015 04:07:17 2.5 C 89 %
1223 24-03-2015 04:19:17 2.6 C 88 %
1224 24-03-2015 04:31:17 2.7 C 87 %
1225 24-03-2015 04:43:17 2.6 C 87 %
Sensor: Nr:Datum:Temp:Feuchte:
Aussen-T/F 1226 24-03-2015 04:55:17 2.6 C 86 %
1227 24-03-2015 05:07:17 2.7 C 86 %
1228 24-03-2015 05:19:17 2.7 C 86 %
1229 24-03-2015 05:31:17 2.7 C 86 %
1230 24-03-2015 05:43:17 2.8 C 86 %
1231 24-03-2015 05:55:17 2.8 C 85 %
1232 24-03-2015 06:07:17 2.7 C 85 %
1233 24-03-2015 06:19:17 2.6 C 85 %
1234 24-03-2015 06:31:17 2.5 C 85 %
1235 24-03-2015 06:43:17 2.5 C 85 %
1236 24-03-2015 06:55:17 2.6 C 85 %
1237 24-03-2015 07:07:17 2.7 C 86 %
1238 24-03-2015 07:19:17 3 C 85 %
1239 24-03-2015 07:31:17 3.1 C 84 %
1240 24-03-2015 07:43:17 3.4 C 83 %
1241 24-03-2015 07:55:17 3.5 C 82 %
1242 24-03-2015 08:07:17 3.7 C 81 %
1243 24-03-2015 08:19:17 4 C 79 %
1244 24-03-2015 08:31:17 4.2 C 78 %
1245 24-03-2015 08:43:17 4.2 C 76 %
1246 24-03-2015 08:55:17 4.5 C 75 %
1247 24-03-2015 09:07:17 4.7 C 74 %
1248 24-03-2015 09:19:17 4.9 C 74 %
1249 24-03-2015 09:31:17 4.9 C 73 %
1250 24-03-2015 09:43:17 4.9 C 74 %
Sensor: Nr:Datum:Temp:Feuchte:
Aussen-T/F 1251 24-03-2015 09:55:17 5.1 C 72 %
1252 24-03-2015 10:07:17 5.4 C 72 %
1253 24-03-2015 10:19:17 6 C 69 %
1254 24-03-2015 10:31:17 6.6 C 68 %
1255 24-03-2015 10:43:17 6.8 C 66 %
1256 24-03-2015 10:55:17 6.8 C 66 %
1257 24-03-2015 11:07:17 7 C 65 %
1258 24-03-2015 11:19:17 7.1 C 65 %
1259 24-03-2015 11:31:17 7.5 C 63 %
1260 24-03-2015 11:43:17 8.4 C 62 %
1261 24-03-2015 11:55:17 8.7 C 60 %
1262 24-03-2015 12:07:17 9.7 C 58 %
1263 24-03-2015 12:19:17 9.8 C 56 %
1264 24-03-2015 12:31:17 10.1 C 55 %
1265 24-03-2015 12:43:17 11 C 54 %
1266 24-03-2015 12:55:17 11.2 C 51 %
1267 24-03-2015 13:07:17 11.6 C 50 %
1268 24-03-2015 13:19:18 12 C 47 %
1269 24-03-2015 13:31:17 12.7 C 46 %
1270 24-03-2015 13:43:17 12.8 C 43 %
1271 24-03-2015 13:55:17 13.3 C 39 %
1272 24-03-2015 14:07:17 13.1 C 38 %
1273 24-03-2015 14:19:17 13.2 C 38 %
1274 24-03-2015 14:31:17 13.4 C 37 %
1275 24-03-2015 14:43:17 13.6 C 38 %
Sensor: Nr:Datum:Temp:Feuchte:
Aussen-T/F 1276 24-03-2015 14:55:17 13.4 C 38 %
1277 24-03-2015 15:07:17 14.2 C 38 %
1278 24-03-2015 15:19:17 14.9 C 35 %
1279 24-03-2015 15:31:17 14.4 C 36 %
1280 24-03-2015 15:43:17 14.3 C 36 %
1281 24-03-2015 15:55:17 14.5 C 36 %
1282 24-03-2015 16:07:17 13.9 C 36 %
1283 24-03-2015 16:19:17 15.2 C 35 %
1284 24-03-2015 16:31:17 14.8 C 35 %
1285 24-03-2015 16:43:17 15.1 C 35 %
1286 24-03-2015 16:55:17 16.8 C 33 %
1287 24-03-2015 17:07:17 16.6 C 32 %
1288 24-03-2015 17:19:16 14.3 C 35 %
1289 24-03-2015 17:31:17 13.2 C 44 %
1290 24-03-2015 17:43:17 13 C 44 %
1291 24-03-2015 17:55:17 12.3 C 49 %
1292 24-03-2015 18:07:17 11.6 C 52 %
1293 24-03-2015 18:19:17 11.2 C 53 %
1294 24-03-2015 18:31:17 10.7 C 55 %
1295 24-03-2015 18:43:17 10.4 C 55 %
1296 24-03-2015 18:55:17 10.4 C 55 %
1297 24-03-2015 19:07:17 10.3 C 55 %
1298 24-03-2015 19:19:17 10 C 55 %
1299 24-03-2015 19:31:17 9.5 C 57 %
1300 24-03-2015 19:43:17 8.7 C 60 %
Sensor: Nr:Datum:Temp:Feuchte:
Aussen-T/F 1301 24-03-2015 19:55:17 8.2 C 62 %
1302 24-03-2015 20:07:17 8.1 C 65 %
1303 24-03-2015 20:19:17 8 C 66 %
1304 24-03-2015 20:31:17 8.1 C 66 %
1305 24-03-2015 20:43:17 7.6 C 67 %
1306 24-03-2015 20:55:17 7.2 C 68 %
1307 24-03-2015 21:07:17 7.3 C 69 %
1308 24-03-2015 21:19:17 7.1 C 69 %
1309 24-03-2015 21:31:17 6.6 C 71 %
1310 24-03-2015 21:43:17 6.3 C 72 %
1311 24-03-2015 21:55:17 6.2 C 74 %
1312 24-03-2015 22:07:17 6.2 C 74 %
1313 24-03-2015 22:19:17 5.9 C 75 %
1314 24-03-2015 22:31:17 5.8 C 76 %
1315 24-03-2015 22:43:17 6.1 C 77 %
1316 24-03-2015 22:55:17 6.3 C 78 %
1317 24-03-2015 23:07:17 6.5 C 78 %
1318 24-03-2015 23:19:17 6.4 C 76 %
1319 24-03-2015 23:31:17 6 C 76 %
1320 24-03-2015 23:43:17 5.7 C 77 %
1321 24-03-2015 23:55:17 5.6 C 78 %
1322 25-03-2015 00:07:17 5.2 C 78 %
1323 25-03-2015 00:19:17 5.2 C 79 %
1324 25-03-2015 00:31:17 5.1 C 79 %
1325 25-03-2015 00:43:17 4.7 C 80 %
Sensor: Nr:Datum:Temp:Feuchte:
Aussen-T/F 1326 25-03-2015 00:55:17 4.3 C 81 %
1327 25-03-2015 01:07:17 4.5 C 83 %
1328 25-03-2015 01:19:17 4.5 C 83 %
1329 25-03-2015 01:31:17 4.5 C 83 %
1330 25-03-2015 01:43:17 4.8 C 84 %
1331 25-03-2015 01:55:17 4.5 C 83 %
1332 25-03-2015 02:07:17 4.4 C 83 %
1333 25-03-2015 02:19:17 4.5 C 84 %
1334 25-03-2015 02:31:17 4.6 C 85 %
1335 25-03-2015 02:43:17 5 C 84 %
1336 25-03-2015 02:55:17 5.6 C 83 %
1337 25-03-2015 03:07:17 5.7 C 82 %
1338 25-03-2015 03:19:17 5.6 C 80 %
1339 25-03-2015 03:31:17 5.6 C 80 %
1340 25-03-2015 03:43:17 5.6 C 80 %
1341 25-03-2015 03:55:17 5.6 C 80 %
1342 25-03-2015 04:07:17 5.3 C 80 %
1343 25-03-2015 04:19:17 5 C 80 %
1344 25-03-2015 04:31:17 4.7 C 81 %
1345 25-03-2015 04:43:17 4.6 C 82 %
1346 25-03-2015 04:55:17 5 C 82 %
1347 25-03-2015 05:07:17 5 C 83 %
1348 25-03-2015 05:19:17 5.1 C 83 %
1349 25-03-2015 05:31:17 5.1 C 83 %
1350 25-03-2015 05:43:17 4.8 C 84 %
Sensor: Nr:Datum:Temp:Feuchte:
Aussen-T/F 1351 25-03-2015 05:55:17 4.6 C 84 %
1352 25-03-2015 06:07:17 4.7 C 84 %
1353 25-03-2015 06:19:17 4.2 C 83 %
1354 25-03-2015 06:31:17 4.1 C 84 %
1355 25-03-2015 06:43:17 4.2 C 85 %
1356 25-03-2015 06:55:17 4.5 C 86 %
1357 25-03-2015 07:07:17 4.7 C 86 %
1358 25-03-2015 07:19:17 5.1 C 86 %
1359 25-03-2015 07:31:17 5.6 C 85 %
1360 25-03-2015 07:43:17 5.9 C 84 %
1361 25-03-2015 07:55:17 6.4 C 80 %
1362 25-03-2015 08:07:16 6.5 C 77 %
1363 25-03-2015 08:19:17 6.6 C 75 %
1364 25-03-2015 08:31:17 6.8 C 75 %
1365 25-03-2015 08:43:17 6.9 C 74 %
1366 25-03-2015 08:55:17 7 C 74 %
1367 25-03-2015 09:07:17 7.9 C 71 %
1368 25-03-2015 09:19:17 8.4 C 67 %
1369 25-03-2015 09:31:17 8.9 C 65 %
1370 25-03-2015 09:43:17 9.1 C 66 %
1371 25-03-2015 09:55:17 10.1 C 61 %
1372 25-03-2015 10:07:17 10.5 C 57 %
1373 25-03-2015 10:19:17 10.6 C 57 %
1374 25-03-2015 10:31:17 10.8 C 57 %
1375 25-03-2015 10:43:17 11.2 C 56 %
Sensor: Nr:Datum:Temp:Feuchte:
Aussen-T/F 1376 25-03-2015 10:55:17 11.4 C 55 %
1377 25-03-2015 11:07:17 12.1 C 54 %
1378 25-03-2015 11:19:17 11.7 C 55 %
1379 25-03-2015 11:31:17 11.6 C 54 %
1380 25-03-2015 11:43:17 11.8 C 55 %
1381 25-03-2015 11:55:17 11.9 C 56 %
1382 25-03-2015 12:07:17 12 C 54 %
1383 25-03-2015 12:19:17 12.3 C 53 %
1384 25-03-2015 12:31:17 12.1 C 53 %
1385 25-03-2015 12:43:17 12.2 C 55 %
1386 25-03-2015 12:55:17 12.1 C 54 %
1387 25-03-2015 13:07:17 12 C 54 %
1388 25-03-2015 13:19:17 11.9 C 55 %
1389 25-03-2015 13:31:17 12.5 C 54 %
1390 25-03-2015 13:43:17 12.1 C 53 %
1391 25-03-2015 13:55:17 11.5 C 55 %
1392 25-03-2015 14:07:17 11.2 C 56 %
1393 25-03-2015 14:19:17 11.1 C 56 %
1394 25-03-2015 14:31:17 10.2 C 57 %
1395 25-03-2015 14:43:17 10.1 C 58 %
1396 25-03-2015 14:55:17 9.8 C 59 %
1397 25-03-2015 15:07:17 9.6 C 60 %
1398 25-03-2015 15:19:17 9.5 C 59 %
1399 25-03-2015 15:31:16 9.3 C 59 %
1400 25-03-2015 15:43:17 9.6 C 60 %
Sensor: Nr:Datum:Temp:Feuchte:
Aussen-T/F 1401 25-03-2015 15:55:17 9.2 C 59 %
1402 25-03-2015 16:07:17 8.8 C 60 %
1403 25-03-2015 16:19:16 8.5 C 61 %
1404 25-03-2015 16:31:17 8.3 C 61 %
1405 25-03-2015 16:43:17 8 C 62 %
1406 25-03-2015 16:55:17 7.9 C 63 %
1407 25-03-2015 17:07:17 7.8 C 64 %
1408 25-03-2015 17:19:17 7.8 C 64 %
1409 25-03-2015 17:31:17 7.7 C 64 %
1410 25-03-2015 17:43:17 7.5 C 65 %
1411 25-03-2015 17:55:17 7.5 C 65 %
1412 25-03-2015 18:07:17 7.4 C 65 %
1413 25-03-2015 18:19:17 7.4 C 65 %
1414 25-03-2015 18:31:17 7.4 C 65 %
1415 25-03-2015 18:43:17 7.4 C 66 %
1416 25-03-2015 18:55:17 7.2 C 66 %
1417 25-03-2015 19:07:17 7.2 C 66 %
1418 25-03-2015 19:19:17 7.2 C 66 %
1419 25-03-2015 19:31:17 7.1 C 66 %
1420 25-03-2015 19:43:17 7 C 67 %
1421 25-03-2015 19:55:17 6.9 C 68 %
1422 25-03-2015 20:07:17 6.9 C 68 %
1423 25-03-2015 20:19:17 6.9 C 68 %
1424 25-03-2015 20:31:17 6.8 C 68 %
1425 25-03-2015 20:43:17 6.8 C 68 %
Sensor: Nr:Datum:Temp:Feuchte:
Aussen-T/F 1426 25-03-2015 20:55:17 6.7 C 69 %
1427 25-03-2015 21:07:17 6.8 C 69 %
1428 25-03-2015 21:19:17 6.7 C 69 %
1429 25-03-2015 21:31:17 6.7 C 69 %
1430 25-03-2015 21:43:17 6.6 C 69 %
1431 25-03-2015 21:55:18 6.5 C 69 %
1432 25-03-2015 22:07:17 6.5 C 70 %
1433 25-03-2015 22:19:17 6.4 C 71 %
1434 25-03-2015 22:31:17 6.4 C 71 %
1435 25-03-2015 22:43:17 6.4 C 72 %
1436 25-03-2015 22:55:17 6.4 C 72 %
1437 25-03-2015 23:07:17 6.5 C 72 %
1438 25-03-2015 23:19:17 6.5 C 71 %
1439 25-03-2015 23:31:17 6.5 C 71 %
1440 25-03-2015 23:43:17 6.5 C 70 %
1441 25-03-2015 23:55:17 6.5 C 70 %
1442 26-03-2015 00:07:17 6.4 C 71 %
1443 26-03-2015 00:19:17 6.4 C 71 %
1444 26-03-2015 00:31:17 6.4 C 71 %
1445 26-03-2015 00:43:17 6.4 C 71 %
1446 26-03-2015 00:55:17 6.4 C 72 %
1447 26-03-2015 01:07:17 6.4 C 72 %
1448 26-03-2015 01:19:17 6.4 C 73 %
1449 26-03-2015 01:31:17 6.4 C 73 %
1450 26-03-2015 01:43:17 6.3 C 74 %
Sensor: Nr:Datum:Temp:Feuchte:
Aussen-T/F 1451 26-03-2015 01:55:17 6.2 C 75 %
1452 26-03-2015 02:07:17 6.2 C 76 %
1453 26-03-2015 02:19:17 6.1 C 77 %
1454 26-03-2015 02:31:17 6.1 C 78 %
1455 26-03-2015 02:43:17 6 C 78 %
1456 26-03-2015 02:55:17 6 C 79 %
1457 26-03-2015 03:07:17 6 C 79 %
1458 26-03-2015 03:19:17 6 C 79 %
1459 26-03-2015 03:31:17 6 C 79 %
1460 26-03-2015 03:43:17 6 C 78 %
1461 26-03-2015 03:55:17 6 C 78 %
1462 26-03-2015 04:07:17 6 C 78 %
1463 26-03-2015 04:19:17 6 C 77 %
1464 26-03-2015 04:31:17 5.8 C 78 %
1465 26-03-2015 04:43:17 5.7 C 79 %
1466 26-03-2015 04:55:17 5.5 C 79 %
1467 26-03-2015 05:07:17 5.4 C 78 %
1468 26-03-2015 05:19:17 5.3 C 76 %
1469 26-03-2015 05:31:17 5.3 C 75 %
1470 26-03-2015 05:43:17 5.3 C 73 %
1471 26-03-2015 05:55:17 5.2 C 73 %
1472 26-03-2015 06:07:17 5.2 C 73 %
1473 26-03-2015 06:19:17 5.2 C 73 %
1474 26-03-2015 06:31:17 5.3 C 73 %
1475 26-03-2015 06:43:17 5.3 C 73 %
Sensor: Nr:Datum:Temp:Feuchte:
Aussen-T/F 1476 26-03-2015 06:55:17 5.3 C 72 %
1477 26-03-2015 07:07:17 5.4 C 72 %
1478 26-03-2015 07:19:17 5.4 C 72 %
1479 26-03-2015 07:31:17 5.4 C 70 %
1480 26-03-2015 07:43:17 5.4 C 69 %
1481 26-03-2015 07:55:17 5.5 C 69 %
1482 26-03-2015 08:07:17 5.6 C 69 %
1483 26-03-2015 08:19:17 5.7 C 67 %
1484 26-03-2015 08:31:17 5.8 C 66 %
1485 26-03-2015 08:43:17 5.9 C 66 %
1486 26-03-2015 08:55:17 5.9 C 65 %
1487 26-03-2015 09:07:17 5.9 C 65 %
1488 26-03-2015 09:19:17 5.9 C 65 %
1489 26-03-2015 09:31:17 6 C 64 %
1490 26-03-2015 09:43:17 6.3 C 63 %
1491 26-03-2015 09:55:17 6.7 C 61 %
1492 26-03-2015 10:07:17 6.6 C 61 %
1493 26-03-2015 10:19:17 6.7 C 60 %
1494 26-03-2015 10:31:17 6.9 C 60 %
1495 26-03-2015 10:43:17 7.1 C 57 %
1496 26-03-2015 10:55:17 7.4 C 55 %
1497 26-03-2015 11:07:17 8 C 53 %
1498 26-03-2015 11:19:17 8 C 51 %
1499 26-03-2015 11:31:17 8.7 C 52 %
1500 26-03-2015 11:43:17 8.9 C 51 %
Sensor: Nr:Datum:Temp:Feuchte:
Aussen-T/F 1501 26-03-2015 11:55:16 8.6 C 50 %
1502 26-03-2015 12:07:17 9 C 49 %
1503 26-03-2015 12:19:17 9.1 C 46 %
1504 26-03-2015 12:31:17 9.2 C 47 %
1505 26-03-2015 12:43:17 9.9 C 45 %
1506 26-03-2015 12:55:17 10.1 C 40 %
1507 26-03-2015 13:07:17 10.7 C 40 %
1508 26-03-2015 13:19:17 10.8 C 38 %
1509 26-03-2015 13:31:17 11.2 C 36 %
1510 26-03-2015 13:43:17 11.2 C 34 %
1511 26-03-2015 13:55:17 11.9 C 35 %
1512 26-03-2015 14:07:17 11.6 C 32 %
1513 26-03-2015 14:19:17 11.8 C 32 %
1514 26-03-2015 14:31:17 12.3 C 30 %
1515 26-03-2015 14:43:17 12.6 C 30 %
1516 26-03-2015 14:55:17 12.2 C 28 %
1517 26-03-2015 15:07:17 11.8 C 31 %
1518 26-03-2015 15:19:17 11.8 C 30 %
1519 26-03-2015 15:31:17 11.6 C 30 %
1520 26-03-2015 15:43:17 11.4 C 30 %
1521 26-03-2015 15:55:17 10.9 C 31 %
1522 26-03-2015 16:07:17 10.5 C 30 %
1523 26-03-2015 16:19:17 10.1 C 31 %
1524 26-03-2015 16:31:17 9.5 C 32 %
1525 26-03-2015 16:43:17 8.7 C 38 %
Sensor: Nr:Datum:Temp:Feuchte:
Aussen-T/F 1526 26-03-2015 16:55:17 7.3 C 49 %
1527 26-03-2015 17:07:17 6.4 C 56 %
1528 26-03-2015 17:19:17 5.8 C 66 %
1529 26-03-2015 17:31:17 5.4 C 71 %
1530 26-03-2015 17:43:17 5.1 C 74 %
1531 26-03-2015 17:55:17 5 C 76 %
1532 26-03-2015 18:07:17 4.9 C 79 %
1533 26-03-2015 18:19:17 4.9 C 81 %
1534 26-03-2015 18:31:17 5 C 82 %
1535 26-03-2015 18:43:17 5 C 83 %
1536 26-03-2015 18:55:17 4.9 C 83 %
1537 26-03-2015 19:07:17 4.9 C 82 %
1538 26-03-2015 19:19:17 5 C 78 %
1539 26-03-2015 19:31:17 5.2 C 76 %
1540 26-03-2015 19:43:17 5.1 C 77 %
1541 26-03-2015 19:55:17 5.2 C 77 %
1542 26-03-2015 20:07:17 5.1 C 77 %
1543 26-03-2015 20:19:17 5.1 C 77 %
1544 26-03-2015 20:31:17 5.3 C 75 %
1545 26-03-2015 20:43:17 5.4 C 74 %
1546 26-03-2015 20:55:17 5.6 C 73 %
1547 26-03-2015 21:07:17 5.5 C 73 %
1548 26-03-2015 21:19:17 5.7 C 71 %
1549 26-03-2015 21:31:17 5.7 C 71 %
1550 26-03-2015 21:43:17 5.6 C 71 %
Sensor: Nr:Datum:Temp:Feuchte:
Aussen-T/F 1551 26-03-2015 21:55:17 5.6 C 72 %
1552 26-03-2015 22:07:18 5.6 C 73 %
1553 26-03-2015 22:19:17 5.7 C 73 %
1554 26-03-2015 22:31:17 5.8 C 73 %
1555 26-03-2015 22:43:18 5.8 C 74 %
1556 26-03-2015 22:55:17 5.8 C 74 %
1557 26-03-2015 23:07:17 5.8 C 74 %
1558 26-03-2015 23:19:17 5.8 C 75 %
1559 26-03-2015 23:31:17 5.7 C 77 %
1560 26-03-2015 23:43:17 5.8 C 77 %
1561 26-03-2015 23:55:17 5.9 C 77 %
1562 27-03-2015 00:07:17 5.9 C 77 %
1563 27-03-2015 00:19:17 5.9 C 77 %
1564 27-03-2015 00:31:17 6 C 76 %
1565 27-03-2015 00:43:17 6.1 C 74 %
1566 27-03-2015 00:55:17 6.2 C 74 %
1567 27-03-2015 01:07:17 5.9 C 78 %
1568 27-03-2015 01:19:17 6 C 79 %
1569 27-03-2015 01:31:17 6 C 78 %
1570 27-03-2015 01:43:17 5.9 C 80 %
1571 27-03-2015 01:55:17 5.7 C 80 %
1572 27-03-2015 02:07:17 5.9 C 80 %
1573 27-03-2015 02:19:17 5.8 C 79 %
1574 27-03-2015 02:31:17 5.7 C 80 %
1575 27-03-2015 02:43:17 5.6 C 80 %
Sensor: Nr:Datum:Temp:Feuchte:
Aussen-T/F 1576 27-03-2015 02:55:17 5.7 C 81 %
1577 27-03-2015 03:07:17 5.1 C 81 %
1578 27-03-2015 03:19:17 4.6 C 83 %
1579 27-03-2015 03:31:17 4.6 C 84 %
1580 27-03-2015 03:43:17 4.1 C 84 %
1581 27-03-2015 03:55:17 4.3 C 86 %
1582 27-03-2015 04:07:17 4.4 C 85 %
1583 27-03-2015 04:19:17 3.9 C 85 %
1584 27-03-2015 04:31:17 3.8 C 85 %
1585 27-03-2015 04:43:17 3.5 C 85 %
1586 27-03-2015 04:55:17 3.6 C 85 %
1587 27-03-2015 05:07:17 3.6 C 85 %
1588 27-03-2015 05:19:17 3.9 C 84 %
1589 27-03-2015 05:31:17 3.5 C 83 %
1590 27-03-2015 05:43:17 3.9 C 82 %
1591 27-03-2015 05:55:17 3.8 C 80 %
1592 27-03-2015 06:07:17 4.3 C 77 %
1593 27-03-2015 06:19:17 4.1 C 74 %
1594 27-03-2015 06:31:17 4.1 C 74 %
1595 27-03-2015 06:43:17 4.4 C 74 %
1596 27-03-2015 06:55:17 4.4 C 74 %
1597 27-03-2015 07:07:17 4.6 C 74 %
1598 27-03-2015 07:19:16 4.9 C 71 %
1599 27-03-2015 07:31:17 5 C 69 %
1600 27-03-2015 07:43:17 5.2 C 70 %
Sensor: Nr:Datum:Temp:Feuchte:
Aussen-T/F 1601 27-03-2015 07:55:17 5.4 C 69 %
1602 27-03-2015 08:07:17 5.6 C 69 %
1603 27-03-2015 08:19:17 5.7 C 68 %
1604 27-03-2015 08:31:17 5.9 C 68 %
1605 27-03-2015 08:43:17 6.1 C 66 %
1606 27-03-2015 08:55:17 6.3 C 66 %
1607 27-03-2015 09:07:17 6.7 C 65 %
1608 27-03-2015 09:19:17 6.7 C 64 %
1609 27-03-2015 09:31:17 7 C 64 %
1610 27-03-2015 09:43:17 6.8 C 63 %
1611 27-03-2015 09:55:17 7.2 C 62 %
1612 27-03-2015 10:07:17 7.7 C 60 %
1613 27-03-2015 10:19:17 8.4 C 58 %
1614 27-03-2015 10:31:17 8.3 C 57 %
1615 27-03-2015 10:43:17 8.6 C 56 %
1616 27-03-2015 10:55:17 8.4 C 56 %
1617 27-03-2015 11:07:17 8.6 C 54 %
1618 27-03-2015 11:19:17 8.8 C 53 %
1619 27-03-2015 11:31:17 8.5 C 54 %
1620 27-03-2015 11:43:17 8.7 C 56 %
1621 27-03-2015 11:55:17 8.4 C 57 %
1622 27-03-2015 12:07:18 9 C 55 %
1623 27-03-2015 12:19:17 9.3 C 50 %
1624 27-03-2015 12:31:17 9.2 C 47 %
1625 27-03-2015 12:43:17 9.2 C 46 %
Sensor: Nr:Datum:Temp:Feuchte:
Aussen-T/F 1626 27-03-2015 12:55:17 9.5 C 46 %
1627 27-03-2015 13:07:17 9.7 C 46 %
1628 27-03-2015 13:19:17 9.1 C 46 %
1629 27-03-2015 13:31:17 9.4 C 47 %
1630 27-03-2015 13:43:17 9.5 C 46 %
1631 27-03-2015 13:55:17 9.5 C 45 %
1632 27-03-2015 14:07:17 10.4 C 45 %
1633 27-03-2015 14:19:17 9.7 C 44 %
1634 27-03-2015 14:31:17 10.1 C 43 %
1635 27-03-2015 14:43:17 10.5 C 43 %
1636 27-03-2015 14:55:17 11.4 C 41 %
1637 27-03-2015 15:07:17 10.3 C 41 %
1638 27-03-2015 15:19:18 9.9 C 43 %
1639 27-03-2015 15:31:17 9.8 C 44 %
1640 27-03-2015 15:43:17 10.2 C 42 %
1641 27-03-2015 15:55:17 10.1 C 42 %
1642 27-03-2015 16:07:17 10.2 C 41 %
1643 27-03-2015 16:19:17 10.1 C 41 %
1644 27-03-2015 16:31:17 10.4 C 40 %
1645 27-03-2015 16:43:17 10.3 C 41 %
1646 27-03-2015 16:55:17 10.3 C 41 %
1647 27-03-2015 17:07:17 10.4 C 40 %
1648 27-03-2015 17:19:17 11.6 C 40 %
1649 27-03-2015 17:31:17 10.6 C 40 %
1650 27-03-2015 17:43:17 13.1 C 35 %
Sensor: Nr:Datum:Temp:Feuchte:
Aussen-T/F 1651 27-03-2015 17:55:17 10.2 C 40 %
1652 27-03-2015 18:07:17 9.7 C 41 %
1653 27-03-2015 18:19:17 9.5 C 41 %
1654 27-03-2015 18:31:17 9.3 C 42 %
1655 27-03-2015 18:43:17 9.2 C 42 %
1656 27-03-2015 18:55:17 9 C 43 %
1657 27-03-2015 19:07:17 9 C 43 %
1658 27-03-2015 19:19:17 9 C 43 %
1659 27-03-2015 19:31:17 8.6 C 47 %
1660 27-03-2015 19:43:17 8.2 C 48 %
1661 27-03-2015 19:55:17 8.1 C 50 %
1662 27-03-2015 20:07:17 8 C 50 %
1663 27-03-2015 20:19:17 7.9 C 52 %
1664 27-03-2015 20:31:17 7.8 C 53 %
1665 27-03-2015 20:43:17 7.5 C 56 %
1666 27-03-2015 20:55:17 7.5 C 57 %
1667 27-03-2015 21:07:17 7.3 C 58 %
1668 27-03-2015 21:19:17 7.2 C 58 %
1669 27-03-2015 21:31:17 7.1 C 59 %
1670 27-03-2015 21:43:17 7.1 C 60 %
1671 27-03-2015 21:55:17 7 C 61 %
1672 27-03-2015 22:07:17 6.9 C 62 %
1673 27-03-2015 22:19:17 6.6 C 62 %
1674 27-03-2015 22:31:17 6.2 C 63 %
1675 27-03-2015 22:43:18 6.4 C 64 %
Sensor: Nr:Datum:Temp:Feuchte:
Aussen-T/F 1676 27-03-2015 22:55:17 6.3 C 64 %
1677 27-03-2015 23:07:17 6.3 C 64 %
1678 27-03-2015 23:19:17 6.3 C 64 %
1679 27-03-2015 23:31:17 6 C 64 %
1680 27-03-2015 23:43:17 5.8 C 66 %
1681 27-03-2015 23:55:16 5.5 C 66 %
1682 28-03-2015 00:07:17 5.5 C 67 %
1683 28-03-2015 00:19:17 5.4 C 67 %
1684 28-03-2015 00:31:17 5.7 C 66 %
1685 28-03-2015 00:43:17 5.7 C 66 %
1686 28-03-2015 00:55:17 5.7 C 67 %
1687 28-03-2015 01:07:17 5.9 C 66 %
1688 28-03-2015 01:19:17 5.9 C 66 %
1689 28-03-2015 01:31:17 5.8 C 66 %
1690 28-03-2015 01:43:17 5.8 C 66 %
1691 28-03-2015 01:55:17 5.6 C 68 %
1692 28-03-2015 02:07:17 5.4 C 70 %
1693 28-03-2015 02:19:17 5.2 C 70 %
1694 28-03-2015 02:31:17 5 C 70 %
1695 28-03-2015 02:43:17 4.5 C 72 %
1696 28-03-2015 02:55:17 4.1 C 72 %
1697 28-03-2015 03:07:17 3.7 C 73 %
1698 28-03-2015 03:19:17 3.2 C 74 %
1699 28-03-2015 03:31:17 3 C 75 %
1700 28-03-2015 03:43:17 3.1 C 77 %
Sensor: Nr:Datum:Temp:Feuchte:
Aussen-T/F 1701 28-03-2015 03:55:17 3.4 C 77 %
1702 28-03-2015 04:07:17 4.3 C 73 %
1703 28-03-2015 04:19:17 4.1 C 72 %
1704 28-03-2015 04:31:18 3.7 C 73 %
1705 28-03-2015 04:43:18 3.7 C 73 %
1706 28-03-2015 04:55:17 3.9 C 73 %
1707 28-03-2015 05:07:17 4.2 C 71 %
1708 28-03-2015 05:19:17 4.3 C 70 %
1709 28-03-2015 05:31:17 4.2 C 69 %
1710 28-03-2015 05:43:17 4.3 C 69 %
1711 28-03-2015 05:55:17 4.4 C 69 %
1712 28-03-2015 06:07:17 4.5 C 67 %
1713 28-03-2015 06:19:17 4.5 C 67 %
1714 28-03-2015 06:31:17 4.5 C 68 %
1715 28-03-2015 06:43:17 4.5 C 67 %
1716 28-03-2015 06:55:17 4.5 C 68 %
1717 28-03-2015 07:07:17 4.6 C 67 %
1718 28-03-2015 07:19:17 4.7 C 66 %
1719 28-03-2015 07:31:17 4.8 C 66 %
1720 28-03-2015 07:43:17 5.1 C 64 %
1721 28-03-2015 07:55:17 5.3 C 63 %
1722 28-03-2015 08:07:17 5.6 C 62 %
1723 28-03-2015 08:19:17 5.8 C 61 %
1724 28-03-2015 08:31:17 6.1 C 60 %
1725 28-03-2015 08:43:17 6.3 C 59 %
Sensor: Nr:Datum:Temp:Feuchte:
Aussen-T/F 1726 28-03-2015 08:55:17 6.4 C 59 %
1727 28-03-2015 09:07:17 6.1 C 60 %
1728 28-03-2015 09:19:17 6.5 C 61 %
1729 28-03-2015 09:31:17 6.9 C 60 %
1730 28-03-2015 09:43:17 7.3 C 59 %
1731 28-03-2015 09:55:17 8.5 C 53 %
1732 28-03-2015 10:07:17 9.3 C 48 %
1733 28-03-2015 10:19:17 10.3 C 43 %
1734 28-03-2015 10:31:17 10.7 C 41 %
1735 28-03-2015 10:43:17 11.2 C 39 %
1736 28-03-2015 10:55:17 11.6 C 38 %
1737 28-03-2015 11:07:17 11.8 C 38 %
1738 28-03-2015 11:19:17 12 C 36 %
1739 28-03-2015 11:31:17 12.2 C 37 %
1740 28-03-2015 11:43:17 12.4 C 37 %
1741 28-03-2015 11:55:17 12.7 C 37 %
1742 28-03-2015 12:07:17 12.6 C 37 %
1743 28-03-2015 12:19:18 12.4 C 38 %
1744 28-03-2015 12:31:17 12.6 C 39 %
1745 28-03-2015 12:43:17 12.9 C 39 %
1746 28-03-2015 12:55:17 12.7 C 38 %
1747 28-03-2015 13:08:17 12.7 C 39 %
1748 28-03-2015 13:19:17 12.6 C 40 %
1749 28-03-2015 13:31:17 12.5 C 41 %
1750 28-03-2015 13:43:17 12.6 C 40 %
Sensor: Nr:Datum:Temp:Feuchte:
Aussen-T/F 1751 28-03-2015 13:55:17 12.5 C 41 %
1752 28-03-2015 14:07:17 12.4 C 41 %
1753 28-03-2015 14:19:17 11.4 C 47 %
1754 28-03-2015 14:31:17 11.7 C 49 %
1755 28-03-2015 14:43:17 11.2 C 53 %
1756 28-03-2015 14:56:17 10.7 C 56 %
1757 28-03-2015 15:07:17 9.8 C 66 %
1758 28-03-2015 15:19:17 9.6 C 71 %
1759 28-03-2015 15:31:17 9.7 C 73 %
1760 28-03-2015 15:43:17 9.7 C 75 %
1761 28-03-2015 15:56:17 9.5 C 76 %
1762 28-03-2015 16:07:17 9.3 C 79 %
1763 28-03-2015 16:20:17 9.2 C 81 %
1764 28-03-2015 16:31:17 8.9 C 83 %
1765 28-03-2015 16:43:17 8.7 C 83 %
1766 28-03-2015 16:55:17 8.5 C 85 %
1767 28-03-2015 17:07:17 8.5 C 86 %
1768 28-03-2015 17:20:17 8.4 C 87 %
1769 28-03-2015 17:31:17 8.4 C 87 %
1770 28-03-2015 17:43:17 8.5 C 87 %
1771 28-03-2015 17:55:17 8.6 C 86 %
1772 28-03-2015 18:07:17 8.7 C 86 %
1773 28-03-2015 18:19:17 9 C 82 %
1774 28-03-2015 18:31:17 9.1 C 79 %
1775 28-03-2015 18:43:17 9.2 C 77 %
Sensor: Nr:Datum:Temp:Feuchte:
Aussen-T/F 1776 28-03-2015 18:56:17 9.4 C 75 %
1777 28-03-2015 19:07:17 9 C 75 %
1778 28-03-2015 19:19:17 8.6 C 77 %
1779 28-03-2015 19:31:17 8.3 C 79 %
1780 28-03-2015 19:43:17 8.7 C 81 %
1781 28-03-2015 19:56:17 8.7 C 81 %
1782 28-03-2015 20:07:17 9.1 C 80 %
1783 28-03-2015 20:20:17 9.4 C 80 %
1784 28-03-2015 20:32:17 9.6 C 79 %
1785 28-03-2015 20:44:17 9.4 C 79 %
1786 28-03-2015 20:55:17 9.3 C 81 %
1787 28-03-2015 21:07:18 9.4 C 82 %
1788 28-03-2015 21:20:17 9.6 C 82 %
1789 28-03-2015 21:32:17 9.7 C 82 %
1790 28-03-2015 21:44:17 9.6 C 83 %
1791 28-03-2015 21:55:17 9.9 C 83 %
1792 28-03-2015 22:07:17 9.9 C 83 %
1793 28-03-2015 22:20:17 10.1 C 81 %
1794 28-03-2015 22:31:17 10.3 C 81 %
1795 28-03-2015 22:43:17 10.5 C 80 %
1796 28-03-2015 22:56:17 10.9 C 79 %
1797 28-03-2015 23:08:17 11.2 C 77 %
1798 28-03-2015 23:20:17 11.4 C 76 %
1799 28-03-2015 23:32:17 11.7 C 75 %
1800 28-03-2015 23:44:17 11.7 C 74 %
Sensor: Nr:Datum:Temp:Feuchte:
Aussen-T/F 1801 28-03-2015 23:56:17 11.9 C 72 %
1802 29-03-2015 00:08:17 12.1 C 71 %
1803 29-03-2015 00:19:17 12 C 70 %
1804 29-03-2015 00:32:17 12.1 C 70 %
1805 29-03-2015 00:44:17 12.1 C 70 %
1806 29-03-2015 00:56:17 12.1 C 70 %
1807 29-03-2015 01:08:17 11.8 C 71 %
1808 29-03-2015 01:20:17 12.1 C 70 %
1809 29-03-2015 01:32:17 12.1 C 70 %
1810 29-03-2015 01:44:17 12.1 C 70 %
1811 29-03-2015 01:56:17 12.1 C 70 %
1812 29-03-2015 02:08:17 11.4 C 74 %
1813 29-03-2015 02:20:17 11.3 C 77 %
1814 29-03-2015 02:32:17 11.3 C 77 %
1815 29-03-2015 02:44:17 11.5 C 74 %
1816 29-03-2015 02:56:17 11.7 C 72 %
1817 29-03-2015 04:08:17 11.7 C 71 %
1818 29-03-2015 04:20:17 11.7 C 70 %
1819 29-03-2015 04:32:17 11.5 C 72 %
1820 29-03-2015 04:44:17 11.4 C 74 %
1821 29-03-2015 04:56:17 11.5 C 73 %
1822 29-03-2015 05:08:17 11.3 C 72 %
1823 29-03-2015 05:20:17 11.3 C 72 %
1824 29-03-2015 05:32:17 11.4 C 71 %
1825 29-03-2015 05:44:17 11.4 C 72 %
Sensor: Nr:Datum:Temp:Feuchte:
Aussen-T/F 1826 29-03-2015 05:56:17 11.5 C 70 %
1827 29-03-2015 06:08:18 11.3 C 69 %
1828 29-03-2015 06:20:17 11.4 C 67 %
1829 29-03-2015 06:32:17 11.3 C 66 %
1830 29-03-2015 06:44:17 11.3 C 65 %
1831 29-03-2015 06:56:16 11.2 C 65 %
1832 29-03-2015 07:08:17 11.1 C 65 %
1833 29-03-2015 07:20:17 10.9 C 67 %
1834 29-03-2015 07:32:17 11 C 66 %
1835 29-03-2015 07:44:17 11.1 C 66 %
1836 29-03-2015 07:56:17 11.1 C 65 %
1837 29-03-2015 08:08:17 11.3 C 61 %
1838 29-03-2015 08:20:17 11.3 C 61 %
1839 29-03-2015 08:32:17 11.2 C 61 %
1840 29-03-2015 08:44:17 11.1 C 61 %
1841 29-03-2015 08:56:17 11 C 61 %
1842 29-03-2015 09:08:17 11 C 60 %
1843 29-03-2015 09:20:17 10.9 C 59 %
1844 29-03-2015 09:32:17 11 C 59 %
1845 29-03-2015 09:44:17 11 C 59 %
1846 29-03-2015 09:56:16 10.8 C 60 %
1847 29-03-2015 10:08:17 10.8 C 60 %
1848 29-03-2015 10:20:17 10.7 C 61 %
1849 29-03-2015 10:32:17 10.7 C 63 %
1850 29-03-2015 10:44:17 10.8 C 63 %
Sensor: Nr:Datum:Temp:Feuchte:
Aussen-T/F 1851 29-03-2015 10:56:17 10.7 C 65 %
1852 29-03-2015 11:08:17 10.7 C 65 %
1853 29-03-2015 11:20:16 10.7 C 64 %
1854 29-03-2015 11:32:17 10.8 C 64 %
1855 29-03-2015 11:44:17 10.9 C 66 %
1856 29-03-2015 11:56:17 10.9 C 67 %
1857 29-03-2015 12:08:17 11.1 C 66 %
1858 29-03-2015 12:20:17 11.1 C 67 %
1859 29-03-2015 12:32:16 10.8 C 69 %
1860 29-03-2015 12:44:17 10.7 C 72 %
1861 29-03-2015 12:56:17 10.7 C 73 %
1862 29-03-2015 13:08:17 10.6 C 74 %
1863 29-03-2015 13:20:17 10.7 C 74 %
1864 29-03-2015 13:32:17 10.8 C 74 %
1865 29-03-2015 13:44:17 11.3 C 73 %
1866 29-03-2015 13:56:16 11.3 C 71 %
1867 29-03-2015 14:08:17 11.5 C 71 %
1868 29-03-2015 14:20:17 11.1 C 72 %
1869 29-03-2015 14:32:16 11.2 C 72 %
1870 29-03-2015 14:44:16 11.5 C 71 %
1871 29-03-2015 14:56:17 11.3 C 71 %
1872 29-03-2015 15:08:17 11.3 C 71 %
1873 29-03-2015 15:20:17 11.7 C 70 %
1874 29-03-2015 15:32:17 11.9 C 69 %
1875 29-03-2015 15:44:17 11.8 C 68 %
Sensor: Nr:Datum:Temp:Feuchte:
Aussen-T/F 1876 29-03-2015 15:56:17 11.6 C 70 %
1877 29-03-2015 16:08:17 11.5 C 72 %
1878 29-03-2015 16:20:16 11.8 C 72 %
1879 29-03-2015 16:32:17 11.8 C 71 %
1880 29-03-2015 16:44:17 11.8 C 71 %
1881 29-03-2015 16:56:17 11.7 C 72 %
1882 29-03-2015 17:08:17 11.6 C 73 %
1883 29-03-2015 17:20:16 11.5 C 74 %
1884 29-03-2015 17:32:17 11.7 C 74 %
1885 29-03-2015 17:44:17 11.4 C 76 %
1886 29-03-2015 17:56:17 11.4 C 78 %
1887 29-03-2015 18:08:17 11.3 C 79 %
1888 29-03-2015 18:20:17 11.4 C 80 %
1889 29-03-2015 18:32:17 11.3 C 80 %
1890 29-03-2015 18:44:18 11.3 C 80 %
1891 29-03-2015 18:56:17 11.4 C 80 %
1892 29-03-2015 19:08:17 11.5 C 79 %
1893 29-03-2015 19:20:17 11.8 C 77 %
1894 29-03-2015 19:32:17 11.8 C 76 %
1895 29-03-2015 19:44:17 12.1 C 72 %
1896 29-03-2015 19:56:17 12.2 C 70 %
1897 29-03-2015 20:08:17 12 C 71 %
1898 29-03-2015 20:20:17 12.1 C 71 %
1899 29-03-2015 20:32:17 12.2 C 71 %
1900 29-03-2015 20:44:17 11.6 C 73 %
Sensor: Nr:Datum:Temp:Feuchte:
Aussen-T/F 1901 29-03-2015 20:56:17 11.3 C 76 %
1902 29-03-2015 21:08:17 11.4 C 78 %
1903 29-03-2015 21:20:17 11.2 C 78 %
1904 29-03-2015 21:32:17 11.2 C 72 %
1905 29-03-2015 21:44:17 11.8 C 66 %
1906 29-03-2015 21:56:17 11.8 C 63 %
1907 29-03-2015 22:08:17 11.9 C 58 %
1908 29-03-2015 22:20:17 11.6 C 60 %
1909 29-03-2015 22:32:17 10.8 C 66 %
1910 29-03-2015 22:44:17 9.6 C 73 %
1911 29-03-2015 22:56:17 8.6 C 73 %
1912 29-03-2015 23:08:17 8.3 C 74 %
1913 29-03-2015 23:20:17 8.2 C 74 %
1914 29-03-2015 23:32:17 8.4 C 75 %
1915 29-03-2015 23:44:17 8.3 C 74 %
1916 29-03-2015 23:56:17 8.1 C 73 %
1917 30-03-2015 00:08:17 8.2 C 74 %
1918 30-03-2015 00:20:17 8.2 C 73 %
1919 30-03-2015 00:32:17 7.8 C 78 %
1920 30-03-2015 00:44:17 7.7 C 79 %
1921 30-03-2015 00:56:17 7.5 C 82 %
1922 30-03-2015 01:08:17 7.4 C 84 %
1923 30-03-2015 01:20:17 7.4 C 84 %
1924 30-03-2015 01:32:17 7.5 C 81 %
1925 30-03-2015 01:44:17 7.9 C 76 %
Sensor: Nr:Datum:Temp:Feuchte:
Aussen-T/F 1926 30-03-2015 01:56:17 7.9 C 74 %
1927 30-03-2015 02:08:17 7.9 C 73 %
1928 30-03-2015 02:20:17 7.9 C 73 %
1929 30-03-2015 02:32:17 7.9 C 74 %
1930 30-03-2015 02:44:18 7.7 C 76 %
1931 30-03-2015 02:56:17 7.8 C 75 %
1932 30-03-2015 03:08:17 8 C 73 %
1933 30-03-2015 03:20:17 7.9 C 74 %
1934 30-03-2015 03:32:17 7.3 C 79 %
1935 30-03-2015 03:44:17 7 C 84 %
1936 30-03-2015 03:56:17 7 C 85 %
1937 30-03-2015 04:08:17 6.9 C 83 %
1938 30-03-2015 04:20:17 6.8 C 82 %
1939 30-03-2015 04:32:17 6.8 C 82 %
1940 30-03-2015 04:44:17 6.8 C 82 %
1941 30-03-2015 04:56:17 6.9 C 80 %
1942 30-03-2015 05:08:17 6.9 C 79 %
1943 30-03-2015 05:20:17 6.8 C 80 %
1944 30-03-2015 05:32:17 6.7 C 81 %
1945 30-03-2015 05:44:17 6.6 C 80 %
1946 30-03-2015 05:56:17 6.9 C 79 %
1947 30-03-2015 06:08:17 6.7 C 78 %
1948 30-03-2015 06:20:17 6.3 C 78 %
1949 30-03-2015 06:32:17 5.9 C 79 %
1950 30-03-2015 06:44:17 5.9 C 79 %
Sensor: Nr:Datum:Temp:Feuchte:
Aussen-T/F 1951 30-03-2015 06:56:17 5.7 C 79 %
1952 30-03-2015 07:08:17 5.8 C 78 %
1953 30-03-2015 07:20:17 6.2 C 73 %
1954 30-03-2015 07:32:17 6.5 C 67 %
1955 30-03-2015 07:44:17 6.4 C 65 %
1956 30-03-2015 07:56:17 6.8 C 63 %
1957 30-03-2015 08:08:17 6.8 C 63 %
1958 30-03-2015 08:20:17 6.7 C 65 %
1959 30-03-2015 08:32:17 6.7 C 66 %
1960 30-03-2015 08:44:17 6.9 C 66 %
1961 30-03-2015 08:56:17 7 C 66 %
1962 30-03-2015 09:08:17 7.3 C 62 %
1963 30-03-2015 09:20:17 7.7 C 60 %
1964 30-03-2015 09:32:17 7.8 C 58 %
1965 30-03-2015 09:44:17 7.9 C 57 %
1966 30-03-2015 09:56:17 8 C 55 %
1967 30-03-2015 10:08:17 7.5 C 60 %
1968 30-03-2015 10:20:17 7.6 C 60 %
1969 30-03-2015 10:32:17 7.9 C 59 %
1970 30-03-2015 10:44:17 8.2 C 58 %
1971 30-03-2015 10:56:17 8.5 C 53 %
1972 30-03-2015 11:08:17 9 C 48 %
1973 30-03-2015 11:20:17 9.1 C 44 %
1974 30-03-2015 11:32:17 9.2 C 41 %
1975 30-03-2015 11:44:17 7.5 C 49 %
Sensor: Nr:Datum:Temp:Feuchte:
Aussen-T/F 1976 30-03-2015 11:56:17 7.6 C 54 %
1977 30-03-2015 12:08:17 7.4 C 52 %
1978 30-03-2015 12:20:17 8.3 C 50 %
1979 30-03-2015 12:32:17 9 C 49 %
1980 30-03-2015 12:44:17 9.4 C 45 %
1981 30-03-2015 12:56:17 10.2 C 43 %
1982 30-03-2015 13:08:18 9.7 C 41 %
1983 30-03-2015 13:20:17 9.7 C 40 %
1984 30-03-2015 13:32:17 10.2 C 40 %
1985 30-03-2015 13:44:17 9.7 C 41 %
1986 30-03-2015 13:56:17 8.5 C 48 %
1987 30-03-2015 14:08:17 7.9 C 55 %
1988 30-03-2015 14:20:17 8.9 C 51 %
1989 30-03-2015 14:32:17 9.4 C 50 %
1990 30-03-2015 14:44:17 9.2 C 47 %
1991 30-03-2015 14:56:17 9.7 C 45 %
1992 30-03-2015 15:08:17 9.9 C 45 %
1993 30-03-2015 15:20:17 8.4 C 51 %
1994 30-03-2015 15:32:17 9.2 C 49 %
1995 30-03-2015 15:44:17 9.9 C 44 %
1996 30-03-2015 15:56:17 10.2 C 40 %
1997 30-03-2015 16:08:17 10.1 C 39 %
1998 30-03-2015 16:20:17 10.1 C 39 %
1999 30-03-2015 16:32:17 10.4 C 39 %
2000 30-03-2015 16:44:17 11.2 C 38 %
Sensor: Nr:Datum:Temp:Feuchte:
Aussen-T/F 2001 30-03-2015 16:56:17 10.5 C 40 %
2002 30-03-2015 17:08:17 11.1 C 38 %
2003 30-03-2015 17:20:17 10.6 C 36 %
2004 30-03-2015 17:32:17 10 C 33 %
2005 30-03-2015 17:44:17 10.4 C 34 %
2006 30-03-2015 17:56:17 11.4 C 31 %
2007 30-03-2015 18:08:17 9.8 C 34 %
2008 30-03-2015 18:20:17 9.5 C 35 %
2009 30-03-2015 18:32:17 9.1 C 35 %
2010 30-03-2015 18:44:17 8.9 C 35 %
2011 30-03-2015 18:56:17 9.1 C 35 %
2012 30-03-2015 19:08:17 9.2 C 36 %
2013 30-03-2015 19:20:17 9 C 35 %
2014 30-03-2015 19:32:17 8.7 C 36 %
2015 30-03-2015 19:44:17 8.2 C 36 %
2016 30-03-2015 19:56:17 7.9 C 40 %
2017 30-03-2015 20:08:17 7.9 C 40 %
2018 30-03-2015 20:20:17 7.3 C 41 %
2019 30-03-2015 20:32:17 6.8 C 45 %
2020 30-03-2015 20:44:17 6.2 C 48 %
2021 30-03-2015 20:56:17 5.9 C 51 %
2022 30-03-2015 21:08:17 5.5 C 53 %
2023 30-03-2015 21:20:17 5.1 C 56 %
2024 30-03-2015 21:32:17 4.8 C 59 %
2025 30-03-2015 21:44:17 4.5 C 63 %
Sensor: Nr:Datum:Temp:Feuchte:
Aussen-T/F 2026 30-03-2015 21:56:17 4.2 C 65 %
2027 30-03-2015 22:08:17 4.5 C 65 %
2028 30-03-2015 22:20:17 4.6 C 66 %
2029 30-03-2015 22:32:17 4.7 C 67 %
2030 30-03-2015 22:44:17 4.7 C 64 %
2031 30-03-2015 22:56:17 5.3 C 60 %
2032 30-03-2015 23:08:17 5.4 C 60 %
2033 30-03-2015 23:20:17 5.3 C 61 %
2034 30-03-2015 23:32:17 5.3 C 62 %
2035 30-03-2015 23:44:17 5.4 C 62 %
2036 30-03-2015 23:56:17 5.6 C 61 %
2037 31-03-2015 00:08:17 5.7 C 62 %
2038 31-03-2015 00:20:17 5.6 C 69 %
2039 31-03-2015 00:32:17 5.6 C 74 %
2040 31-03-2015 00:44:17 5.6 C 76 %
2041 31-03-2015 00:56:17 5.8 C 78 %
2042 31-03-2015 01:08:17 5.9 C 77 %
2043 31-03-2015 01:20:17 6.3 C 73 %
2044 31-03-2015 01:32:17 7 C 70 %
2045 31-03-2015 01:44:17 7.2 C 68 %
2046 31-03-2015 01:56:17 7.5 C 67 %
2047 31-03-2015 02:08:17 7.7 C 67 %
2048 31-03-2015 02:20:17 7.9 C 67 %
2049 31-03-2015 02:32:17 8 C 68 %
2050 31-03-2015 02:44:17 8.2 C 69 %
Sensor: Nr:Datum:Temp:Feuchte:
Aussen-T/F 2051 31-03-2015 02:56:17 8.4 C 70 %
2052 31-03-2015 03:08:17 8.6 C 71 %
2053 31-03-2015 03:20:17 8.9 C 72 %
2054 31-03-2015 03:32:17 9.1 C 71 %
2055 31-03-2015 03:44:17 9.2 C 72 %
2056 31-03-2015 03:56:17 9.6 C 73 %
2057 31-03-2015 04:08:17 9.8 C 73 %
2058 31-03-2015 04:20:17 10.4 C 71 %
2059 31-03-2015 04:32:17 10.7 C 70 %
2060 31-03-2015 04:44:17 11.2 C 68 %
2061 31-03-2015 04:56:17 11.5 C 67 %
2062 31-03-2015 05:08:17 11.9 C 65 %
2063 31-03-2015 05:20:17 12.3 C 63 %
2064 31-03-2015 05:32:17 12.4 C 62 %
2065 31-03-2015 05:44:17 12.5 C 62 %
2066 31-03-2015 05:56:17 12.6 C 61 %
2067 31-03-2015 06:08:17 12.8 C 60 %
2068 31-03-2015 06:20:17 12.9 C 60 %
2069 31-03-2015 06:32:17 13.1 C 58 %
2070 31-03-2015 06:44:17 13.2 C 59 %
2071 31-03-2015 06:56:17 12.6 C 64 %
2072 31-03-2015 07:08:17 11.8 C 70 %
2073 31-03-2015 07:20:17 11.3 C 77 %
2074 31-03-2015 07:32:17 11 C 80 %
2075 31-03-2015 07:44:17 11.4 C 80 %
Sensor: Nr:Datum:Temp:Feuchte:
Aussen-T/F 2076 31-03-2015 07:56:17 12.4 C 67 %
2077 31-03-2015 08:08:17 12.4 C 60 %
2078 31-03-2015 08:20:17 12.2 C 59 %
2079 31-03-2015 08:32:17 12.2 C 57 %
2080 31-03-2015 08:44:17 12.1 C 57 %
2081 31-03-2015 08:56:17 12 C 59 %
2082 31-03-2015 09:08:17 11.5 C 62 %
2083 31-03-2015 09:20:17 11.5 C 63 %
2084 31-03-2015 09:32:17 11.8 C 59 %
2085 31-03-2015 09:44:17 12.3 C 55 %
2086 31-03-2015 09:56:17 12.7 C 53 %
2087 31-03-2015 10:08:17 12.9 C 51 %
2088 31-03-2015 10:20:17 12.9 C 51 %
2089 31-03-2015 10:32:17 12.8 C 52 %
2090 31-03-2015 10:44:17 12.9 C 51 %
2091 31-03-2015 10:56:17 13 C 48 %
2092 31-03-2015 11:08:17 13.1 C 46 %
2093 31-03-2015 11:20:17 10.3 C 61 %
2094 31-03-2015 11:32:17 9.9 C 69 %
2095 31-03-2015 11:44:17 10.4 C 66 %
2096 31-03-2015 11:56:17 11.3 C 57 %
2097 31-03-2015 12:08:17 9.5 C 67 %
2098 31-03-2015 12:20:17 8.6 C 72 %
2099 31-03-2015 12:32:17 8.1 C 77 %
2100 31-03-2015 12:44:17 8.6 C 79 %
Sensor: Nr:Datum:Temp:Feuchte:
Aussen-T/F 2101 31-03-2015 12:56:17 8.4 C 75 %
2102 31-03-2015 13:08:17 8.7 C 72 %
2103 31-03-2015 13:20:17 9.1 C 71 %
2104 31-03-2015 13:32:17 9.4 C 65 %
2105 31-03-2015 13:44:17 9.6 C 62 %
2106 31-03-2015 13:56:17 10.3 C 57 %
2107 31-03-2015 14:08:17 11.2 C 58 %
2108 31-03-2015 14:20:17 10.9 C 57 %
2109 31-03-2015 14:32:17 9.1 C 64 %
2110 31-03-2015 14:44:17 8.5 C 63 %
2111 31-03-2015 14:56:17 7.9 C 66 %
2112 31-03-2015 15:08:17 8.3 C 68 %
2113 31-03-2015 15:20:17 9.7 C 63 %
2114 31-03-2015 15:32:17 10.6 C 56 %
2115 31-03-2015 15:44:17 11 C 52 %
2116 31-03-2015 15:56:17 10.6 C 51 %
2117 31-03-2015 16:08:17 11.1 C 49 %
2118 31-03-2015 16:20:17 12.1 C 44 %
2119 31-03-2015 16:32:17 13.1 C 41 %
2120 31-03-2015 16:44:17 12.8 C 38 %
2121 31-03-2015 16:56:17 12.4 C 37 %
2122 31-03-2015 17:08:17 13.2 C 33 %
2123 31-03-2015 17:20:17 12.1 C 31 %
2124 31-03-2015 17:32:17 12.7 C 33 %
2125 31-03-2015 17:44:17 13.2 C 30 %
Sensor: Nr:Datum:Temp:Feuchte:
Aussen-T/F 2126 31-03-2015 17:56:17 11.8 C 35 %
2127 31-03-2015 18:08:17 12.4 C 34 %
2128 31-03-2015 18:20:17 10.9 C 36 %
2129 31-03-2015 18:32:18 10.8 C 38 %
2130 31-03-2015 18:44:18 10.1 C 37 %
2131 31-03-2015 18:56:17 11.1 C 37 %
2132 31-03-2015 19:08:17 9.4 C 41 %
2133 31-03-2015 19:20:17 9.3 C 41 %
2134 31-03-2015 19:32:17 8.8 C 44 %
2135 31-03-2015 19:44:17 8.7 C 45 %
2136 31-03-2015 19:56:17 8.2 C 46 %
2137 31-03-2015 20:08:17 7.8 C 49 %
2138 31-03-2015 20:20:17 7.5 C 50 %
2139 31-03-2015 20:32:17 7.4 C 52 %
2140 31-03-2015 20:44:17 7.6 C 52 %
2141 31-03-2015 20:56:17 7.5 C 52 %
2142 31-03-2015 21:08:17 7.8 C 52 %
2143 31-03-2015 21:20:17 5.2 C 67 %
2144 31-03-2015 21:32:17 4.4 C 78 %
2145 31-03-2015 21:44:17 4.6 C 82 %
2146 31-03-2015 21:56:17 4.5 C 83 %
2147 31-03-2015 22:08:17 4.4 C 84 %
2148 31-03-2015 22:20:17 4.5 C 84 %
2149 31-03-2015 22:32:17 4.6 C 84 %
2150 31-03-2015 22:44:17 5 C 81 %
Sensor: Nr:Datum:Temp:Feuchte:
Aussen-T/F 2151 31-03-2015 22:56:17 4.7 C 81 %
2152 31-03-2015 23:08:17 4.6 C 81 %
2153 31-03-2015 23:20:17 4.7 C 81 %
2154 31-03-2015 23:32:17 5.3 C 76 %
2155 31-03-2015 23:44:17 5.3 C 69 %
2156 31-03-2015 23:56:17 3 C 77 %
2157 01-04-2015 00:08:17 3 C 83 %
2158 01-04-2015 00:20:17 3.2 C 85 %
2159 01-04-2015 00:32:17 3.5 C 86 %
2160 01-04-2015 00:44:17 3.6 C 85 %
2161 01-04-2015 00:56:17 3.9 C 83 %
2162 01-04-2015 01:08:17 4.3 C 79 %
2163 01-04-2015 01:20:17 4.4 C 75 %
2164 01-04-2015 01:32:17 4.4 C 74 %
2165 01-04-2015 01:44:17 4.4 C 72 %
2166 01-04-2015 01:56:17 4.5 C 69 %
2167 01-04-2015 02:08:17 4.5 C 68 %
2168 01-04-2015 02:20:17 4.4 C 67 %
2169 01-04-2015 02:32:17 4.2 C 67 %
2170 01-04-2015 02:44:17 4.2 C 68 %
2171 01-04-2015 02:56:17 4.4 C 68 %
2172 01-04-2015 03:08:17 4.4 C 66 %
2173 01-04-2015 03:20:17 4.5 C 63 %
2174 01-04-2015 03:32:17 4.4 C 61 %
2175 01-04-2015 03:44:17 4.3 C 62 %
Sensor: Nr:Datum:Temp:Feuchte:
Aussen-T/F 2176 01-04-2015 03:56:17 4.5 C 61 %
2177 01-04-2015 04:08:17 4.6 C 59 %
2178 01-04-2015 04:20:17 4.4 C 59 %
2179 01-04-2015 04:32:18 4.1 C 61 %
2180 01-04-2015 04:44:18 4.2 C 63 %
2181 01-04-2015 04:56:17 4.5 C 61 %
2182 01-04-2015 05:08:17 4.2 C 62 %
2183 01-04-2015 05:20:17 3.7 C 65 %
2184 01-04-2015 05:32:17 4.3 C 59 %
2185 01-04-2015 05:44:17 3.9 C 60 %
2186 01-04-2015 05:56:17 3.8 C 60 %
2187 01-04-2015 06:08:17 4.3 C 57 %
2188 01-04-2015 06:20:17 4.1 C 56 %
2189 01-04-2015 06:32:17 4 C 56 %
2190 01-04-2015 06:44:17 4 C 58 %
2191 01-04-2015 06:56:17 4 C 61 %
2192 01-04-2015 07:08:17 3.4 C 65 %
2193 01-04-2015 07:20:17 3.5 C 65 %
2194 01-04-2015 07:32:17 3.5 C 65 %
2195 01-04-2015 07:44:17 3.6 C 66 %
2196 01-04-2015 07:56:17 3.5 C 68 %
2197 01-04-2015 08:08:17 3.5 C 70 %
2198 01-04-2015 08:20:17 3.7 C 69 %
2199 01-04-2015 08:32:17 3.6 C 71 %
2200 01-04-2015 08:44:17 3.7 C 71 %
Sensor: Nr:Datum:Temp:Feuchte:
Aussen-T/F 2201 01-04-2015 08:56:17 3.7 C 71 %
2202 01-04-2015 09:08:17 4.1 C 69 %
2203 01-04-2015 09:20:17 4.5 C 66 %
2204 01-04-2015 09:32:18 4.7 C 63 %
2205 01-04-2015 09:44:18 5.1 C 59 %
2206 01-04-2015 09:56:17 5.4 C 58 %
2207 01-04-2015 10:08:17 5.7 C 56 %
2208 01-04-2015 10:20:17 5.7 C 55 %
2209 01-04-2015 10:32:17 6 C 53 %
2210 01-04-2015 10:44:17 6.1 C 54 %
2211 01-04-2015 10:56:17 6.7 C 52 %
2212 01-04-2015 11:08:17 6.7 C 51 %
2213 01-04-2015 11:20:17 7.4 C 50 %
2214 01-04-2015 11:32:17 7.1 C 49 %
2215 01-04-2015 11:44:17 7.1 C 48 %
2216 01-04-2015 11:56:17 7.1 C 48 %
2217 01-04-2015 12:08:17 7.7 C 48 %
2218 01-04-2015 12:20:17 8 C 46 %
2219 01-04-2015 12:32:17 8.2 C 44 %
2220 01-04-2015 12:44:17 7.6 C 46 %
2221 01-04-2015 12:56:17 7.5 C 46 %
2222 01-04-2015 13:08:17 7 C 47 %
2223 01-04-2015 13:20:17 8.1 C 45 %
2224 01-04-2015 13:32:17 7.8 C 44 %
2225 01-04-2015 13:44:17 7 C 51 %
Sensor: Nr:Datum:Temp:Feuchte:
Aussen-T/F 2226 01-04-2015 13:56:17 5 C 69 %
2227 01-04-2015 14:08:17 5.6 C 69 %
2228 01-04-2015 14:20:17 6.8 C 66 %
2229 01-04-2015 14:32:17 6.6 C 57 %
2230 01-04-2015 14:44:17 7.7 C 55 %
2231 01-04-2015 14:56:17 8.4 C 50 %
2232 01-04-2015 15:08:17 7.9 C 48 %
2233 01-04-2015 15:20:17 4.1 C 69 %
2234 01-04-2015 15:32:17 5.1 C 74 %
2235 01-04-2015 15:44:17 6.2 C 70 %
2236 01-04-2015 15:56:17 7 C 60 %
2237 01-04-2015 16:08:17 7.3 C 56 %
2238 01-04-2015 16:20:17 8 C 54 %
2239 01-04-2015 16:32:17 7.6 C 50 %
2240 01-04-2015 16:44:17 8.8 C 46 %
2241 01-04-2015 16:56:17 8.3 C 42 %
2242 01-04-2015 17:08:17 8.3 C 43 %
2243 01-04-2015 17:20:17 7.6 C 45 %
2244 01-04-2015 17:32:17 7.6 C 45 %
2245 01-04-2015 17:44:17 7.9 C 42 %
2246 01-04-2015 17:56:17 7.9 C 43 %
2247 01-04-2015 18:08:17 8.5 C 41 %
2248 01-04-2015 18:20:17 8.7 C 41 %
2249 01-04-2015 18:32:17 9.4 C 38 %
2250 01-04-2015 18:44:17 9.5 C 38 %
Sensor: Nr:Datum:Temp:Feuchte:
Aussen-T/F 2251 01-04-2015 18:56:17 9.5 C 38 %
2252 01-04-2015 19:08:17 8.5 C 40 %
2253 01-04-2015 19:20:17 8 C 41 %
2254 01-04-2015 19:32:17 7.7 C 42 %
2255 01-04-2015 19:44:17 7.4 C 44 %
2256 01-04-2015 19:56:17 7 C 45 %
2257 01-04-2015 20:08:17 6.7 C 46 %
2258 01-04-2015 20:20:17 6.8 C 46 %
2259 01-04-2015 20:32:17 6.2 C 50 %
2260 01-04-2015 20:44:17 6.7 C 48 %
2261 01-04-2015 20:56:17 6.5 C 50 %
2262 01-04-2015 21:08:17 6.5 C 49 %
2263 01-04-2015 21:20:17 6.4 C 50 %
2264 01-04-2015 21:32:17 5.9 C 54 %
2265 01-04-2015 21:44:17 6 C 54 %
2266 01-04-2015 21:56:17 5.8 C 55 %
2267 01-04-2015 22:08:17 5.7 C 57 %
2268 01-04-2015 22:20:17 5.7 C 58 %
2269 01-04-2015 22:32:18 5.5 C 60 %
2270 01-04-2015 22:44:18 5.4 C 60 %
2271 01-04-2015 22:56:17 5.4 C 60 %
2272 01-04-2015 23:08:17 5.3 C 61 %
2273 01-04-2015 23:20:17 5.4 C 60 %
2274 01-04-2015 23:32:17 5.5 C 61 %
2275 01-04-2015 23:44:17 5.3 C 61 %
Sensor: Nr:Datum:Temp:Feuchte:
Aussen-T/F 2276 01-04-2015 23:56:17 5.2 C 63 %
2277 02-04-2015 00:08:17 5.1 C 63 %
2278 02-04-2015 00:20:17 5 C 65 %
2279 02-04-2015 00:32:17 4.9 C 67 %
2280 02-04-2015 00:44:17 5 C 66 %
2281 02-04-2015 00:56:17 5 C 66 %
2282 02-04-2015 01:08:17 5.1 C 66 %
2283 02-04-2015 01:20:17 5 C 66 %
2284 02-04-2015 01:32:17 5 C 66 %
2285 02-04-2015 01:44:17 5 C 66 %
2286 02-04-2015 01:56:16 5 C 67 %
2287 02-04-2015 02:08:17 5 C 67 %
2288 02-04-2015 02:20:17 5.2 C 66 %
2289 02-04-2015 02:32:17 5.2 C 66 %
2290 02-04-2015 02:44:17 5.1 C 67 %
2291 02-04-2015 02:56:17 5.1 C 68 %
2292 02-04-2015 03:08:17 5.1 C 68 %
2293 02-04-2015 03:20:17 5.1 C 68 %
2294 02-04-2015 03:32:17 5.1 C 68 %
2295 02-04-2015 03:44:17 4.9 C 71 %
2296 02-04-2015 03:56:17 4.8 C 74 %
2297 02-04-2015 04:08:17 4.8 C 74 %
2298 02-04-2015 04:20:17 4.8 C 75 %
2299 02-04-2015 04:32:17 4.8 C 75 %
2300 02-04-2015 04:44:17 4.8 C 75 %
Sensor: Nr:Datum:Temp:Feuchte:
Aussen-T/F 2301 02-04-2015 04:56:16 4.8 C 75 %
2302 02-04-2015 05:08:17 4.7 C 76 %
2303 02-04-2015 05:20:17 4.6 C 77 %
2304 02-04-2015 05:32:17 4.4 C 79 %
2305 02-04-2015 05:44:17 4.5 C 79 %
2306 02-04-2015 05:56:17 4.3 C 81 %
2307 02-04-2015 06:08:17 4.3 C 81 %
2308 02-04-2015 06:20:17 4.2 C 82 %
2309 02-04-2015 06:32:17 4.3 C 82 %
2310 02-04-2015 06:44:17 4.3 C 83 %
2311 02-04-2015 06:56:17 4.2 C 84 %
2312 02-04-2015 07:08:17 4.1 C 85 %
2313 02-04-2015 07:20:17 4.1 C 85 %
2314 02-04-2015 07:32:17 4.2 C 85 %
2315 02-04-2015 07:44:17 4.2 C 85 %
2316 02-04-2015 07:56:17 4.2 C 86 %
2317 02-04-2015 08:08:17 4.3 C 86 %
2318 02-04-2015 08:20:17 4.3 C 86 %
2319 02-04-2015 08:32:17 4.5 C 86 %
2320 02-04-2015 08:44:17 4.5 C 87 %
2321 02-04-2015 08:56:17 4.5 C 87 %
2322 02-04-2015 09:08:17 4.7 C 86 %
2323 02-04-2015 09:20:17 4.9 C 85 %
2324 02-04-2015 09:32:17 5.1 C 84 %
2325 02-04-2015 09:44:17 5.2 C 83 %
Sensor: Nr:Datum:Temp:Feuchte:
Aussen-T/F 2326 02-04-2015 09:56:17 5.2 C 83 %
2327 02-04-2015 10:08:17 5.3 C 83 %
2328 02-04-2015 10:20:17 5.5 C 82 %
2329 02-04-2015 10:32:17 5.2 C 80 %
2330 02-04-2015 10:44:17 5.2 C 80 %
2331 02-04-2015 10:56:17 5.1 C 77 %
2332 02-04-2015 11:08:17 5.1 C 77 %
2333 02-04-2015 11:20:17 5.6 C 77 %
2334 02-04-2015 11:32:17 5.9 C 74 %
2335 02-04-2015 11:44:17 5.9 C 70 %
2336 02-04-2015 11:56:17 6.2 C 66 %
2337 02-04-2015 12:08:17 6.1 C 62 %
2338 02-04-2015 12:20:17 5.9 C 61 %
2339 02-04-2015 12:32:17 6.1 C 60 %
2340 02-04-2015 12:44:17 6.4 C 58 %
2341 02-04-2015 12:56:17 7.1 C 54 %
2342 02-04-2015 13:08:17 6.7 C 51 %
2343 02-04-2015 13:20:17 7 C 52 %
2344 02-04-2015 13:32:17 7.6 C 48 %
2345 02-04-2015 13:44:17 7.9 C 46 %
2346 02-04-2015 13:56:17 8.1 C 47 %
2347 02-04-2015 14:08:17 7.7 C 49 %
2348 02-04-2015 14:20:17 8.1 C 47 %
2349 02-04-2015 14:32:17 8 C 47 %
2350 02-04-2015 14:44:18 7.4 C 50 %
Sensor: Nr:Datum:Temp:Feuchte:
Aussen-T/F 2351 02-04-2015 14:56:17 7.9 C 49 %
2352 02-04-2015 15:08:17 7.9 C 46 %
2353 02-04-2015 15:20:17 8.7 C 45 %
2354 02-04-2015 15:32:17 8.8 C 43 %
2355 02-04-2015 15:44:17 9.2 C 40 %
2356 02-04-2015 15:56:17 9 C 37 %
2357 02-04-2015 16:08:17 9.1 C 36 %
2358 02-04-2015 16:20:17 9.3 C 39 %
2359 02-04-2015 16:32:17 8.9 C 38 %
2360 02-04-2015 16:44:17 9.1 C 36 %
2361 02-04-2015 16:56:17 9 C 38 %
2362 02-04-2015 17:08:17 9.8 C 36 %
2363 02-04-2015 17:20:17 8.7 C 37 %
2364 02-04-2015 17:32:17 8.7 C 38 %
2365 02-04-2015 17:44:17 8.5 C 37 %
2366 02-04-2015 17:56:17 9.5 C 36 %
2367 02-04-2015 18:08:17 9.9 C 36 %
2368 02-04-2015 18:20:17 9.7 C 36 %
2369 02-04-2015 18:32:17 9 C 36 %
2370 02-04-2015 18:44:17 10.3 C 33 %
2371 02-04-2015 18:56:17 11.4 C 32 %
2372 02-04-2015 19:08:17 8.8 C 36 %
2373 02-04-2015 19:20:17 7.8 C 40 %
2374 02-04-2015 19:32:17 7.3 C 41 %
2375 02-04-2015 19:44:17 6.9 C 42 %
Sensor: Nr:Datum:Temp:Feuchte:
Aussen-T/F 2376 02-04-2015 19:56:17 6.8 C 43 %
2377 02-04-2015 20:08:17 6.2 C 45 %
2378 02-04-2015 20:20:17 6.2 C 45 %
2379 02-04-2015 20:32:17 6 C 45 %
2380 02-04-2015 20:44:17 5.8 C 46 %
2381 02-04-2015 20:56:17 5.9 C 47 %
2382 02-04-2015 21:08:17 5.8 C 47 %
2383 02-04-2015 21:20:17 5.3 C 50 %
2384 02-04-2015 21:32:17 5.1 C 52 %
2385 02-04-2015 21:44:17 4.6 C 55 %
2386 02-04-2015 21:56:17 4.1 C 58 %
2387 02-04-2015 22:08:17 4 C 59 %
2388 02-04-2015 22:20:17 3.8 C 61 %
2389 02-04-2015 22:32:17 3.9 C 62 %
2390 02-04-2015 22:44:17 3.7 C 63 %
2391 02-04-2015 22:56:17 3.9 C 62 %
2392 02-04-2015 23:08:17 4.4 C 58 %
2393 02-04-2015 23:20:17 4.3 C 58 %
2394 02-04-2015 23:32:17 4.3 C 58 %
2395 02-04-2015 23:44:17 3.7 C 61 %
2396 02-04-2015 23:56:17 3.2 C 64 %
2397 03-04-2015 00:08:18 3.1 C 66 %
2398 03-04-2015 00:20:17 2.7 C 67 %
2399 03-04-2015 00:32:17 2.8 C 68 %
2400 03-04-2015 00:44:17 2.8 C 68 %
Sensor: Nr:Datum:Temp:Feuchte:
Aussen-T/F 2401 03-04-2015 00:56:17 2.5 C 69 %
2402 03-04-2015 01:08:17 2 C 71 %
2403 03-04-2015 01:20:17 1.7 C 75 %
2404 03-04-2015 01:32:17 1.6 C 76 %
2405 03-04-2015 01:44:17 1.4 C 77 %
2406 03-04-2015 01:56:17 1.6 C 78 %
2407 03-04-2015 02:08:17 2 C 76 %
2408 03-04-2015 02:20:17 2.3 C 76 %
2409 03-04-2015 02:32:17 2.5 C 73 %
2410 03-04-2015 02:44:17 2.6 C 71 %
2411 03-04-2015 02:56:17 2.6 C 69 %
2412 03-04-2015 03:08:17 2.6 C 69 %
2413 03-04-2015 03:20:17 2.5 C 68 %
2414 03-04-2015 03:32:17 2 C 70 %
2415 03-04-2015 03:44:17 1.6 C 72 %
2416 03-04-2015 03:56:17 1 C 74 %
2417 03-04-2015 04:08:17 0.5 C 77 %
2418 03-04-2015 04:20:17 0.5 C 79 %
2419 03-04-2015 04:32:17 0.4 C 81 %
2420 03-04-2015 04:44:17 0.3 C 81 %
2421 03-04-2015 04:56:17 0.2 C 82 %
2422 03-04-2015 05:08:18 0 C 82 %
2423 03-04-2015 05:20:17 -0.3 C 83 %
2424 03-04-2015 05:32:17 -0.5 C 84 %
2425 03-04-2015 05:44:17 -0.5 C 85 %
Sensor: Nr:Datum:Temp:Feuchte:
Aussen-T/F 2426 03-04-2015 05:56:17 -0.7 C 86 %
2427 03-04-2015 06:08:17 -0.8 C 86 %
2428 03-04-2015 06:20:17 -0.9 C 87 %
2429 03-04-2015 06:32:17 -0.8 C 87 %
2430 03-04-2015 06:44:17 -0.8 C 87 %
2431 03-04-2015 06:56:17 -1 C 87 %
2432 03-04-2015 07:08:17 -0.8 C 88 %
2433 03-04-2015 07:20:17 -0.6 C 88 %
2434 03-04-2015 07:32:17 -0.7 C 88 %
2435 03-04-2015 07:44:17 -0.6 C 88 %
2436 03-04-2015 07:56:17 -0.6 C 88 %
2437 03-04-2015 08:08:17 -0.5 C 88 %
2438 03-04-2015 08:20:17 -0.5 C 87 %
2439 03-04-2015 08:32:17 -0.3 C 87 %
2440 03-04-2015 08:44:17 -0.3 C 87 %
2441 03-04-2015 08:56:17 -0.2 C 87 %
2442 03-04-2015 09:08:17 0.1 C 87 %
2443 03-04-2015 09:20:17 0.4 C 87 %
2444 03-04-2015 09:32:17 1.4 C 87 %
2445 03-04-2015 09:44:17 1.9 C 85 %
2446 03-04-2015 09:56:17 2 C 80 %
2447 03-04-2015 10:08:17 2.2 C 78 %
2448 03-04-2015 10:20:16 3.2 C 75 %
2449 03-04-2015 10:32:17 4.1 C 69 %
2450 03-04-2015 10:44:17 4.6 C 65 %
Sensor: Nr:Datum:Temp:Feuchte:
Aussen-T/F 2451 03-04-2015 10:56:17 4.8 C 62 %
2452 03-04-2015 11:08:17 5.2 C 61 %
2453 03-04-2015 11:20:17 6 C 59 %
2454 03-04-2015 11:32:17 6.7 C 54 %
2455 03-04-2015 11:44:17 7 C 50 %
2456 03-04-2015 11:56:17 7.3 C 48 %
2457 03-04-2015 12:08:17 7.7 C 46 %
2458 03-04-2015 12:20:17 8 C 46 %
2459 03-04-2015 12:32:17 8.8 C 45 %
2460 03-04-2015 12:44:17 9 C 43 %
2461 03-04-2015 12:56:17 9 C 42 %
2462 03-04-2015 13:08:17 9.1 C 43 %
2463 03-04-2015 13:20:17 9.2 C 42 %
2464 03-04-2015 13:32:17 9.3 C 40 %
2465 03-04-2015 13:44:17 9.4 C 41 %
2466 03-04-2015 13:56:17 9.7 C 39 %
2467 03-04-2015 14:08:17 10.2 C 37 %
2468 03-04-2015 14:20:17 10.4 C 36 %
2469 03-04-2015 14:32:17 10.8 C 36 %
2470 03-04-2015 14:44:17 10.8 C 34 %
2471 03-04-2015 14:56:17 10.8 C 34 %
2472 03-04-2015 15:08:17 11 C 35 %
2473 03-04-2015 15:20:17 11.1 C 32 %
2474 03-04-2015 15:32:17 11.4 C 33 %
2475 03-04-2015 15:44:17 11.5 C 33 %
Sensor: Nr:Datum:Temp:Feuchte:
Aussen-T/F 2476 03-04-2015 15:56:17 11.8 C 33 %
2477 03-04-2015 16:08:17 12 C 31 %
2478 03-04-2015 16:20:17 12.5 C 30 %
2479 03-04-2015 16:32:17 12.5 C 30 %
2480 03-04-2015 16:44:17 12.6 C 30 %
2481 03-04-2015 16:56:17 13.1 C 29 %
2482 03-04-2015 17:08:17 13 C 29 %
2483 03-04-2015 17:20:17 13 C 30 %
2484 03-04-2015 17:32:17 12.8 C 29 %
2485 03-04-2015 17:44:17 12.8 C 30 %
2486 03-04-2015 17:56:17 13 C 28 %
2487 03-04-2015 18:08:17 12.5 C 28 %
2488 03-04-2015 18:20:17 12.2 C 30 %
2489 03-04-2015 18:32:17 11.7 C 30 %
2490 03-04-2015 18:44:17 11.3 C 33 %
2491 03-04-2015 18:56:17 11 C 36 %
2492 03-04-2015 19:08:17 10.2 C 42 %
2493 03-04-2015 19:20:17 10.1 C 37 %
2494 03-04-2015 19:32:17 9.3 C 47 %
2495 03-04-2015 19:44:17 8.6 C 51 %
2496 03-04-2015 19:56:17 8 C 52 %
2497 03-04-2015 20:08:17 7.7 C 55 %
2498 03-04-2015 20:20:17 7.6 C 56 %
2499 03-04-2015 20:32:17 7.4 C 56 %
2500 03-04-2015 20:44:17 7.2 C 56 %
Sensor: Nr:Datum:Temp:Feuchte:
Aussen-T/F 2501 03-04-2015 20:56:17 7.1 C 56 %
2502 03-04-2015 21:08:17 7 C 56 %
2503 03-04-2015 21:20:17 6.8 C 58 %
2504 03-04-2015 21:32:17 6.6 C 58 %
2505 03-04-2015 21:44:17 6.7 C 56 %
2506 03-04-2015 21:56:17 6.5 C 57 %
2507 03-04-2015 22:08:17 6.3 C 59 %
2508 03-04-2015 22:20:17 6.3 C 61 %
2509 03-04-2015 22:32:17 6.3 C 62 %
2510 03-04-2015 22:44:17 6.4 C 62 %
2511 03-04-2015 22:56:17 6.3 C 62 %
2512 03-04-2015 23:08:17 6.7 C 60 %
2513 03-04-2015 23:20:17 6.5 C 61 %
2514 03-04-2015 23:32:17 6.5 C 61 %
2515 03-04-2015 23:44:17 6.7 C 61 %
2516 03-04-2015 23:56:17 6.4 C 62 %
Sensor: Nr:Datum:Temp:Feuchte:
G-T/H 1 14-03-2015 00:06:17 7.7 C 66 %
2 14-03-2015 00:18:17 7.7 C 66 %
3 14-03-2015 00:30:17 7.7 C 66 %
4 14-03-2015 00:42:17 7.7 C 66 %
5 14-03-2015 00:54:17 7.7 C 67 %
6 14-03-2015 01:06:17 7.7 C 67 %
7 14-03-2015 01:18:17 7.7 C 67 %
8 14-03-2015 01:30:17 7.7 C 67 %
9 14-03-2015 01:42:18 7.7 C 67 %
10 14-03-2015 01:54:17 7.7 C 67 %
11 14-03-2015 02:06:17 7.7 C 67 %
12 14-03-2015 02:18:17 7.7 C 67 %
13 14-03-2015 02:30:17 7.7 C 67 %
14 14-03-2015 02:42:17 7.7 C 67 %
15 14-03-2015 02:54:17 7.7 C 67 %
16 14-03-2015 03:06:17 7.7 C 67 %
17 14-03-2015 03:18:17 7.6 C 67 %
18 14-03-2015 03:30:17 7.6 C 67 %
19 14-03-2015 03:42:17 7.7 C 67 %
20 14-03-2015 03:54:17 7.6 C 67 %
21 14-03-2015 04:06:17 7.6 C 67 %
22 14-03-2015 04:18:17 7.7 C 67 %
23 14-03-2015 04:30:17 7.6 C 67 %
24 14-03-2015 04:42:17 7.6 C 67 %
25 14-03-2015 04:54:17 7.6 C 67 %
Sensor: Nr:Datum:Temp:Feuchte:
G-T/H 26 14-03-2015 05:06:17 7.6 C 67 %
27 14-03-2015 05:18:17 7.6 C 67 %
28 14-03-2015 05:30:17 7.6 C 67 %
29 14-03-2015 05:42:17 7.6 C 67 %
30 14-03-2015 05:54:17 7.6 C 67 %
31 14-03-2015 06:06:17 7.6 C 67 %
32 14-03-2015 06:18:17 7.5 C 66 %
33 14-03-2015 06:30:17 7.4 C 66 %
34 14-03-2015 06:42:17 7.3 C 65 %
35 14-03-2015 06:54:17 7.2 C 64 %
36 14-03-2015 07:06:17 7.2 C 64 %
37 14-03-2015 07:18:17 7.2 C 64 %
38 14-03-2015 07:30:17 7.1 C 64 %
39 14-03-2015 07:42:17 7.2 C 64 %
40 14-03-2015 07:54:16 7.3 C 64 %
41 14-03-2015 08:06:17 7.3 C 64 %
42 14-03-2015 08:18:16 7.3 C 64 %
43 14-03-2015 08:30:17 7.4 C 65 %
44 14-03-2015 08:42:17 7.4 C 65 %
45 14-03-2015 08:54:17 7.4 C 65 %
46 14-03-2015 09:06:17 7.4 C 65 %
47 14-03-2015 09:18:17 7.4 C 65 %
48 14-03-2015 09:30:17 7.4 C 65 %
49 14-03-2015 09:42:17 7.4 C 66 %
50 14-03-2015 09:54:17 7.4 C 66 %
Sensor: Nr:Datum:Temp:Feuchte:
G-T/H 51 14-03-2015 10:06:17 7.4 C 66 %
52 14-03-2015 10:18:17 7.4 C 66 %
53 14-03-2015 10:30:17 7.4 C 66 %
54 14-03-2015 10:42:17 7.4 C 66 %
55 14-03-2015 10:54:17 7.5 C 66 %
56 14-03-2015 11:06:17 7.5 C 66 %
57 14-03-2015 11:18:17 7.4 C 66 %
58 14-03-2015 11:30:17 7.5 C 66 %
59 14-03-2015 11:42:17 7.5 C 66 %
60 14-03-2015 11:54:17 7.5 C 66 %
61 14-03-2015 12:06:17 7.6 C 66 %
62 14-03-2015 12:18:17 7.7 C 66 %
63 14-03-2015 12:30:17 7.7 C 66 %
64 14-03-2015 12:42:17 7.8 C 66 %
65 14-03-2015 12:54:17 7.8 C 66 %
66 14-03-2015 13:06:17 7.7 C 66 %
67 14-03-2015 13:18:17 7.7 C 66 %
68 14-03-2015 13:30:17 7.8 C 66 %
69 14-03-2015 13:42:17 7.8 C 66 %
70 14-03-2015 13:54:17 7.8 C 66 %
71 14-03-2015 14:06:17 7.7 C 66 %
72 14-03-2015 14:18:17 7.8 C 66 %
73 14-03-2015 14:30:17 7.8 C 67 %
74 14-03-2015 14:42:17 7.7 C 67 %
75 14-03-2015 14:54:17 7.8 C 67 %
Sensor: Nr:Datum:Temp:Feuchte:
G-T/H 76 14-03-2015 15:06:17 7.8 C 67 %
77 14-03-2015 15:18:17 7.8 C 67 %
78 14-03-2015 15:30:17 7.8 C 67 %
79 14-03-2015 15:42:17 7.8 C 67 %
80 14-03-2015 15:54:17 7.8 C 67 %
81 14-03-2015 16:06:17 7.8 C 67 %
82 14-03-2015 16:18:17 7.9 C 67 %
83 14-03-2015 16:30:17 7.9 C 67 %
84 14-03-2015 16:42:17 7.9 C 67 %
85 14-03-2015 16:54:17 7.9 C 68 %
86 14-03-2015 17:06:17 7.9 C 68 %
87 14-03-2015 17:18:17 7.9 C 68 %
88 14-03-2015 17:30:17 7.9 C 68 %
89 14-03-2015 17:42:17 7.9 C 68 %
90 14-03-2015 17:54:17 7.9 C 68 %
91 14-03-2015 18:06:17 7.9 C 68 %
92 14-03-2015 18:18:16 7.9 C 68 %
93 14-03-2015 18:30:17 7.9 C 68 %
94 14-03-2015 18:42:17 7.9 C 68 %
95 14-03-2015 18:54:17 8 C 67 %
96 14-03-2015 19:06:17 8 C 68 %
97 14-03-2015 19:18:17 7.9 C 69 %
98 14-03-2015 19:30:17 8 C 68 %
99 14-03-2015 19:42:17 8 C 68 %
100 14-03-2015 19:54:17 8 C 68 %
Sensor: Nr:Datum:Temp:Feuchte:
G-T/H 101 14-03-2015 20:06:17 8 C 68 %
102 14-03-2015 20:18:17 8 C 68 %
103 14-03-2015 20:30:17 8 C 68 %
104 14-03-2015 20:42:17 8 C 68 %
105 14-03-2015 20:54:17 8 C 68 %
106 14-03-2015 21:06:17 8 C 68 %
107 14-03-2015 21:18:17 8 C 68 %
108 14-03-2015 21:30:17 8 C 68 %
109 14-03-2015 21:42:17 8 C 68 %
110 14-03-2015 21:54:17 8 C 68 %
111 14-03-2015 22:06:17 8 C 68 %
112 14-03-2015 22:18:17 8 C 68 %
113 14-03-2015 22:30:17 8 C 68 %
114 14-03-2015 22:42:17 8 C 68 %
115 14-03-2015 22:54:17 8 C 68 %
116 14-03-2015 23:06:18 8 C 68 %
117 14-03-2015 23:18:17 8 C 68 %
118 14-03-2015 23:30:17 8 C 68 %
119 14-03-2015 23:42:18 8 C 68 %
120 14-03-2015 23:54:17 8 C 68 %
121 15-03-2015 00:06:17 8 C 68 %
122 15-03-2015 00:18:17 8 C 68 %
123 15-03-2015 00:30:17 8 C 68 %
124 15-03-2015 00:42:17 8 C 68 %
125 15-03-2015 00:54:17 7.9 C 69 %
Sensor: Nr:Datum:Temp:Feuchte:
G-T/H 126 15-03-2015 01:06:17 8 C 68 %
127 15-03-2015 01:18:17 8 C 68 %
128 15-03-2015 01:30:17 7.9 C 69 %
129 15-03-2015 01:42:17 8 C 68 %
130 15-03-2015 01:54:17 7.9 C 69 %
131 15-03-2015 02:06:17 7.9 C 69 %
132 15-03-2015 02:18:17 7.9 C 69 %
133 15-03-2015 02:30:17 7.9 C 69 %
134 15-03-2015 02:42:18 7.9 C 69 %
135 15-03-2015 02:54:17 7.9 C 69 %
136 15-03-2015 03:06:17 7.9 C 69 %
137 15-03-2015 03:18:17 7.9 C 69 %
138 15-03-2015 03:30:17 7.9 C 69 %
139 15-03-2015 03:42:17 7.9 C 69 %
140 15-03-2015 03:54:17 7.9 C 69 %
141 15-03-2015 04:06:17 7.9 C 69 %
142 15-03-2015 04:18:17 7.9 C 69 %
143 15-03-2015 04:30:17 7.9 C 69 %
144 15-03-2015 04:42:17 7.9 C 69 %
145 15-03-2015 04:54:17 7.9 C 69 %
146 15-03-2015 05:06:17 7.9 C 70 %
147 15-03-2015 05:18:17 7.8 C 70 %
148 15-03-2015 05:30:17 7.9 C 70 %
149 15-03-2015 05:42:17 7.8 C 70 %
150 15-03-2015 05:54:17 7.8 C 70 %
Sensor: Nr:Datum:Temp:Feuchte:
G-T/H 151 15-03-2015 06:06:17 7.8 C 70 %
152 15-03-2015 06:18:17 7.8 C 70 %
153 15-03-2015 06:30:17 7.8 C 70 %
154 15-03-2015 06:42:17 7.8 C 70 %
155 15-03-2015 06:54:17 7.8 C 70 %
156 15-03-2015 07:06:17 7.8 C 70 %
157 15-03-2015 07:18:17 7.8 C 70 %
158 15-03-2015 07:30:17 7.8 C 70 %
159 15-03-2015 07:42:17 7.8 C 70 %
160 15-03-2015 07:54:17 7.8 C 70 %
161 15-03-2015 08:06:17 7.8 C 70 %
162 15-03-2015 08:18:17 7.8 C 70 %
163 15-03-2015 08:30:17 7.8 C 70 %
164 15-03-2015 08:42:17 7.8 C 70 %
165 15-03-2015 08:54:17 7.8 C 70 %
166 15-03-2015 09:06:17 7.8 C 70 %
167 15-03-2015 09:18:16 7.8 C 70 %
168 15-03-2015 09:30:17 7.8 C 70 %
169 15-03-2015 09:42:17 7.8 C 70 %
170 15-03-2015 09:54:17 7.8 C 70 %
171 15-03-2015 10:06:17 7.8 C 70 %
172 15-03-2015 10:18:17 7.8 C 70 %
173 15-03-2015 10:30:17 7.8 C 70 %
174 15-03-2015 10:42:17 7.8 C 70 %
175 15-03-2015 10:54:17 7.8 C 70 %
Sensor: Nr:Datum:Temp:Feuchte:
G-T/H 176 15-03-2015 11:06:17 7.8 C 70 %
177 15-03-2015 11:18:17 7.8 C 70 %
178 15-03-2015 11:31:17 7.8 C 70 %
179 15-03-2015 11:43:17 7.9 C 70 %
180 15-03-2015 11:54:17 7.9 C 70 %
181 15-03-2015 12:06:17 7.9 C 70 %
182 15-03-2015 12:18:17 7.9 C 70 %
183 15-03-2015 12:30:17 7.9 C 70 %
184 15-03-2015 12:42:17 7.9 C 70 %
185 15-03-2015 12:55:17 7.9 C 70 %
186 15-03-2015 13:07:17 7.9 C 70 %
187 15-03-2015 13:18:17 7.9 C 70 %
188 15-03-2015 13:30:17 7.9 C 70 %
189 15-03-2015 13:42:17 7.9 C 70 %
190 15-03-2015 13:54:17 7.9 C 70 %
191 15-03-2015 14:06:17 7.9 C 70 %
192 15-03-2015 14:19:17 8 C 69 %
193 15-03-2015 14:31:17 8 C 69 %
194 15-03-2015 14:42:17 8 C 69 %
195 15-03-2015 14:54:17 8 C 69 %
196 15-03-2015 15:06:17 8 C 69 %
197 15-03-2015 15:19:17 8 C 69 %
198 15-03-2015 15:31:17 8 C 69 %
199 15-03-2015 15:42:17 8 C 69 %
200 15-03-2015 15:55:17 8 C 69 %
Sensor: Nr:Datum:Temp:Feuchte:
G-T/H 201 15-03-2015 16:06:17 8.1 C 69 %
202 15-03-2015 16:18:17 8.1 C 69 %
203 15-03-2015 16:31:17 8.1 C 69 %
204 15-03-2015 16:43:17 8.1 C 69 %
205 15-03-2015 16:55:17 8.1 C 69 %
206 15-03-2015 17:06:18 8.1 C 69 %
207 15-03-2015 17:19:17 8.1 C 70 %
208 15-03-2015 17:30:17 8.1 C 70 %
209 15-03-2015 17:42:17 8.1 C 70 %
210 15-03-2015 17:54:17 8.1 C 70 %
211 15-03-2015 18:07:17 8.1 C 70 %
212 15-03-2015 18:18:17 8.1 C 70 %
213 15-03-2015 18:31:17 8.2 C 70 %
214 15-03-2015 18:43:17 8.1 C 70 %
215 15-03-2015 18:55:17 8.2 C 70 %
216 15-03-2015 19:06:17 8.2 C 70 %
217 15-03-2015 19:19:17 8.1 C 70 %
218 15-03-2015 19:31:17 8.2 C 70 %
219 15-03-2015 19:43:17 8.1 C 70 %
220 15-03-2015 19:55:17 8.1 C 69 %
221 15-03-2015 20:07:17 8.3 C 69 %
222 15-03-2015 20:19:17 8.7 C 69 %
223 15-03-2015 20:30:18 8.9 C 69 %
224 15-03-2015 20:42:18 9 C 68 %
225 15-03-2015 20:55:17 9 C 68 %
Sensor: Nr:Datum:Temp:Feuchte:
G-T/H 226 15-03-2015 21:07:17 8.9 C 69 %
227 15-03-2015 21:18:17 8.9 C 68 %
228 15-03-2015 21:30:17 8.9 C 68 %
229 15-03-2015 21:42:17 8.9 C 67 %
230 15-03-2015 21:55:17 8.9 C 67 %
231 15-03-2015 22:07:17 8.8 C 66 %
232 15-03-2015 22:19:17 8.8 C 65 %
233 15-03-2015 22:30:17 8.8 C 65 %
234 15-03-2015 22:42:17 8.7 C 65 %
235 15-03-2015 22:55:17 8.6 C 64 %
236 15-03-2015 23:07:17 8.6 C 64 %
237 15-03-2015 23:19:17 8.7 C 64 %
238 15-03-2015 23:31:17 8.6 C 64 %
239 15-03-2015 23:43:17 8.6 C 63 %
240 15-03-2015 23:55:17 8.5 C 63 %
241 16-03-2015 00:06:18 8.4 C 63 %
242 16-03-2015 00:19:16 8.4 C 62 %
243 16-03-2015 00:31:17 8.3 C 62 %
244 16-03-2015 00:43:17 8.3 C 62 %
245 16-03-2015 00:55:17 8.2 C 62 %
246 16-03-2015 01:07:17 8.1 C 62 %
247 16-03-2015 01:18:17 8.1 C 62 %
248 16-03-2015 01:30:17 8.1 C 62 %
249 16-03-2015 01:42:18 8 C 61 %
250 16-03-2015 01:55:17 8 C 61 %
Sensor: Nr:Datum:Temp:Feuchte:
G-T/H 251 16-03-2015 02:07:17 7.9 C 62 %
252 16-03-2015 02:19:17 7.9 C 62 %
253 16-03-2015 02:31:17 7.9 C 62 %
254 16-03-2015 02:42:17 7.8 C 62 %
255 16-03-2015 02:55:17 7.8 C 62 %
256 16-03-2015 03:07:17 7.8 C 61 %
257 16-03-2015 03:19:17 7.7 C 61 %
258 16-03-2015 03:31:16 7.7 C 61 %
259 16-03-2015 03:43:16 7.6 C 61 %
260 16-03-2015 03:55:17 7.6 C 61 %
261 16-03-2015 04:07:17 7.6 C 61 %
262 16-03-2015 04:19:17 7.5 C 61 %
263 16-03-2015 04:31:16 7.5 C 61 %
264 16-03-2015 04:43:16 7.4 C 61 %
265 16-03-2015 04:55:16 7.4 C 61 %
266 16-03-2015 05:07:17 7.4 C 61 %
267 16-03-2015 05:19:16 7.4 C 60 %
268 16-03-2015 05:31:17 7.3 C 60 %
269 16-03-2015 05:43:17 7.3 C 60 %
270 16-03-2015 05:55:17 7.3 C 60 %
271 16-03-2015 06:07:17 7.2 C 60 %
272 16-03-2015 06:19:17 7.3 C 61 %
273 16-03-2015 06:31:17 7.3 C 61 %
274 16-03-2015 06:43:17 7.3 C 61 %
275 16-03-2015 06:55:17 7.2 C 61 %
Sensor: Nr:Datum:Temp:Feuchte:
G-T/H 276 16-03-2015 07:07:17 7.2 C 61 %
277 16-03-2015 07:19:17 7.1 C 61 %
278 16-03-2015 07:31:17 7.1 C 61 %
279 16-03-2015 07:43:17 7 C 61 %
280 16-03-2015 07:55:16 6.8 C 61 %
281 16-03-2015 08:07:17 6.8 C 61 %
282 16-03-2015 08:19:17 6.8 C 61 %
283 16-03-2015 08:31:17 6.8 C 61 %
284 16-03-2015 08:43:17 6.7 C 61 %
285 16-03-2015 08:55:16 6.8 C 62 %
286 16-03-2015 09:07:16 6.8 C 62 %
287 16-03-2015 09:19:16 6.9 C 63 %
288 16-03-2015 09:31:17 6.9 C 63 %
289 16-03-2015 09:43:17 6.9 C 63 %
290 16-03-2015 09:55:17 7 C 63 %
291 16-03-2015 10:07:17 7 C 63 %
292 16-03-2015 10:19:16 7 C 64 %
293 16-03-2015 10:31:17 7 C 64 %
294 16-03-2015 10:43:17 7 C 64 %
295 16-03-2015 10:55:17 7 C 64 %
296 16-03-2015 11:07:17 7 C 65 %
297 16-03-2015 11:19:17 7 C 65 %
298 16-03-2015 11:31:16 7.1 C 65 %
299 16-03-2015 11:43:16 7.1 C 65 %
300 16-03-2015 11:55:17 7.1 C 65 %
Sensor: Nr:Datum:Temp:Feuchte:
G-T/H 301 16-03-2015 12:07:16 7.1 C 65 %
302 16-03-2015 12:19:16 7.1 C 65 %
303 16-03-2015 12:31:17 7.1 C 66 %
304 16-03-2015 12:43:18 7.1 C 66 %
305 16-03-2015 12:55:16 7.1 C 66 %
306 16-03-2015 13:07:16 7.2 C 66 %
307 16-03-2015 13:19:16 7.2 C 66 %
308 16-03-2015 13:31:16 7.3 C 66 %
309 16-03-2015 13:43:16 7.3 C 66 %
310 16-03-2015 13:55:16 7.3 C 66 %
311 16-03-2015 14:07:17 7.3 C 66 %
312 16-03-2015 14:19:17 7.3 C 66 %
313 16-03-2015 14:31:16 7.4 C 66 %
314 16-03-2015 14:43:16 7.4 C 67 %
315 16-03-2015 14:55:17 7.4 C 67 %
316 16-03-2015 15:07:16 7.5 C 67 %
317 16-03-2015 15:19:16 7.5 C 67 %
318 16-03-2015 15:31:16 7.5 C 67 %
319 16-03-2015 15:43:16 7.6 C 67 %
320 16-03-2015 15:55:16 7.6 C 67 %
321 16-03-2015 16:07:16 7.6 C 67 %
322 16-03-2015 16:19:17 7.6 C 67 %
323 16-03-2015 16:31:16 7.7 C 67 %
324 16-03-2015 16:43:16 7.7 C 67 %
325 16-03-2015 16:55:16 7.7 C 67 %
Sensor: Nr:Datum:Temp:Feuchte:
G-T/H 326 16-03-2015 17:07:16 7.7 C 67 %
327 16-03-2015 17:19:16 7.8 C 67 %
328 16-03-2015 17:31:16 7.8 C 68 %
329 16-03-2015 17:43:16 7.8 C 68 %
330 16-03-2015 17:55:16 7.8 C 68 %
331 16-03-2015 18:07:16 7.8 C 68 %
332 16-03-2015 18:19:16 7.9 C 68 %
333 16-03-2015 18:31:16 7.9 C 68 %
334 16-03-2015 18:43:16 7.9 C 68 %
335 16-03-2015 18:55:16 7.9 C 68 %
336 16-03-2015 19:07:16 7.9 C 68 %
337 16-03-2015 19:19:16 7.9 C 68 %
338 16-03-2015 19:31:16 7.9 C 68 %
339 16-03-2015 19:43:16 7.9 C 68 %
340 16-03-2015 19:55:16 7.9 C 68 %
341 16-03-2015 20:07:16 7.9 C 68 %
342 16-03-2015 20:19:16 7.9 C 68 %
343 16-03-2015 20:31:16 7.9 C 68 %
344 16-03-2015 20:43:16 8 C 67 %
345 16-03-2015 20:55:16 8 C 68 %
346 16-03-2015 21:07:16 8 C 68 %
347 16-03-2015 21:19:16 8 C 68 %
348 16-03-2015 21:31:16 8 C 68 %
349 16-03-2015 21:43:16 8 C 68 %
350 16-03-2015 21:55:15 8 C 68 %
Sensor: Nr:Datum:Temp:Feuchte:
G-T/H 351 16-03-2015 22:07:15 8 C 68 %
352 16-03-2015 22:19:15 8 C 68 %
353 16-03-2015 22:31:16 8 C 68 %
354 16-03-2015 22:43:16 8 C 68 %
355 16-03-2015 22:55:15 8 C 68 %
356 16-03-2015 23:07:16 8 C 68 %
357 16-03-2015 23:19:15 8 C 68 %
358 16-03-2015 23:31:16 8 C 68 %
359 16-03-2015 23:43:16 8 C 68 %
360 16-03-2015 23:55:16 8 C 68 %
361 17-03-2015 00:07:16 8 C 68 %
362 17-03-2015 00:19:16 7.9 C 69 %
363 17-03-2015 00:31:15 8 C 68 %
364 17-03-2015 00:43:15 8 C 68 %
365 17-03-2015 00:55:15 7.9 C 69 %
366 17-03-2015 01:07:16 7.9 C 69 %
367 17-03-2015 01:19:15 7.9 C 69 %
368 17-03-2015 01:31:16 7.9 C 69 %
369 17-03-2015 01:43:16 7.9 C 69 %
370 17-03-2015 01:55:16 7.9 C 69 %
371 17-03-2015 02:07:16 7.9 C 69 %
372 17-03-2015 02:19:15 7.9 C 69 %
373 17-03-2015 02:31:15 7.9 C 69 %
374 17-03-2015 02:43:15 7.9 C 69 %
375 17-03-2015 02:55:17 7.8 C 69 %
Sensor: Nr:Datum:Temp:Feuchte:
G-T/H 376 17-03-2015 03:07:17 7.8 C 69 %
377 17-03-2015 03:19:16 7.8 C 69 %
378 17-03-2015 03:31:17 7.8 C 69 %
379 17-03-2015 03:43:17 7.8 C 69 %
380 17-03-2015 03:55:17 7.7 C 69 %
381 17-03-2015 04:07:17 7.7 C 69 %
382 17-03-2015 04:19:17 7.7 C 68 %
383 17-03-2015 04:31:18 7.7 C 68 %
384 17-03-2015 04:43:18 7.7 C 68 %
385 17-03-2015 04:55:17 7.7 C 68 %
386 17-03-2015 05:07:17 7.6 C 68 %
387 17-03-2015 05:19:17 7.6 C 68 %
388 17-03-2015 05:31:17 7.6 C 68 %
389 17-03-2015 05:43:17 7.6 C 68 %
390 17-03-2015 05:55:17 7.6 C 68 %
391 17-03-2015 06:07:17 7.6 C 68 %
392 17-03-2015 06:19:17 7.4 C 68 %
393 17-03-2015 06:31:17 7.4 C 67 %
394 17-03-2015 06:43:17 7.3 C 67 %
395 17-03-2015 06:55:17 7.3 C 66 %
396 17-03-2015 07:07:17 7.2 C 66 %
397 17-03-2015 07:19:17 7.1 C 66 %
398 17-03-2015 07:31:17 7.1 C 65 %
399 17-03-2015 07:43:17 7.1 C 65 %
400 17-03-2015 07:55:17 7.1 C 65 %
Sensor: Nr:Datum:Temp:Feuchte:
G-T/H 401 17-03-2015 08:07:17 7.2 C 66 %
402 17-03-2015 08:19:17 7.2 C 66 %
403 17-03-2015 08:31:17 7.2 C 66 %
404 17-03-2015 08:43:17 7.2 C 66 %
405 17-03-2015 08:55:17 7.2 C 67 %
406 17-03-2015 09:07:17 7.2 C 67 %
407 17-03-2015 09:19:17 7.2 C 67 %
408 17-03-2015 09:31:17 7.3 C 67 %
409 17-03-2015 09:43:17 7.3 C 67 %
410 17-03-2015 09:55:17 7.3 C 67 %
411 17-03-2015 10:07:17 7.3 C 67 %
412 17-03-2015 10:19:17 7.3 C 68 %
413 17-03-2015 10:31:17 7.3 C 68 %
414 17-03-2015 10:43:17 7.3 C 68 %
415 17-03-2015 10:55:17 7.3 C 68 %
416 17-03-2015 11:07:17 7.3 C 68 %
417 17-03-2015 11:19:17 7.3 C 68 %
418 17-03-2015 11:31:17 7.4 C 68 %
419 17-03-2015 11:43:17 7.4 C 68 %
420 17-03-2015 11:55:17 7.4 C 68 %
421 17-03-2015 12:07:17 7.4 C 69 %
422 17-03-2015 12:19:17 7.4 C 69 %
423 17-03-2015 12:31:17 7.5 C 69 %
424 17-03-2015 12:43:17 7.5 C 69 %
425 17-03-2015 12:55:17 7.6 C 69 %
Sensor: Nr:Datum:Temp:Feuchte:
G-T/H 426 17-03-2015 13:07:17 7.6 C 69 %
427 17-03-2015 13:19:17 7.6 C 69 %
428 17-03-2015 13:31:17 7.7 C 69 %
429 17-03-2015 13:43:17 7.7 C 69 %
430 17-03-2015 13:55:17 7.7 C 69 %
431 17-03-2015 14:07:17 7.8 C 69 %
432 17-03-2015 14:19:17 7.8 C 69 %
433 17-03-2015 14:31:17 7.9 C 69 %
434 17-03-2015 14:43:17 7.8 C 69 %
435 17-03-2015 14:55:17 7.9 C 69 %
436 17-03-2015 15:07:17 7.9 C 69 %
437 17-03-2015 15:19:17 8 C 68 %
438 17-03-2015 15:31:18 8 C 69 %
439 17-03-2015 15:43:18 8 C 69 %
440 17-03-2015 15:55:17 8 C 69 %
441 17-03-2015 16:07:17 8.1 C 69 %
442 17-03-2015 16:19:17 8.1 C 69 %
443 17-03-2015 16:31:17 8.1 C 69 %
444 17-03-2015 16:43:17 8.1 C 69 %
445 17-03-2015 16:55:17 8.2 C 69 %
446 17-03-2015 17:07:17 8.2 C 69 %
447 17-03-2015 17:19:17 8.3 C 69 %
448 17-03-2015 17:31:17 8.4 C 69 %
449 17-03-2015 17:43:17 8.4 C 69 %
450 17-03-2015 17:55:17 8.4 C 69 %
Sensor: Nr:Datum:Temp:Feuchte:
G-T/H 451 17-03-2015 18:07:17 8.4 C 69 %
452 17-03-2015 18:19:17 8.4 C 69 %
453 17-03-2015 18:31:18 8.4 C 69 %
454 17-03-2015 18:43:18 8.4 C 69 %
455 17-03-2015 18:55:16 8.5 C 69 %
456 17-03-2015 19:07:17 8.4 C 69 %
457 17-03-2015 19:19:17 8.5 C 69 %
458 17-03-2015 19:31:17 8.5 C 69 %
459 17-03-2015 19:43:17 8.5 C 70 %
460 17-03-2015 19:55:17 8.5 C 70 %
461 17-03-2015 20:07:17 8.5 C 70 %
462 17-03-2015 20:19:17 8.5 C 70 %
463 17-03-2015 20:31:17 8.6 C 70 %
464 17-03-2015 20:43:17 8.6 C 70 %
465 17-03-2015 20:55:17 8.6 C 70 %
466 17-03-2015 21:07:17 8.6 C 70 %
467 17-03-2015 21:19:17 8.6 C 70 %
468 17-03-2015 21:31:17 8.6 C 70 %
469 17-03-2015 21:43:17 8.6 C 70 %
470 17-03-2015 21:55:17 8.6 C 70 %
471 17-03-2015 22:07:17 8.6 C 70 %
472 17-03-2015 22:19:17 8.7 C 70 %
473 17-03-2015 22:31:17 8.6 C 70 %
474 17-03-2015 22:43:17 8.6 C 70 %
475 17-03-2015 22:55:16 8.7 C 70 %
Sensor: Nr:Datum:Temp:Feuchte:
G-T/H 476 17-03-2015 23:07:17 8.7 C 70 %
477 17-03-2015 23:19:17 8.7 C 70 %
478 17-03-2015 23:31:17 8.7 C 70 %
479 17-03-2015 23:43:17 8.7 C 70 %
480 17-03-2015 23:55:17 8.7 C 70 %
481 18-03-2015 00:07:17 8.7 C 70 %
482 18-03-2015 00:19:17 8.7 C 70 %
483 18-03-2015 00:31:17 8.7 C 70 %
484 18-03-2015 00:43:17 8.7 C 70 %
485 18-03-2015 00:55:17 8.7 C 70 %
486 18-03-2015 01:07:17 8.7 C 70 %
487 18-03-2015 01:19:17 8.7 C 70 %
488 18-03-2015 01:31:17 8.6 C 70 %
489 18-03-2015 01:43:17 8.6 C 70 %
490 18-03-2015 01:55:17 8.7 C 70 %
491 18-03-2015 02:07:17 8.6 C 70 %
492 18-03-2015 02:19:17 8.6 C 70 %
493 18-03-2015 02:31:17 8.7 C 70 %
494 18-03-2015 02:43:18 8.6 C 70 %
495 18-03-2015 02:55:17 8.6 C 70 %
496 18-03-2015 03:07:17 8.6 C 70 %
497 18-03-2015 03:19:17 8.6 C 70 %
498 18-03-2015 03:31:17 8.6 C 70 %
499 18-03-2015 03:43:17 8.6 C 70 %
500 18-03-2015 03:55:17 8.6 C 70 %
Sensor: Nr:Datum:Temp:Feuchte:
G-T/H 501 18-03-2015 04:07:17 8.5 C 70 %
502 18-03-2015 04:19:17 8.6 C 69 %
503 18-03-2015 04:31:17 8.5 C 69 %
504 18-03-2015 04:43:17 8.5 C 69 %
505 18-03-2015 04:55:17 8.5 C 69 %
506 18-03-2015 05:07:17 8.5 C 69 %
507 18-03-2015 05:19:16 8.5 C 69 %
508 18-03-2015 05:31:17 8.5 C 69 %
509 18-03-2015 05:43:17 8.5 C 69 %
510 18-03-2015 05:55:17 8.4 C 69 %
511 18-03-2015 06:07:17 8.4 C 69 %
512 18-03-2015 06:19:17 8.2 C 69 %
513 18-03-2015 06:31:17 8.1 C 68 %
514 18-03-2015 06:43:17 8 C 68 %
515 18-03-2015 06:55:17 8 C 67 %
516 18-03-2015 07:07:17 7.9 C 68 %
517 18-03-2015 07:19:17 7.9 C 68 %
518 18-03-2015 07:31:17 7.9 C 67 %
519 18-03-2015 07:43:17 7.9 C 68 %
520 18-03-2015 07:55:17 8 C 67 %
521 18-03-2015 08:07:17 8 C 67 %
522 18-03-2015 08:19:16 8 C 67 %
523 18-03-2015 08:31:17 8 C 67 %
524 18-03-2015 08:43:17 8 C 68 %
525 18-03-2015 08:55:17 8 C 68 %
Sensor: Nr:Datum:Temp:Feuchte:
G-T/H 526 18-03-2015 09:07:17 8 C 68 %
527 18-03-2015 09:19:17 8 C 68 %
528 18-03-2015 09:31:17 8 C 68 %
529 18-03-2015 09:43:17 8 C 68 %
530 18-03-2015 09:55:17 8 C 68 %
531 18-03-2015 10:07:17 8 C 69 %
532 18-03-2015 10:19:17 8 C 69 %
533 18-03-2015 10:31:17 8 C 69 %
534 18-03-2015 10:43:17 8 C 69 %
535 18-03-2015 10:55:17 8.1 C 69 %
536 18-03-2015 11:07:17 8.1 C 69 %
537 18-03-2015 11:19:17 8.1 C 69 %
538 18-03-2015 11:31:17 8.1 C 69 %
539 18-03-2015 11:43:17 8.1 C 69 %
540 18-03-2015 11:55:17 8.1 C 69 %
541 18-03-2015 12:07:17 8.1 C 69 %
542 18-03-2015 12:19:16 8.2 C 70 %
543 18-03-2015 12:31:17 8.2 C 70 %
544 18-03-2015 12:43:17 8.2 C 70 %
545 18-03-2015 12:55:17 8.2 C 70 %
546 18-03-2015 13:07:17 8.3 C 70 %
547 18-03-2015 13:19:17 8.3 C 70 %
548 18-03-2015 13:31:17 8.4 C 70 %
549 18-03-2015 13:43:17 8.4 C 70 %
550 18-03-2015 13:55:17 8.4 C 70 %
Sensor: Nr:Datum:Temp:Feuchte:
G-T/H 551 18-03-2015 14:07:17 8.4 C 70 %
552 18-03-2015 14:19:17 8.5 C 70 %
553 18-03-2015 14:31:17 8.5 C 70 %
554 18-03-2015 14:43:17 8.5 C 70 %
555 18-03-2015 14:55:17 8.6 C 70 %
556 18-03-2015 15:07:17 8.6 C 70 %
557 18-03-2015 15:19:17 8.6 C 70 %
558 18-03-2015 15:31:17 8.7 C 70 %
559 18-03-2015 15:43:17 8.7 C 71 %
560 18-03-2015 15:55:17 8.7 C 71 %
561 18-03-2015 16:07:17 8.7 C 71 %
562 18-03-2015 16:19:17 8.7 C 71 %
563 18-03-2015 16:31:17 8.8 C 71 %
564 18-03-2015 16:43:17 8.8 C 71 %
565 18-03-2015 16:55:17 8.8 C 71 %
566 18-03-2015 17:07:17 8.9 C 71 %
567 18-03-2015 17:19:17 8.9 C 71 %
568 18-03-2015 17:31:17 8.9 C 71 %
569 18-03-2015 17:43:17 9 C 70 %
570 18-03-2015 17:55:17 9 C 70 %
571 18-03-2015 18:07:17 9 C 70 %
572 18-03-2015 18:19:17 9 C 70 %
573 18-03-2015 18:31:17 9 C 70 %
574 18-03-2015 18:43:17 9 C 70 %
575 18-03-2015 18:55:17 9.1 C 70 %
Sensor: Nr:Datum:Temp:Feuchte:
G-T/H 576 18-03-2015 19:07:17 9 C 70 %
577 18-03-2015 19:19:16 9 C 70 %
578 18-03-2015 19:31:17 9.1 C 70 %
579 18-03-2015 19:43:17 9.1 C 70 %
580 18-03-2015 19:55:17 9.1 C 70 %
581 18-03-2015 20:07:17 9.1 C 70 %
582 18-03-2015 20:19:17 9.2 C 70 %
583 18-03-2015 20:31:17 9.1 C 70 %
584 18-03-2015 20:43:17 9.2 C 71 %
585 18-03-2015 20:55:17 9.2 C 71 %
586 18-03-2015 21:07:17 9.2 C 71 %
587 18-03-2015 21:19:17 9.2 C 71 %
588 18-03-2015 21:31:17 9.2 C 71 %
589 18-03-2015 21:43:18 9.2 C 71 %
590 18-03-2015 21:55:17 9.2 C 71 %
591 18-03-2015 22:07:17 9.2 C 71 %
592 18-03-2015 22:19:17 9.2 C 71 %
593 18-03-2015 22:31:18 9.3 C 71 %
594 18-03-2015 22:43:18 9.3 C 71 %
595 18-03-2015 22:55:17 9.3 C 71 %
596 18-03-2015 23:07:17 9.3 C 71 %
597 18-03-2015 23:19:17 9.3 C 71 %
598 18-03-2015 23:31:17 9.3 C 71 %
599 18-03-2015 23:43:17 9.3 C 71 %
600 18-03-2015 23:55:17 9.3 C 71 %
Sensor: Nr:Datum:Temp:Feuchte:
G-T/H 601 19-03-2015 00:07:17 9.3 C 71 %
602 19-03-2015 00:19:17 9.3 C 71 %
603 19-03-2015 00:31:17 9.3 C 71 %
604 19-03-2015 00:43:17 9.3 C 71 %
605 19-03-2015 00:55:17 9.3 C 71 %
606 19-03-2015 01:07:17 9.3 C 71 %
607 19-03-2015 01:19:17 9.3 C 71 %
608 19-03-2015 01:31:17 9.3 C 71 %
609 19-03-2015 01:43:17 9.3 C 71 %
610 19-03-2015 01:55:17 9.4 C 71 %
611 19-03-2015 02:07:17 9.4 C 71 %
612 19-03-2015 02:19:17 9.4 C 71 %
613 19-03-2015 02:31:17 9.4 C 71 %
614 19-03-2015 02:43:17 9.4 C 71 %
615 19-03-2015 02:55:17 9.4 C 71 %
616 19-03-2015 03:07:17 9.4 C 71 %
617 19-03-2015 03:19:17 9.4 C 71 %
618 19-03-2015 03:31:17 9.4 C 71 %
619 19-03-2015 03:43:17 9.4 C 71 %
620 19-03-2015 03:55:17 9.4 C 71 %
621 19-03-2015 04:07:17 9.4 C 71 %
622 19-03-2015 04:19:17 9.4 C 71 %
623 19-03-2015 04:31:17 9.4 C 71 %
624 19-03-2015 04:43:17 9.4 C 71 %
625 19-03-2015 04:55:17 9.4 C 71 %
Sensor: Nr:Datum:Temp:Feuchte:
G-T/H 626 19-03-2015 05:07:17 9.4 C 71 %
627 19-03-2015 05:19:17 9.4 C 71 %
628 19-03-2015 05:31:16 9.4 C 71 %
629 19-03-2015 05:43:17 9.4 C 71 %
630 19-03-2015 05:55:16 9.4 C 71 %
631 19-03-2015 06:07:17 9.4 C 71 %
632 19-03-2015 06:19:17 9.4 C 71 %
633 19-03-2015 06:31:17 9.4 C 71 %
634 19-03-2015 06:43:17 9.4 C 71 %
635 19-03-2015 06:55:17 9.4 C 71 %
636 19-03-2015 07:07:17 9.4 C 71 %
637 19-03-2015 07:19:17 9.4 C 71 %
638 19-03-2015 07:31:17 9.4 C 71 %
639 19-03-2015 07:43:17 9.4 C 71 %
640 19-03-2015 07:55:17 9.4 C 71 %
641 19-03-2015 08:07:17 9.4 C 71 %
642 19-03-2015 08:19:17 9.4 C 71 %
643 19-03-2015 08:31:17 9.4 C 71 %
644 19-03-2015 08:43:17 9.4 C 71 %
645 19-03-2015 08:55:17 9.4 C 71 %
646 19-03-2015 09:07:17 9.4 C 71 %
647 19-03-2015 09:19:17 9.4 C 71 %
648 19-03-2015 09:31:17 9.4 C 71 %
649 19-03-2015 09:43:17 9.4 C 71 %
650 19-03-2015 09:55:17 9.4 C 71 %
Sensor: Nr:Datum:Temp:Feuchte:
G-T/H 651 19-03-2015 10:07:17 9.4 C 71 %
652 19-03-2015 10:19:17 9.4 C 71 %
653 19-03-2015 10:31:17 9.4 C 71 %
654 19-03-2015 10:43:18 9.4 C 71 %
655 19-03-2015 10:55:17 9.4 C 71 %
656 19-03-2015 11:07:17 9.4 C 71 %
657 19-03-2015 11:19:17 9.4 C 71 %
658 19-03-2015 11:31:17 9.4 C 71 %
659 19-03-2015 11:43:17 9.4 C 71 %
660 19-03-2015 11:55:17 9.4 C 71 %
661 19-03-2015 12:07:17 9.4 C 71 %
662 19-03-2015 12:19:16 9.4 C 71 %
663 19-03-2015 12:31:17 9.4 C 71 %
664 19-03-2015 12:43:17 9.4 C 71 %
665 19-03-2015 12:55:17 9.4 C 71 %
666 19-03-2015 13:07:17 9.4 C 71 %
667 19-03-2015 13:19:17 9.4 C 72 %
668 19-03-2015 13:31:17 9.4 C 72 %
669 19-03-2015 13:43:17 9.4 C 72 %
670 19-03-2015 13:55:17 9.4 C 72 %
671 19-03-2015 14:07:17 9.4 C 72 %
672 19-03-2015 14:19:17 9.4 C 72 %
673 19-03-2015 14:31:17 9.5 C 72 %
674 19-03-2015 14:43:17 9.4 C 72 %
675 19-03-2015 14:55:17 9.5 C 72 %
Sensor: Nr:Datum:Temp:Feuchte:
G-T/H 676 19-03-2015 15:07:17 9.5 C 72 %
677 19-03-2015 15:19:17 9.4 C 72 %
678 19-03-2015 15:31:17 9.5 C 72 %
679 19-03-2015 15:43:17 9.5 C 72 %
680 19-03-2015 15:55:17 9.5 C 72 %
681 19-03-2015 16:07:17 9.5 C 72 %
682 19-03-2015 16:19:17 9.5 C 72 %
683 19-03-2015 16:31:17 9.5 C 72 %
684 19-03-2015 16:43:17 9.5 C 72 %
685 19-03-2015 16:55:17 9.5 C 72 %
686 19-03-2015 17:07:17 9.5 C 72 %
687 19-03-2015 17:19:17 9.5 C 72 %
688 19-03-2015 17:31:17 9.5 C 72 %
689 19-03-2015 17:43:17 9.5 C 72 %
690 19-03-2015 17:55:17 9.5 C 72 %
691 19-03-2015 18:07:17 9.5 C 72 %
692 19-03-2015 18:19:17 9.5 C 72 %
693 19-03-2015 18:31:17 9.5 C 72 %
694 19-03-2015 18:43:17 9.5 C 72 %
695 19-03-2015 18:55:17 9.5 C 72 %
696 19-03-2015 19:07:17 9.5 C 72 %
697 19-03-2015 19:19:17 9.5 C 72 %
698 19-03-2015 19:31:17 9.5 C 72 %
699 19-03-2015 19:43:17 9.5 C 72 %
700 19-03-2015 19:55:17 9.5 C 72 %
Sensor: Nr:Datum:Temp:Feuchte:
G-T/H 701 19-03-2015 20:07:17 9.5 C 72 %
702 19-03-2015 20:19:17 9.5 C 72 %
703 19-03-2015 20:31:17 9.5 C 72 %
704 19-03-2015 20:43:17 9.5 C 72 %
705 19-03-2015 20:55:17 9.6 C 72 %
706 19-03-2015 21:07:17 9.5 C 72 %
707 19-03-2015 21:19:16 9.5 C 72 %
708 19-03-2015 21:31:17 9.6 C 72 %
709 19-03-2015 21:43:17 9.6 C 72 %
710 19-03-2015 21:55:17 9.5 C 72 %
711 19-03-2015 22:07:17 9.6 C 72 %
712 19-03-2015 22:19:17 9.5 C 72 %
713 19-03-2015 22:31:17 9.5 C 72 %
714 19-03-2015 22:43:17 9.5 C 72 %
715 19-03-2015 22:55:17 9.5 C 72 %
716 19-03-2015 23:07:17 9.6 C 72 %
717 19-03-2015 23:19:17 9.5 C 72 %
718 19-03-2015 23:31:17 9.6 C 72 %
719 19-03-2015 23:43:17 9.5 C 72 %
720 19-03-2015 23:55:17 9.6 C 72 %
721 20-03-2015 00:07:17 9.6 C 72 %
722 20-03-2015 00:19:17 9.6 C 72 %
723 20-03-2015 00:31:17 9.5 C 72 %
724 20-03-2015 00:43:17 9.5 C 72 %
725 20-03-2015 00:55:17 9.5 C 72 %
Sensor: Nr:Datum:Temp:Feuchte:
G-T/H 726 20-03-2015 01:07:17 9.5 C 72 %
727 20-03-2015 01:19:17 9.5 C 72 %
728 20-03-2015 01:31:17 9.5 C 72 %
729 20-03-2015 01:43:17 9.5 C 72 %
730 20-03-2015 01:55:17 9.5 C 72 %
731 20-03-2015 02:07:17 9.5 C 72 %
732 20-03-2015 02:19:17 9.5 C 72 %
733 20-03-2015 02:31:17 9.5 C 72 %
734 20-03-2015 02:43:17 9.5 C 72 %
735 20-03-2015 02:55:17 9.5 C 72 %
736 20-03-2015 03:07:17 9.5 C 72 %
737 20-03-2015 03:19:17 9.5 C 72 %
738 20-03-2015 03:31:17 9.5 C 72 %
739 20-03-2015 03:43:17 9.5 C 72 %
740 20-03-2015 03:55:17 9.5 C 72 %
741 20-03-2015 04:07:17 9.5 C 71 %
742 20-03-2015 04:19:17 9.5 C 71 %
743 20-03-2015 04:31:17 9.5 C 71 %
744 20-03-2015 04:43:17 9.5 C 71 %
745 20-03-2015 04:55:17 9.5 C 71 %
746 20-03-2015 05:07:17 9.5 C 71 %
747 20-03-2015 05:19:17 9.5 C 71 %
748 20-03-2015 05:31:17 9.5 C 71 %
749 20-03-2015 05:43:17 9.5 C 71 %
750 20-03-2015 05:55:17 9.5 C 71 %
Sensor: Nr:Datum:Temp:Feuchte:
G-T/H 751 20-03-2015 06:07:17 9.5 C 71 %
752 20-03-2015 06:19:17 9.5 C 71 %
753 20-03-2015 06:31:17 9.5 C 71 %
754 20-03-2015 06:43:17 9.5 C 71 %
755 20-03-2015 06:55:17 9.5 C 71 %
756 20-03-2015 07:07:17 9.5 C 71 %
757 20-03-2015 07:19:17 9.4 C 71 %
758 20-03-2015 07:31:17 9.4 C 71 %
759 20-03-2015 07:43:18 9.4 C 71 %
760 20-03-2015 07:55:17 9.4 C 71 %
761 20-03-2015 08:07:17 9.4 C 71 %
762 20-03-2015 08:19:17 9.4 C 71 %
763 20-03-2015 08:31:17 9.4 C 71 %
764 20-03-2015 08:43:17 9.4 C 71 %
765 20-03-2015 08:55:17 9.4 C 71 %
766 20-03-2015 09:07:17 9.4 C 71 %
767 20-03-2015 09:19:17 9.4 C 71 %
768 20-03-2015 09:31:17 9.4 C 71 %
769 20-03-2015 09:43:17 9.4 C 71 %
770 20-03-2015 09:55:17 9.4 C 71 %
771 20-03-2015 10:07:17 9.4 C 71 %
772 20-03-2015 10:19:17 9.4 C 71 %
773 20-03-2015 10:31:17 9.4 C 71 %
774 20-03-2015 10:43:17 9.4 C 71 %
775 20-03-2015 10:55:17 9.4 C 71 %
Sensor: Nr:Datum:Temp:Feuchte:
G-T/H 776 20-03-2015 11:07:17 9.4 C 71 %
777 20-03-2015 11:19:17 9.4 C 71 %
778 20-03-2015 11:31:17 9.4 C 71 %
779 20-03-2015 11:43:17 9.4 C 71 %
780 20-03-2015 11:55:17 9.4 C 71 %
781 20-03-2015 12:07:17 9.4 C 71 %
782 20-03-2015 12:19:17 9.4 C 71 %
783 20-03-2015 12:31:17 9.4 C 71 %
784 20-03-2015 12:43:18 9.4 C 71 %
785 20-03-2015 12:55:17 9.5 C 71 %
786 20-03-2015 13:07:17 9.5 C 71 %
787 20-03-2015 13:19:17 9.4 C 71 %
788 20-03-2015 13:31:17 9.5 C 71 %
789 20-03-2015 13:43:17 9.5 C 71 %
790 20-03-2015 13:55:17 9.5 C 71 %
791 20-03-2015 14:07:17 9.5 C 71 %
792 20-03-2015 14:19:17 9.5 C 71 %
793 20-03-2015 14:31:17 9.5 C 71 %
794 20-03-2015 14:43:17 9.5 C 71 %
795 20-03-2015 14:55:17 9.5 C 71 %
796 20-03-2015 15:07:17 9.6 C 71 %
797 20-03-2015 15:19:17 9.6 C 71 %
798 20-03-2015 15:31:17 9.6 C 72 %
799 20-03-2015 15:43:17 9.5 C 72 %
800 20-03-2015 15:55:17 9.6 C 72 %
Sensor: Nr:Datum:Temp:Feuchte:
G-T/H 801 20-03-2015 16:07:17 9.6 C 72 %
802 20-03-2015 16:19:17 9.6 C 72 %
803 20-03-2015 16:31:17 9.6 C 72 %
804 20-03-2015 16:43:17 9.6 C 72 %
805 20-03-2015 16:55:17 9.6 C 72 %
806 20-03-2015 17:07:17 9.6 C 72 %
807 20-03-2015 17:19:17 9.7 C 72 %
808 20-03-2015 17:31:17 9.7 C 72 %
809 20-03-2015 17:43:17 9.7 C 72 %
810 20-03-2015 17:55:17 9.7 C 72 %
811 20-03-2015 18:07:17 9.7 C 72 %
812 20-03-2015 18:19:17 9.7 C 72 %
813 20-03-2015 18:31:17 9.7 C 72 %
814 20-03-2015 18:43:17 9.7 C 72 %
815 20-03-2015 18:55:17 9.7 C 72 %
816 20-03-2015 19:07:17 9.7 C 72 %
817 20-03-2015 19:19:17 9.7 C 72 %
818 20-03-2015 19:31:17 9.7 C 72 %
819 20-03-2015 19:43:17 9.7 C 72 %
820 20-03-2015 19:55:17 9.7 C 72 %
821 20-03-2015 20:07:17 9.7 C 72 %
822 20-03-2015 20:19:16 9.7 C 72 %
823 20-03-2015 20:31:17 9.7 C 72 %
824 20-03-2015 20:43:17 9.7 C 72 %
825 20-03-2015 20:55:17 9.6 C 71 %
Sensor: Nr:Datum:Temp:Feuchte:
G-T/H 826 20-03-2015 21:07:17 9.7 C 71 %
827 20-03-2015 21:19:17 9.6 C 71 %
828 20-03-2015 21:31:17 9.6 C 71 %
829 20-03-2015 21:43:17 9.6 C 71 %
830 20-03-2015 21:55:17 9.6 C 71 %
831 20-03-2015 22:07:17 9.4 C 71 %
832 20-03-2015 22:19:17 9.3 C 70 %
833 20-03-2015 22:31:17 9.2 C 70 %
834 20-03-2015 22:43:17 9.3 C 70 %
835 20-03-2015 22:55:17 9.4 C 70 %
836 20-03-2015 23:07:17 9.4 C 70 %
837 20-03-2015 23:19:17 9.4 C 70 %
838 20-03-2015 23:31:17 9.5 C 70 %
839 20-03-2015 23:43:17 9.5 C 70 %
840 20-03-2015 23:55:17 9.5 C 70 %
841 21-03-2015 00:07:18 9.5 C 70 %
842 21-03-2015 00:19:17 9.5 C 70 %
843 21-03-2015 00:31:17 9.5 C 70 %
844 21-03-2015 00:43:17 9.5 C 71 %
845 21-03-2015 00:55:17 9.5 C 71 %
846 21-03-2015 01:07:17 9.5 C 71 %
847 21-03-2015 01:19:17 9.5 C 71 %
848 21-03-2015 01:31:17 9.5 C 71 %
849 21-03-2015 01:43:17 9.5 C 71 %
850 21-03-2015 01:55:17 9.5 C 71 %
Sensor: Nr:Datum:Temp:Feuchte:
G-T/H 851 21-03-2015 02:07:17 9.5 C 71 %
852 21-03-2015 02:19:16 9.4 C 71 %
853 21-03-2015 02:31:17 9.4 C 71 %
854 21-03-2015 02:43:17 9.4 C 71 %
855 21-03-2015 02:55:17 9.4 C 71 %
856 21-03-2015 03:07:17 9.4 C 71 %
857 21-03-2015 03:19:17 9.4 C 71 %
858 21-03-2015 03:31:17 9.4 C 71 %
859 21-03-2015 03:43:17 9.4 C 71 %
860 21-03-2015 03:55:17 9.3 C 71 %
861 21-03-2015 04:07:17 9.4 C 71 %
862 21-03-2015 04:19:17 9.3 C 71 %
863 21-03-2015 04:31:17 9.3 C 71 %
864 21-03-2015 04:43:17 9.3 C 71 %
865 21-03-2015 04:55:17 9.3 C 71 %
866 21-03-2015 05:07:18 9.3 C 71 %
867 21-03-2015 05:19:17 9.3 C 71 %
868 21-03-2015 05:31:17 9.3 C 71 %
869 21-03-2015 05:43:17 9.3 C 71 %
870 21-03-2015 05:55:17 9.3 C 71 %
871 21-03-2015 06:07:17 9.3 C 71 %
872 21-03-2015 06:19:17 9.3 C 71 %
873 21-03-2015 06:31:17 9.3 C 71 %
874 21-03-2015 06:43:17 9.2 C 70 %
875 21-03-2015 06:55:17 9.1 C 70 %
Sensor: Nr:Datum:Temp:Feuchte:
G-T/H 876 21-03-2015 07:07:17 9.1 C 69 %
877 21-03-2015 07:19:17 9.1 C 69 %
878 21-03-2015 07:31:17 9.1 C 69 %
879 21-03-2015 07:43:17 9.2 C 69 %
880 21-03-2015 07:55:17 9.2 C 69 %
881 21-03-2015 08:07:17 9.2 C 69 %
882 21-03-2015 08:19:17 9.2 C 70 %
883 21-03-2015 08:31:17 9.2 C 70 %
884 21-03-2015 08:43:17 9.2 C 70 %
885 21-03-2015 08:55:17 9.2 C 70 %
886 21-03-2015 09:07:17 9.2 C 70 %
887 21-03-2015 09:19:17 9.2 C 70 %
888 21-03-2015 09:31:17 9.2 C 70 %
889 21-03-2015 09:43:17 9.2 C 70 %
890 21-03-2015 09:55:17 9.1 C 70 %
891 21-03-2015 10:07:17 9.1 C 70 %
892 21-03-2015 10:19:17 9.1 C 70 %
893 21-03-2015 10:31:17 9.1 C 70 %
894 21-03-2015 10:43:17 9.1 C 70 %
895 21-03-2015 10:55:17 9.1 C 70 %
896 21-03-2015 11:07:17 9.1 C 70 %
897 21-03-2015 11:19:16 9.1 C 70 %
898 21-03-2015 11:31:17 9.1 C 71 %
899 21-03-2015 11:43:17 9.1 C 71 %
900 21-03-2015 11:55:17 9.2 C 71 %
Sensor: Nr:Datum:Temp:Feuchte:
G-T/H 901 21-03-2015 12:07:17 9.2 C 71 %
902 21-03-2015 12:19:17 9.3 C 71 %
903 21-03-2015 12:31:17 9.3 C 70 %
904 21-03-2015 12:43:17 9.3 C 70 %
905 21-03-2015 12:55:17 9.3 C 70 %
906 21-03-2015 13:07:17 9.3 C 70 %
907 21-03-2015 13:19:17 9.3 C 70 %
908 21-03-2015 13:31:17 9.3 C 70 %
909 21-03-2015 13:43:17 9.3 C 71 %
910 21-03-2015 13:55:17 9.3 C 71 %
911 21-03-2015 14:07:17 9.2 C 71 %
912 21-03-2015 14:19:17 9.2 C 71 %
913 21-03-2015 14:31:17 9.2 C 71 %
914 21-03-2015 14:43:17 9.2 C 70 %
915 21-03-2015 14:55:17 9.2 C 70 %
916 21-03-2015 15:07:17 9.2 C 70 %
917 21-03-2015 15:19:17 9.2 C 71 %
918 21-03-2015 15:31:17 9.2 C 71 %
919 21-03-2015 15:43:17 9.2 C 71 %
920 21-03-2015 15:55:17 9.2 C 71 %
921 21-03-2015 16:07:17 9.2 C 71 %
922 21-03-2015 16:19:17 9.2 C 71 %
923 21-03-2015 16:31:17 9.2 C 71 %
924 21-03-2015 16:43:17 9.2 C 71 %
925 21-03-2015 16:55:17 9.2 C 71 %
Sensor: Nr:Datum:Temp:Feuchte:
G-T/H 926 21-03-2015 17:07:17 9.2 C 71 %
927 21-03-2015 17:19:17 9.2 C 71 %
928 21-03-2015 17:31:17 9.2 C 71 %
929 21-03-2015 17:43:17 9.2 C 71 %
930 21-03-2015 17:55:17 9.2 C 71 %
931 21-03-2015 18:07:17 9.2 C 71 %
932 21-03-2015 18:19:17 9.2 C 71 %
933 21-03-2015 18:31:17 9.2 C 71 %
934 21-03-2015 18:43:17 9.2 C 71 %
935 21-03-2015 18:55:17 9.2 C 71 %
936 21-03-2015 19:07:17 9.2 C 71 %
937 21-03-2015 19:19:17 9.2 C 71 %
938 21-03-2015 19:31:17 9.2 C 71 %
939 21-03-2015 19:43:17 9.2 C 71 %
940 21-03-2015 19:55:17 9.2 C 71 %
941 21-03-2015 20:07:17 9.2 C 71 %
942 21-03-2015 20:19:17 9.2 C 71 %
943 21-03-2015 20:31:17 9.2 C 71 %
944 21-03-2015 20:43:17 9.2 C 71 %
945 21-03-2015 20:55:17 9.2 C 71 %
946 21-03-2015 21:07:17 9.2 C 71 %
947 21-03-2015 21:19:16 9.2 C 71 %
948 21-03-2015 21:31:17 9.1 C 71 %
949 21-03-2015 21:43:17 9.2 C 71 %
950 21-03-2015 21:55:17 9.1 C 71 %
Sensor: Nr:Datum:Temp:Feuchte:
G-T/H 951 21-03-2015 22:07:17 9.1 C 71 %
952 21-03-2015 22:19:17 9.1 C 71 %
953 21-03-2015 22:31:17 9.1 C 71 %
954 21-03-2015 22:43:17 9.1 C 71 %
955 21-03-2015 22:55:17 9.1 C 71 %
956 21-03-2015 23:07:17 9.1 C 71 %
957 21-03-2015 23:19:17 9.1 C 71 %
958 21-03-2015 23:31:17 9.1 C 71 %
959 21-03-2015 23:43:17 9.1 C 71 %
960 21-03-2015 23:55:17 9.1 C 71 %
961 22-03-2015 00:07:17 9.1 C 71 %
962 22-03-2015 00:19:17 9.1 C 71 %
963 22-03-2015 00:31:17 9.1 C 71 %
964 22-03-2015 00:43:17 9.1 C 71 %
965 22-03-2015 00:55:17 9.1 C 71 %
966 22-03-2015 01:07:17 9 C 72 %
967 22-03-2015 01:19:17 9.1 C 72 %
968 22-03-2015 01:31:17 9.1 C 72 %
969 22-03-2015 01:43:17 9 C 72 %
970 22-03-2015 01:55:17 9 C 72 %
971 22-03-2015 02:07:17 9 C 72 %
972 22-03-2015 02:19:16 9 C 72 %
973 22-03-2015 02:31:17 9 C 72 %
974 22-03-2015 02:43:17 9 C 72 %
975 22-03-2015 02:55:17 9 C 72 %
Sensor: Nr:Datum:Temp:Feuchte:
G-T/H 976 22-03-2015 03:07:17 9 C 72 %
977 22-03-2015 03:19:17 9 C 72 %
978 22-03-2015 03:31:17 8.9 C 72 %
979 22-03-2015 03:43:17 8.9 C 72 %
980 22-03-2015 03:55:17 9 C 72 %
981 22-03-2015 04:07:17 8.9 C 72 %
982 22-03-2015 04:19:17 8.9 C 72 %
983 22-03-2015 04:31:17 8.9 C 73 %
984 22-03-2015 04:43:17 8.9 C 73 %
985 22-03-2015 04:55:17 8.9 C 73 %
986 22-03-2015 05:07:18 8.9 C 73 %
987 22-03-2015 05:19:17 8.9 C 73 %
988 22-03-2015 05:31:17 9 C 72 %
989 22-03-2015 05:43:17 8.9 C 73 %
990 22-03-2015 05:55:17 8.9 C 72 %
991 22-03-2015 06:07:17 8.9 C 72 %
992 22-03-2015 06:19:17 8.9 C 72 %
993 22-03-2015 06:31:17 8.9 C 72 %
994 22-03-2015 06:43:17 8.9 C 72 %
995 22-03-2015 06:55:17 8.9 C 72 %
996 22-03-2015 07:07:17 8.9 C 72 %
997 22-03-2015 07:19:17 8.9 C 72 %
998 22-03-2015 07:31:17 8.8 C 72 %
999 22-03-2015 07:43:17 8.8 C 71 %
1000 22-03-2015 07:55:17 8.7 C 70 %
Sensor: Nr:Datum:Temp:Feuchte:
G-T/H 1001 22-03-2015 08:07:17 8.7 C 69 %
1002 22-03-2015 08:19:17 8.6 C 69 %
1003 22-03-2015 08:31:17 8.6 C 68 %
1004 22-03-2015 08:43:17 8.6 C 68 %
1005 22-03-2015 08:55:17 8.6 C 67 %
1006 22-03-2015 09:07:17 8.5 C 67 %
1007 22-03-2015 09:19:17 8.6 C 67 %
1008 22-03-2015 09:31:17 8.6 C 66 %
1009 22-03-2015 09:43:17 8.6 C 66 %
1010 22-03-2015 09:55:17 8.6 C 67 %
1011 22-03-2015 10:07:17 8.6 C 67 %
1012 22-03-2015 10:19:17 8.6 C 67 %
1013 22-03-2015 10:31:17 8.7 C 67 %
1014 22-03-2015 10:43:17 8.7 C 68 %
1015 22-03-2015 10:55:17 8.7 C 68 %
1016 22-03-2015 11:07:17 8.7 C 68 %
1017 22-03-2015 11:19:17 8.7 C 68 %
1018 22-03-2015 11:31:20 8.7 C 68 %
1019 22-03-2015 11:43:20 8.8 C 68 %
1020 22-03-2015 11:55:18 8.8 C 68 %
1021 22-03-2015 11:55:18 8.8 C 68 %
1022 22-03-2015 12:07:20 8.8 C 68 %
1023 22-03-2015 12:19:16 8.8 C 68 %
1024 22-03-2015 12:31:17 8.8 C 68 %
1025 22-03-2015 12:43:17 8.8 C 68 %
Sensor: Nr:Datum:Temp:Feuchte:
G-T/H 1026 22-03-2015 12:55:17 8.8 C 68 %
1027 22-03-2015 13:07:17 8.9 C 68 %
1028 22-03-2015 13:19:17 8.9 C 68 %
1029 22-03-2015 13:31:17 8.9 C 68 %
1030 22-03-2015 13:43:17 8.9 C 68 %
1031 22-03-2015 13:55:17 8.9 C 68 %
1032 22-03-2015 14:07:17 8.9 C 68 %
1033 22-03-2015 14:19:17 8.9 C 68 %
1034 22-03-2015 14:31:17 8.9 C 68 %
1035 22-03-2015 14:43:17 8.9 C 68 %
1036 22-03-2015 14:55:17 8.9 C 68 %
1037 22-03-2015 15:07:17 8.9 C 68 %
1038 22-03-2015 15:19:17 9 C 67 %
1039 22-03-2015 15:31:17 9 C 67 %
1040 22-03-2015 15:43:17 9 C 67 %
1041 22-03-2015 15:55:17 9 C 67 %
1042 22-03-2015 16:07:17 8.9 C 68 %
1043 22-03-2015 16:19:17 8.9 C 67 %
1044 22-03-2015 16:31:17 8.9 C 66 %
1045 22-03-2015 16:43:17 8.9 C 65 %
1046 22-03-2015 16:55:17 8.8 C 64 %
1047 22-03-2015 17:07:17 8.8 C 64 %
1048 22-03-2015 17:19:17 8.8 C 63 %
1049 22-03-2015 17:31:17 8.9 C 63 %
1050 22-03-2015 17:43:17 8.9 C 64 %
Sensor: Nr:Datum:Temp:Feuchte:
G-T/H 1051 22-03-2015 17:55:17 9 C 64 %
1052 22-03-2015 18:07:17 9 C 64 %
1053 22-03-2015 18:19:17 9 C 64 %
1054 22-03-2015 18:31:17 9 C 65 %
1055 22-03-2015 18:43:17 8.9 C 65 %
1056 22-03-2015 18:55:17 8.8 C 65 %
1057 22-03-2015 19:07:17 8.8 C 64 %
1058 22-03-2015 19:19:17 8.7 C 64 %
1059 22-03-2015 19:31:17 8.6 C 63 %
1060 22-03-2015 19:43:17 8.6 C 63 %
1061 22-03-2015 19:55:17 8.5 C 63 %
1062 22-03-2015 20:07:17 8.5 C 63 %
1063 22-03-2015 20:19:17 8.4 C 63 %
1064 22-03-2015 20:31:17 8.4 C 62 %
1065 22-03-2015 20:43:17 8.4 C 62 %
1066 22-03-2015 20:55:17 8.4 C 62 %
1067 22-03-2015 21:07:17 8.3 C 62 %
1068 22-03-2015 21:19:16 8.3 C 62 %
1069 22-03-2015 21:31:17 8.2 C 62 %
1070 22-03-2015 21:43:17 8.2 C 61 %
1071 22-03-2015 21:55:17 8.2 C 61 %
1072 22-03-2015 22:07:17 8.1 C 61 %
1073 22-03-2015 22:19:17 8.1 C 61 %
1074 22-03-2015 22:31:17 8.1 C 61 %
1075 22-03-2015 22:43:17 8 C 61 %
Sensor: Nr:Datum:Temp:Feuchte:
G-T/H 1076 22-03-2015 22:55:17 8 C 61 %
1077 22-03-2015 23:07:17 8 C 61 %
1078 22-03-2015 23:19:17 8.1 C 61 %
1079 22-03-2015 23:31:17 8 C 61 %
1080 22-03-2015 23:43:17 8 C 61 %
1081 22-03-2015 23:55:17 7.9 C 61 %
1082 23-03-2015 00:07:17 7.9 C 61 %
1083 23-03-2015 00:19:17 7.8 C 61 %
1084 23-03-2015 00:31:17 7.8 C 61 %
1085 23-03-2015 00:43:17 7.8 C 60 %
1086 23-03-2015 00:55:17 7.7 C 60 %
1087 23-03-2015 01:07:17 7.7 C 60 %
1088 23-03-2015 01:19:17 7.6 C 60 %
1089 23-03-2015 01:31:17 7.6 C 60 %
1090 23-03-2015 01:43:17 7.6 C 60 %
1091 23-03-2015 01:55:17 7.5 C 60 %
1092 23-03-2015 02:07:17 7.5 C 60 %
1093 23-03-2015 02:19:17 7.5 C 60 %
1094 23-03-2015 02:31:17 7.4 C 60 %
1095 23-03-2015 02:43:17 7.4 C 60 %
1096 23-03-2015 02:55:17 7.4 C 59 %
1097 23-03-2015 03:07:17 7.3 C 59 %
1098 23-03-2015 03:19:17 7.3 C 59 %
1099 23-03-2015 03:31:17 7.3 C 59 %
1100 23-03-2015 03:43:17 7.2 C 59 %
Sensor: Nr:Datum:Temp:Feuchte:
G-T/H 1101 23-03-2015 03:55:17 7.2 C 59 %
1102 23-03-2015 04:07:17 7.2 C 59 %
1103 23-03-2015 04:19:17 7.2 C 59 %
1104 23-03-2015 04:31:17 7.1 C 59 %
1105 23-03-2015 04:43:17 7.1 C 59 %
1106 23-03-2015 04:55:17 7.1 C 59 %
1107 23-03-2015 05:07:17 7.1 C 58 %
1108 23-03-2015 05:19:17 7 C 58 %
1109 23-03-2015 05:31:17 7 C 58 %
1110 23-03-2015 05:43:17 7 C 58 %
1111 23-03-2015 05:55:17 6.9 C 59 %
1112 23-03-2015 06:07:17 6.9 C 59 %
1113 23-03-2015 06:19:16 6.9 C 59 %
1114 23-03-2015 06:31:17 7 C 59 %
1115 23-03-2015 06:43:17 7 C 59 %
1116 23-03-2015 06:55:17 7.1 C 60 %
1117 23-03-2015 07:07:17 7.1 C 60 %
1118 23-03-2015 07:19:17 7.1 C 61 %
1119 23-03-2015 07:31:17 7.1 C 61 %
1120 23-03-2015 07:43:17 7.1 C 61 %
1121 23-03-2015 07:55:17 7.1 C 61 %
1122 23-03-2015 08:07:17 7 C 61 %
1123 23-03-2015 08:19:17 7 C 60 %
1124 23-03-2015 08:31:17 6.9 C 61 %
1125 23-03-2015 08:43:17 6.9 C 61 %
Sensor: Nr:Datum:Temp:Feuchte:
G-T/H 1126 23-03-2015 08:55:17 6.9 C 61 %
1127 23-03-2015 09:07:17 6.9 C 61 %
1128 23-03-2015 09:19:17 6.9 C 61 %
1129 23-03-2015 09:31:17 6.9 C 61 %
1130 23-03-2015 09:43:17 7 C 61 %
1131 23-03-2015 09:55:17 7 C 61 %
1132 23-03-2015 10:07:17 7.1 C 62 %
1133 23-03-2015 10:19:17 7.1 C 62 %
1134 23-03-2015 10:31:17 7.1 C 62 %
1135 23-03-2015 10:43:17 7.1 C 62 %
1136 23-03-2015 10:55:17 7.2 C 63 %
1137 23-03-2015 11:07:17 7.2 C 63 %
1138 23-03-2015 11:19:17 7.2 C 63 %
1139 23-03-2015 11:31:17 7.2 C 63 %
1140 23-03-2015 11:43:17 7.3 C 64 %
1141 23-03-2015 11:55:17 7.3 C 64 %
1142 23-03-2015 12:07:17 7.3 C 64 %
1143 23-03-2015 12:19:17 7.4 C 64 %
1144 23-03-2015 12:31:17 7.4 C 64 %
1145 23-03-2015 12:43:17 7.4 C 65 %
1146 23-03-2015 12:55:17 7.5 C 65 %
1147 23-03-2015 13:07:17 7.5 C 65 %
1148 23-03-2015 13:19:17 7.5 C 65 %
1149 23-03-2015 13:31:17 7.5 C 65 %
1150 23-03-2015 13:43:17 7.6 C 65 %
Sensor: Nr:Datum:Temp:Feuchte:
G-T/H 1151 23-03-2015 13:55:17 7.6 C 65 %
1152 23-03-2015 14:07:17 7.6 C 65 %
1153 23-03-2015 14:19:17 7.6 C 66 %
1154 23-03-2015 14:31:17 7.6 C 66 %
1155 23-03-2015 14:43:17 7.6 C 66 %
1156 23-03-2015 14:55:17 7.7 C 66 %
1157 23-03-2015 15:07:17 7.7 C 66 %
1158 23-03-2015 15:19:17 7.8 C 66 %
1159 23-03-2015 15:31:17 7.8 C 66 %
1160 23-03-2015 15:43:17 7.8 C 66 %
1161 23-03-2015 15:55:17 7.8 C 66 %
1162 23-03-2015 16:07:17 7.9 C 66 %
1163 23-03-2015 16:19:17 7.9 C 67 %
1164 23-03-2015 16:31:17 7.9 C 67 %
1165 23-03-2015 16:43:17 8 C 66 %
1166 23-03-2015 16:55:17 8 C 66 %
1167 23-03-2015 17:07:17 8 C 66 %
1168 23-03-2015 17:19:17 8.1 C 66 %
1169 23-03-2015 17:31:17 8.1 C 66 %
1170 23-03-2015 17:43:17 8.1 C 66 %
1171 23-03-2015 17:55:17 8.1 C 66 %
1172 23-03-2015 18:07:17 8.1 C 66 %
1173 23-03-2015 18:19:17 8.2 C 66 %
1174 23-03-2015 18:31:17 8.2 C 66 %
1175 23-03-2015 18:43:17 8.2 C 67 %
Sensor: Nr:Datum:Temp:Feuchte:
G-T/H 1176 23-03-2015 18:55:17 8.2 C 67 %
1177 23-03-2015 19:07:17 8.2 C 67 %
1178 23-03-2015 19:19:17 8.2 C 67 %
1179 23-03-2015 19:31:17 8.2 C 67 %
1180 23-03-2015 19:43:18 8.2 C 67 %
1181 23-03-2015 19:55:17 8.2 C 67 %
1182 23-03-2015 20:07:17 8.2 C 67 %
1183 23-03-2015 20:19:17 8.2 C 67 %
1184 23-03-2015 20:31:17 8.2 C 67 %
1185 23-03-2015 20:43:17 8.2 C 67 %
1186 23-03-2015 20:55:17 8.2 C 67 %
1187 23-03-2015 21:07:17 8.2 C 67 %
1188 23-03-2015 21:19:16 8.2 C 67 %
1189 23-03-2015 21:31:17 8.2 C 67 %
1190 23-03-2015 21:43:17 8.3 C 67 %
1191 23-03-2015 21:55:17 8.3 C 67 %
1192 23-03-2015 22:07:17 8.3 C 67 %
1193 23-03-2015 22:19:17 8.3 C 67 %
1194 23-03-2015 22:31:17 8.3 C 67 %
1195 23-03-2015 22:43:17 8.3 C 67 %
1196 23-03-2015 22:55:17 8.3 C 67 %
1197 23-03-2015 23:07:17 8.3 C 67 %
1198 23-03-2015 23:19:17 8.3 C 67 %
1199 23-03-2015 23:31:17 8.2 C 67 %
1200 23-03-2015 23:43:17 8.2 C 67 %
Sensor: Nr:Datum:Temp:Feuchte:
G-T/H 1201 23-03-2015 23:55:17 8.1 C 66 %
1202 24-03-2015 00:07:17 8 C 66 %
1203 24-03-2015 00:19:17 8 C 65 %
1204 24-03-2015 00:31:17 7.9 C 66 %
1205 24-03-2015 00:43:17 7.8 C 66 %
1206 24-03-2015 00:55:17 7.8 C 65 %
1207 24-03-2015 01:07:17 7.8 C 65 %
1208 24-03-2015 01:19:17 7.8 C 65 %
1209 24-03-2015 01:31:17 7.7 C 65 %
1210 24-03-2015 01:43:17 7.7 C 65 %
1211 24-03-2015 01:55:17 7.7 C 65 %
1212 24-03-2015 02:07:17 7.7 C 64 %
1213 24-03-2015 02:19:17 7.6 C 64 %
1214 24-03-2015 02:31:17 7.6 C 64 %
1215 24-03-2015 02:43:17 7.6 C 64 %
1216 24-03-2015 02:55:17 7.6 C 64 %
1217 24-03-2015 03:07:17 7.6 C 64 %
1218 24-03-2015 03:19:17 7.6 C 64 %
1219 24-03-2015 03:31:17 7.5 C 64 %
1220 24-03-2015 03:43:17 7.6 C 64 %
1221 24-03-2015 03:55:17 7.6 C 64 %
1222 24-03-2015 04:07:17 7.6 C 64 %
1223 24-03-2015 04:19:17 7.5 C 64 %
1224 24-03-2015 04:31:17 7.5 C 64 %
1225 24-03-2015 04:43:17 7.5 C 64 %
Sensor: Nr:Datum:Temp:Feuchte:
G-T/H 1226 24-03-2015 04:55:17 7.5 C 64 %
1227 24-03-2015 05:07:17 7.5 C 64 %
1228 24-03-2015 05:19:17 7.5 C 64 %
1229 24-03-2015 05:31:17 7.5 C 64 %
1230 24-03-2015 05:43:17 7.5 C 64 %
1231 24-03-2015 05:55:17 7.5 C 64 %
1232 24-03-2015 06:07:17 7.5 C 64 %
1233 24-03-2015 06:19:17 7.5 C 64 %
1234 24-03-2015 06:31:17 7.5 C 64 %
1235 24-03-2015 06:43:17 7.6 C 64 %
1236 24-03-2015 06:55:17 7.6 C 65 %
1237 24-03-2015 07:07:17 7.6 C 65 %
1238 24-03-2015 07:19:17 7.6 C 65 %
1239 24-03-2015 07:31:17 7.6 C 65 %
1240 24-03-2015 07:43:17 7.6 C 66 %
1241 24-03-2015 07:55:17 7.6 C 66 %
1242 24-03-2015 08:07:17 7.7 C 66 %
1243 24-03-2015 08:19:17 7.7 C 66 %
1244 24-03-2015 08:31:17 7.7 C 66 %
1245 24-03-2015 08:43:17 7.7 C 66 %
1246 24-03-2015 08:55:17 7.7 C 66 %
1247 24-03-2015 09:07:17 7.7 C 66 %
1248 24-03-2015 09:19:17 7.7 C 67 %
1249 24-03-2015 09:31:17 7.7 C 67 %
1250 24-03-2015 09:43:17 7.7 C 67 %
Sensor: Nr:Datum:Temp:Feuchte:
G-T/H 1251 24-03-2015 09:55:17 7.8 C 67 %
1252 24-03-2015 10:07:17 7.8 C 67 %
1253 24-03-2015 10:19:17 7.8 C 67 %
1254 24-03-2015 10:31:17 7.8 C 67 %
1255 24-03-2015 10:43:17 7.8 C 67 %
1256 24-03-2015 10:55:17 7.8 C 67 %
1257 24-03-2015 11:07:17 7.8 C 67 %
1258 24-03-2015 11:19:17 7.8 C 67 %
1259 24-03-2015 11:31:17 7.8 C 68 %
1260 24-03-2015 11:43:17 7.9 C 68 %
1261 24-03-2015 11:55:17 7.9 C 68 %
1262 24-03-2015 12:07:17 7.9 C 68 %
1263 24-03-2015 12:19:17 8 C 67 %
1264 24-03-2015 12:31:17 8 C 67 %
1265 24-03-2015 12:43:17 8 C 67 %
1266 24-03-2015 12:55:17 8.1 C 67 %
1267 24-03-2015 13:07:17 8.1 C 67 %
1268 24-03-2015 13:19:18 8.1 C 67 %
1269 24-03-2015 13:31:17 8.2 C 67 %
1270 24-03-2015 13:43:17 8.2 C 67 %
1271 24-03-2015 13:55:17 8.2 C 67 %
1272 24-03-2015 14:07:17 8.2 C 67 %
1273 24-03-2015 14:19:17 8.3 C 67 %
1274 24-03-2015 14:31:17 8.3 C 67 %
1275 24-03-2015 14:43:17 8.3 C 67 %
Sensor: Nr:Datum:Temp:Feuchte:
G-T/H 1276 24-03-2015 14:55:17 8.4 C 67 %
1277 24-03-2015 15:07:17 8.4 C 67 %
1278 24-03-2015 15:19:17 8.4 C 68 %
1279 24-03-2015 15:31:17 8.4 C 68 %
1280 24-03-2015 15:43:17 8.5 C 68 %
1281 24-03-2015 15:55:17 8.5 C 68 %
1282 24-03-2015 16:07:17 8.6 C 68 %
1283 24-03-2015 16:19:17 8.6 C 68 %
1284 24-03-2015 16:31:17 8.6 C 68 %
1285 24-03-2015 16:43:17 8.6 C 68 %
1286 24-03-2015 16:55:17 8.6 C 68 %
1287 24-03-2015 17:07:17 8.7 C 68 %
1288 24-03-2015 17:19:16 8.7 C 68 %
1289 24-03-2015 17:31:17 8.7 C 68 %
1290 24-03-2015 17:43:17 8.7 C 68 %
1291 24-03-2015 17:55:17 8.8 C 68 %
1292 24-03-2015 18:07:17 8.8 C 68 %
1293 24-03-2015 18:19:17 8.8 C 68 %
1294 24-03-2015 18:31:17 8.8 C 68 %
1295 24-03-2015 18:43:17 8.8 C 68 %
1296 24-03-2015 18:55:17 8.9 C 68 %
1297 24-03-2015 19:07:17 8.9 C 68 %
1298 24-03-2015 19:19:17 8.9 C 68 %
1299 24-03-2015 19:31:17 8.9 C 68 %
1300 24-03-2015 19:43:17 8.9 C 69 %
Sensor: Nr:Datum:Temp:Feuchte:
G-T/H 1301 24-03-2015 19:55:17 8.9 C 69 %
1302 24-03-2015 20:07:17 8.9 C 69 %
1303 24-03-2015 20:19:17 9 C 68 %
1304 24-03-2015 20:31:17 9 C 68 %
1305 24-03-2015 20:43:17 9 C 68 %
1306 24-03-2015 20:55:17 9 C 68 %
1307 24-03-2015 21:07:17 9 C 68 %
1308 24-03-2015 21:19:17 9 C 68 %
1309 24-03-2015 21:31:17 9 C 68 %
1310 24-03-2015 21:43:17 9 C 68 %
1311 24-03-2015 21:55:17 9 C 68 %
1312 24-03-2015 22:07:17 9 C 68 %
1313 24-03-2015 22:19:17 9 C 68 %
1314 24-03-2015 22:31:17 9 C 68 %
1315 24-03-2015 22:43:17 9 C 68 %
1316 24-03-2015 22:55:17 9 C 68 %
1317 24-03-2015 23:07:17 9.1 C 68 %
1318 24-03-2015 23:19:17 9 C 68 %
1319 24-03-2015 23:31:17 9 C 68 %
1320 24-03-2015 23:43:17 9.1 C 68 %
1321 24-03-2015 23:55:17 9.1 C 68 %
1322 25-03-2015 00:07:17 9 C 68 %
1323 25-03-2015 00:19:17 9 C 68 %
1324 25-03-2015 00:31:17 9 C 68 %
1325 25-03-2015 00:43:17 9 C 68 %
Sensor: Nr:Datum:Temp:Feuchte:
G-T/H 1326 25-03-2015 00:55:17 9 C 68 %
1327 25-03-2015 01:07:17 9 C 68 %
1328 25-03-2015 01:19:17 9.1 C 68 %
1329 25-03-2015 01:31:17 9 C 68 %
1330 25-03-2015 01:43:17 9 C 68 %
1331 25-03-2015 01:55:17 9 C 68 %
1332 25-03-2015 02:07:17 9 C 68 %
1333 25-03-2015 02:19:17 9 C 68 %
1334 25-03-2015 02:31:17 9 C 68 %
1335 25-03-2015 02:43:17 9 C 68 %
1336 25-03-2015 02:55:17 9 C 68 %
1337 25-03-2015 03:07:17 9 C 68 %
1338 25-03-2015 03:19:17 9 C 68 %
1339 25-03-2015 03:31:17 9 C 68 %
1340 25-03-2015 03:43:17 9 C 68 %
1341 25-03-2015 03:55:17 9 C 69 %
1342 25-03-2015 04:07:17 9 C 69 %
1343 25-03-2015 04:19:17 9 C 69 %
1344 25-03-2015 04:31:17 9 C 69 %
1345 25-03-2015 04:43:17 9 C 69 %
1346 25-03-2015 04:55:17 9 C 69 %
1347 25-03-2015 05:07:17 9 C 69 %
1348 25-03-2015 05:19:17 9 C 69 %
1349 25-03-2015 05:31:17 9 C 69 %
1350 25-03-2015 05:43:17 9 C 69 %
Sensor: Nr:Datum:Temp:Feuchte:
G-T/H 1351 25-03-2015 05:55:17 8.9 C 70 %
1352 25-03-2015 06:07:17 8.9 C 70 %
1353 25-03-2015 06:19:17 8.9 C 70 %
1354 25-03-2015 06:31:17 8.9 C 70 %
1355 25-03-2015 06:43:17 8.9 C 70 %
1356 25-03-2015 06:55:17 8.9 C 70 %
1357 25-03-2015 07:07:17 8.9 C 70 %
1358 25-03-2015 07:19:17 8.9 C 70 %
1359 25-03-2015 07:31:17 8.9 C 70 %
1360 25-03-2015 07:43:17 8.9 C 70 %
1361 25-03-2015 07:55:17 8.9 C 70 %
1362 25-03-2015 08:07:16 8.9 C 70 %
1363 25-03-2015 08:19:17 8.9 C 70 %
1364 25-03-2015 08:31:17 8.9 C 70 %
1365 25-03-2015 08:43:17 8.9 C 70 %
1366 25-03-2015 08:55:17 8.9 C 70 %
1367 25-03-2015 09:07:17 8.9 C 70 %
1368 25-03-2015 09:19:17 8.9 C 70 %
1369 25-03-2015 09:31:17 8.9 C 70 %
1370 25-03-2015 09:43:17 8.9 C 70 %
1371 25-03-2015 09:55:17 9 C 69 %
1372 25-03-2015 10:07:17 9 C 69 %
1373 25-03-2015 10:19:17 9 C 69 %
1374 25-03-2015 10:31:17 9 C 69 %
1375 25-03-2015 10:43:17 9 C 69 %
Sensor: Nr:Datum:Temp:Feuchte:
G-T/H 1376 25-03-2015 10:55:17 9 C 69 %
1377 25-03-2015 11:07:17 9 C 69 %
1378 25-03-2015 11:19:17 9 C 69 %
1379 25-03-2015 11:31:17 9.1 C 69 %
1380 25-03-2015 11:43:17 9.1 C 69 %
1381 25-03-2015 11:55:17 9.1 C 69 %
1382 25-03-2015 12:07:17 9.1 C 69 %
1383 25-03-2015 12:19:17 9.1 C 69 %
1384 25-03-2015 12:31:17 9.2 C 69 %
1385 25-03-2015 12:43:17 9.2 C 69 %
1386 25-03-2015 12:55:17 9.2 C 69 %
1387 25-03-2015 13:07:17 9.2 C 70 %
1388 25-03-2015 13:19:17 9.2 C 70 %
1389 25-03-2015 13:31:17 9.2 C 70 %
1390 25-03-2015 13:43:17 9.3 C 70 %
1391 25-03-2015 13:55:17 9.3 C 70 %
1392 25-03-2015 14:07:17 9.3 C 70 %
1393 25-03-2015 14:19:17 9.3 C 70 %
1394 25-03-2015 14:31:17 9.3 C 70 %
1395 25-03-2015 14:43:17 9.3 C 70 %
1396 25-03-2015 14:55:17 9.4 C 70 %
1397 25-03-2015 15:07:17 9.4 C 70 %
1398 25-03-2015 15:19:17 9.4 C 70 %
1399 25-03-2015 15:31:16 9.4 C 70 %
1400 25-03-2015 15:43:17 9.4 C 70 %
Sensor: Nr:Datum:Temp:Feuchte:
G-T/H 1401 25-03-2015 15:55:17 9.4 C 70 %
1402 25-03-2015 16:07:17 9.4 C 70 %
1403 25-03-2015 16:19:16 9.5 C 69 %
1404 25-03-2015 16:31:17 9.5 C 69 %
1405 25-03-2015 16:43:17 9.5 C 69 %
1406 25-03-2015 16:55:17 9.5 C 69 %
1407 25-03-2015 17:07:17 9.5 C 69 %
1408 25-03-2015 17:19:17 9.5 C 69 %
1409 25-03-2015 17:31:17 9.5 C 69 %
1410 25-03-2015 17:43:17 9.5 C 69 %
1411 25-03-2015 17:55:17 9.5 C 69 %
1412 25-03-2015 18:07:17 9.5 C 69 %
1413 25-03-2015 18:19:17 9.5 C 69 %
1414 25-03-2015 18:31:17 9.6 C 69 %
1415 25-03-2015 18:43:17 9.6 C 69 %
1416 25-03-2015 18:55:17 9.6 C 69 %
1417 25-03-2015 19:07:17 9.6 C 69 %
1418 25-03-2015 19:19:17 9.6 C 69 %
1419 25-03-2015 19:31:17 9.6 C 69 %
1420 25-03-2015 19:43:17 9.6 C 69 %
1421 25-03-2015 19:55:17 9.6 C 69 %
1422 25-03-2015 20:07:17 9.6 C 69 %
1423 25-03-2015 20:19:17 9.6 C 69 %
1424 25-03-2015 20:31:17 9.6 C 69 %
1425 25-03-2015 20:43:17 9.6 C 69 %
Sensor: Nr:Datum:Temp:Feuchte:
G-T/H 1426 25-03-2015 20:55:17 9.6 C 69 %
1427 25-03-2015 21:07:17 9.6 C 69 %
1428 25-03-2015 21:19:17 9.6 C 69 %
1429 25-03-2015 21:31:17 9.6 C 69 %
1430 25-03-2015 21:43:17 9.6 C 69 %
1431 25-03-2015 21:55:18 9.6 C 69 %
1432 25-03-2015 22:07:17 9.6 C 69 %
1433 25-03-2015 22:19:17 9.6 C 69 %
1434 25-03-2015 22:31:17 9.6 C 69 %
1435 25-03-2015 22:43:17 9.6 C 69 %
1436 25-03-2015 22:55:17 9.6 C 69 %
1437 25-03-2015 23:07:17 9.6 C 69 %
1438 25-03-2015 23:19:17 9.6 C 69 %
1439 25-03-2015 23:31:17 9.6 C 69 %
1440 25-03-2015 23:43:17 9.6 C 69 %
1441 25-03-2015 23:55:17 9.6 C 69 %
1442 26-03-2015 00:07:17 9.6 C 69 %
1443 26-03-2015 00:19:17 9.6 C 69 %
1444 26-03-2015 00:31:17 9.6 C 69 %
1445 26-03-2015 00:43:17 9.6 C 69 %
1446 26-03-2015 00:55:17 9.6 C 69 %
1447 26-03-2015 01:07:17 9.6 C 69 %
1448 26-03-2015 01:19:17 9.6 C 69 %
1449 26-03-2015 01:31:17 9.6 C 69 %
1450 26-03-2015 01:43:17 9.6 C 69 %
Sensor: Nr:Datum:Temp:Feuchte:
G-T/H 1451 26-03-2015 01:55:17 9.6 C 69 %
1452 26-03-2015 02:07:17 9.6 C 69 %
1453 26-03-2015 02:19:17 9.6 C 69 %
1454 26-03-2015 02:31:17 9.6 C 69 %
1455 26-03-2015 02:43:17 9.6 C 69 %
1456 26-03-2015 02:55:17 9.6 C 70 %
1457 26-03-2015 03:07:17 9.6 C 70 %
1458 26-03-2015 03:19:17 9.6 C 70 %
1459 26-03-2015 03:31:17 9.6 C 70 %
1460 26-03-2015 03:43:17 9.6 C 70 %
1461 26-03-2015 03:55:17 9.6 C 70 %
1462 26-03-2015 04:07:17 9.6 C 70 %
1463 26-03-2015 04:19:17 9.6 C 70 %
1464 26-03-2015 04:31:17 9.5 C 70 %
1465 26-03-2015 04:43:17 9.5 C 70 %
1466 26-03-2015 04:55:17 9.5 C 70 %
1467 26-03-2015 05:07:17 9.5 C 70 %
1468 26-03-2015 05:19:17 9.6 C 70 %
1469 26-03-2015 05:31:17 9.5 C 70 %
1470 26-03-2015 05:43:17 9.5 C 70 %
1471 26-03-2015 05:55:17 9.5 C 70 %
1472 26-03-2015 06:07:17 9.5 C 70 %
1473 26-03-2015 06:19:17 9.5 C 69 %
1474 26-03-2015 06:31:17 9.4 C 69 %
1475 26-03-2015 06:43:17 9.4 C 69 %
Sensor: Nr:Datum:Temp:Feuchte:
G-T/H 1476 26-03-2015 06:55:17 9.4 C 69 %
1477 26-03-2015 07:07:17 9.4 C 69 %
1478 26-03-2015 07:19:17 9.4 C 69 %
1479 26-03-2015 07:31:17 9.4 C 69 %
1480 26-03-2015 07:43:17 9.4 C 69 %
1481 26-03-2015 07:55:17 9.4 C 69 %
1482 26-03-2015 08:07:17 9.4 C 69 %
1483 26-03-2015 08:19:17 9.4 C 69 %
1484 26-03-2015 08:31:17 9.4 C 69 %
1485 26-03-2015 08:43:17 9.4 C 69 %
1486 26-03-2015 08:55:17 9.4 C 69 %
1487 26-03-2015 09:07:17 9.4 C 69 %
1488 26-03-2015 09:19:17 9.4 C 69 %
1489 26-03-2015 09:31:17 9.4 C 69 %
1490 26-03-2015 09:43:17 9.4 C 69 %
1491 26-03-2015 09:55:17 9.4 C 69 %
1492 26-03-2015 10:07:17 9.4 C 69 %
1493 26-03-2015 10:19:17 9.4 C 69 %
1494 26-03-2015 10:31:17 9.4 C 69 %
1495 26-03-2015 10:43:17 9.4 C 69 %
1496 26-03-2015 10:55:17 9.4 C 69 %
1497 26-03-2015 11:07:17 9.3 C 69 %
1498 26-03-2015 11:19:17 9.3 C 68 %
1499 26-03-2015 11:31:17 9.3 C 67 %
1500 26-03-2015 11:43:17 9.3 C 66 %
Sensor: Nr:Datum:Temp:Feuchte:
G-T/H 1501 26-03-2015 11:55:16 9.3 C 66 %
1502 26-03-2015 12:07:17 9.3 C 66 %
1503 26-03-2015 12:19:17 9.4 C 67 %
1504 26-03-2015 12:31:17 9.4 C 67 %
1505 26-03-2015 12:43:17 9.4 C 67 %
1506 26-03-2015 12:55:17 9.4 C 67 %
1507 26-03-2015 13:07:17 9.4 C 67 %
1508 26-03-2015 13:19:17 9.5 C 68 %
1509 26-03-2015 13:31:17 9.5 C 68 %
1510 26-03-2015 13:43:17 9.5 C 67 %
1511 26-03-2015 13:55:17 9.5 C 66 %
1512 26-03-2015 14:07:17 9.5 C 66 %
1513 26-03-2015 14:19:17 9.5 C 65 %
1514 26-03-2015 14:31:17 9.5 C 65 %
1515 26-03-2015 14:43:17 9.6 C 65 %
1516 26-03-2015 14:55:17 9.6 C 65 %
1517 26-03-2015 15:07:17 9.6 C 64 %
1518 26-03-2015 15:19:17 9.6 C 64 %
1519 26-03-2015 15:31:17 9.6 C 64 %
1520 26-03-2015 15:43:17 9.6 C 64 %
1521 26-03-2015 15:55:17 9.7 C 63 %
1522 26-03-2015 16:07:17 9.6 C 63 %
1523 26-03-2015 16:19:17 9.6 C 63 %
1524 26-03-2015 16:31:17 9.6 C 62 %
1525 26-03-2015 16:43:17 9.6 C 60 %
Sensor: Nr:Datum:Temp:Feuchte:
G-T/H 1526 26-03-2015 16:55:17 9.6 C 59 %
1527 26-03-2015 17:07:17 9.5 C 59 %
1528 26-03-2015 17:19:17 9.5 C 59 %
1529 26-03-2015 17:31:17 9.6 C 60 %
1530 26-03-2015 17:43:17 9.6 C 61 %
1531 26-03-2015 17:55:17 9.6 C 61 %
1532 26-03-2015 18:07:17 9.6 C 62 %
1533 26-03-2015 18:19:17 9.6 C 62 %
1534 26-03-2015 18:31:17 9.6 C 62 %
1535 26-03-2015 18:43:17 9.6 C 63 %
1536 26-03-2015 18:55:17 9.6 C 63 %
1537 26-03-2015 19:07:17 9.6 C 64 %
1538 26-03-2015 19:19:17 9.6 C 64 %
1539 26-03-2015 19:31:17 9.6 C 64 %
1540 26-03-2015 19:43:17 9.7 C 64 %
1541 26-03-2015 19:55:17 9.7 C 64 %
1542 26-03-2015 20:07:17 9.7 C 65 %
1543 26-03-2015 20:19:17 9.7 C 65 %
1544 26-03-2015 20:31:17 9.7 C 65 %
1545 26-03-2015 20:43:17 9.7 C 65 %
1546 26-03-2015 20:55:17 9.7 C 65 %
1547 26-03-2015 21:07:17 9.7 C 65 %
1548 26-03-2015 21:19:17 9.7 C 65 %
1549 26-03-2015 21:31:17 9.6 C 66 %
1550 26-03-2015 21:43:17 9.7 C 66 %
Sensor: Nr:Datum:Temp:Feuchte:
G-T/H 1551 26-03-2015 21:55:17 9.6 C 66 %
1552 26-03-2015 22:07:18 9.6 C 66 %
1553 26-03-2015 22:19:17 9.6 C 66 %
1554 26-03-2015 22:31:17 9.6 C 66 %
1555 26-03-2015 22:43:18 9.6 C 66 %
1556 26-03-2015 22:55:17 9.6 C 66 %
1557 26-03-2015 23:07:17 9.6 C 66 %
1558 26-03-2015 23:19:17 9.6 C 66 %
1559 26-03-2015 23:31:17 9.6 C 66 %
1560 26-03-2015 23:43:17 9.6 C 66 %
1561 26-03-2015 23:55:17 9.6 C 66 %
1562 27-03-2015 00:07:17 9.6 C 67 %
1563 27-03-2015 00:19:17 9.6 C 67 %
1564 27-03-2015 00:31:17 9.6 C 67 %
1565 27-03-2015 00:43:17 9.6 C 67 %
1566 27-03-2015 00:55:17 9.6 C 67 %
1567 27-03-2015 01:07:17 9.6 C 67 %
1568 27-03-2015 01:19:17 9.6 C 67 %
1569 27-03-2015 01:31:17 9.6 C 67 %
1570 27-03-2015 01:43:17 9.5 C 67 %
1571 27-03-2015 01:55:17 9.6 C 67 %
1572 27-03-2015 02:07:17 9.6 C 67 %
1573 27-03-2015 02:19:17 9.5 C 67 %
1574 27-03-2015 02:31:17 9.5 C 67 %
1575 27-03-2015 02:43:17 9.5 C 67 %
Sensor: Nr:Datum:Temp:Feuchte:
G-T/H 1576 27-03-2015 02:55:17 9.5 C 67 %
1577 27-03-2015 03:07:17 9.5 C 67 %
1578 27-03-2015 03:19:17 9.5 C 67 %
1579 27-03-2015 03:31:17 9.5 C 67 %
1580 27-03-2015 03:43:17 9.5 C 67 %
1581 27-03-2015 03:55:17 9.4 C 67 %
1582 27-03-2015 04:07:17 9.4 C 68 %
1583 27-03-2015 04:19:17 9.4 C 68 %
1584 27-03-2015 04:31:17 9.4 C 68 %
1585 27-03-2015 04:43:17 9.4 C 68 %
1586 27-03-2015 04:55:17 9.4 C 68 %
1587 27-03-2015 05:07:17 9.3 C 68 %
1588 27-03-2015 05:19:17 9.3 C 67 %
1589 27-03-2015 05:31:17 9.3 C 67 %
1590 27-03-2015 05:43:17 9.3 C 67 %
1591 27-03-2015 05:55:17 9.3 C 67 %
1592 27-03-2015 06:07:17 9.3 C 67 %
1593 27-03-2015 06:19:17 9.3 C 67 %
1594 27-03-2015 06:31:17 9.3 C 67 %
1595 27-03-2015 06:43:17 9.2 C 68 %
1596 27-03-2015 06:55:17 9.2 C 68 %
1597 27-03-2015 07:07:17 9.2 C 68 %
1598 27-03-2015 07:19:16 9.2 C 68 %
1599 27-03-2015 07:31:17 9.2 C 68 %
1600 27-03-2015 07:43:17 9.2 C 68 %
Sensor: Nr:Datum:Temp:Feuchte:
G-T/H 1601 27-03-2015 07:55:17 9.2 C 68 %
1602 27-03-2015 08:07:17 9.2 C 68 %
1603 27-03-2015 08:19:17 9.1 C 68 %
1604 27-03-2015 08:31:17 9.1 C 68 %
1605 27-03-2015 08:43:17 9.1 C 68 %
1606 27-03-2015 08:55:17 9.1 C 68 %
1607 27-03-2015 09:07:17 9.1 C 68 %
1608 27-03-2015 09:19:17 9.1 C 68 %
1609 27-03-2015 09:31:17 9.1 C 68 %
1610 27-03-2015 09:43:17 9.1 C 68 %
1611 27-03-2015 09:55:17 9.1 C 68 %
1612 27-03-2015 10:07:17 9.1 C 68 %
1613 27-03-2015 10:19:17 9.1 C 68 %
1614 27-03-2015 10:31:17 9.1 C 68 %
1615 27-03-2015 10:43:17 9.1 C 68 %
1616 27-03-2015 10:55:17 9.2 C 68 %
1617 27-03-2015 11:07:17 9.1 C 68 %
1618 27-03-2015 11:19:17 9.2 C 68 %
1619 27-03-2015 11:31:17 9.2 C 68 %
1620 27-03-2015 11:43:17 9.2 C 68 %
1621 27-03-2015 11:55:17 9.1 C 68 %
1622 27-03-2015 12:07:18 9.2 C 68 %
1623 27-03-2015 12:19:17 9.2 C 68 %
1624 27-03-2015 12:31:17 9.2 C 68 %
1625 27-03-2015 12:43:17 9.2 C 68 %
Sensor: Nr:Datum:Temp:Feuchte:
G-T/H 1626 27-03-2015 12:55:17 9.3 C 68 %
1627 27-03-2015 13:07:17 9.3 C 68 %
1628 27-03-2015 13:19:17 9.3 C 68 %
1629 27-03-2015 13:31:17 9.3 C 68 %
1630 27-03-2015 13:43:17 9.3 C 68 %
1631 27-03-2015 13:55:17 9.3 C 68 %
1632 27-03-2015 14:07:17 9.3 C 68 %
1633 27-03-2015 14:19:17 9.3 C 68 %
1634 27-03-2015 14:31:17 9.4 C 68 %
1635 27-03-2015 14:43:17 9.4 C 68 %
1636 27-03-2015 14:55:17 9.4 C 68 %
1637 27-03-2015 15:07:17 9.4 C 68 %
1638 27-03-2015 15:19:18 9.4 C 67 %
1639 27-03-2015 15:31:17 9.4 C 67 %
1640 27-03-2015 15:43:17 9.4 C 66 %
1641 27-03-2015 15:55:17 9.4 C 66 %
1642 27-03-2015 16:07:17 9.4 C 65 %
1643 27-03-2015 16:19:17 9.5 C 65 %
1644 27-03-2015 16:31:17 9.5 C 65 %
1645 27-03-2015 16:43:17 9.5 C 65 %
1646 27-03-2015 16:55:17 9.5 C 64 %
1647 27-03-2015 17:07:17 9.5 C 64 %
1648 27-03-2015 17:19:17 9.5 C 63 %
1649 27-03-2015 17:31:17 9.5 C 63 %
1650 27-03-2015 17:43:17 9.5 C 63 %
Sensor: Nr:Datum:Temp:Feuchte:
G-T/H 1651 27-03-2015 17:55:17 9.6 C 64 %
1652 27-03-2015 18:07:17 9.5 C 64 %
1653 27-03-2015 18:19:17 9.6 C 64 %
1654 27-03-2015 18:31:17 9.5 C 63 %
1655 27-03-2015 18:43:17 9.5 C 62 %
1656 27-03-2015 18:55:17 9.6 C 62 %
1657 27-03-2015 19:07:17 9.5 C 61 %
1658 27-03-2015 19:19:17 9.5 C 61 %
1659 27-03-2015 19:31:17 9.5 C 60 %
1660 27-03-2015 19:43:17 9.6 C 61 %
1661 27-03-2015 19:55:17 9.6 C 61 %
1662 27-03-2015 20:07:17 9.6 C 62 %
1663 27-03-2015 20:19:17 9.6 C 62 %
1664 27-03-2015 20:31:17 9.6 C 63 %
1665 27-03-2015 20:43:17 9.6 C 63 %
1666 27-03-2015 20:55:17 9.6 C 64 %
1667 27-03-2015 21:07:17 9.6 C 64 %
1668 27-03-2015 21:19:17 9.6 C 64 %
1669 27-03-2015 21:31:17 9.6 C 64 %
1670 27-03-2015 21:43:17 9.6 C 65 %
1671 27-03-2015 21:55:17 9.6 C 65 %
1672 27-03-2015 22:07:17 9.7 C 65 %
1673 27-03-2015 22:19:17 9.7 C 65 %
1674 27-03-2015 22:31:17 9.7 C 65 %
1675 27-03-2015 22:43:18 9.7 C 65 %
Sensor: Nr:Datum:Temp:Feuchte:
G-T/H 1676 27-03-2015 22:55:17 9.7 C 65 %
1677 27-03-2015 23:07:17 9.7 C 66 %
1678 27-03-2015 23:19:17 9.7 C 66 %
1679 27-03-2015 23:31:17 9.7 C 66 %
1680 27-03-2015 23:43:17 9.7 C 66 %
1681 27-03-2015 23:55:16 9.7 C 66 %
1682 28-03-2015 00:07:17 9.7 C 66 %
1683 28-03-2015 00:19:17 9.7 C 66 %
1684 28-03-2015 00:31:17 9.7 C 66 %
1685 28-03-2015 00:43:17 9.6 C 66 %
1686 28-03-2015 00:55:17 9.6 C 66 %
1687 28-03-2015 01:07:17 9.6 C 66 %
1688 28-03-2015 01:19:17 9.6 C 66 %
1689 28-03-2015 01:31:17 9.6 C 66 %
1690 28-03-2015 01:43:17 9.6 C 66 %
1691 28-03-2015 01:55:17 9.6 C 66 %
1692 28-03-2015 02:07:17 9.6 C 66 %
1693 28-03-2015 02:19:17 9.6 C 66 %
1694 28-03-2015 02:31:17 9.6 C 66 %
1695 28-03-2015 02:43:17 9.6 C 66 %
1696 28-03-2015 02:55:17 9.6 C 66 %
1697 28-03-2015 03:07:17 9.6 C 66 %
1698 28-03-2015 03:19:17 9.6 C 66 %
1699 28-03-2015 03:31:17 9.6 C 66 %
1700 28-03-2015 03:43:17 9.6 C 66 %
Sensor: Nr:Datum:Temp:Feuchte:
G-T/H 1701 28-03-2015 03:55:17 9.5 C 66 %
1702 28-03-2015 04:07:17 9.5 C 66 %
1703 28-03-2015 04:19:17 9.5 C 66 %
1704 28-03-2015 04:31:18 9.5 C 66 %
1705 28-03-2015 04:43:18 9.5 C 66 %
1706 28-03-2015 04:55:17 9.5 C 66 %
1707 28-03-2015 05:07:17 9.5 C 66 %
1708 28-03-2015 05:19:17 9.5 C 66 %
1709 28-03-2015 05:31:17 9.5 C 66 %
1710 28-03-2015 05:43:17 9.5 C 66 %
1711 28-03-2015 05:55:17 9.5 C 67 %
1712 28-03-2015 06:07:17 9.5 C 67 %
1713 28-03-2015 06:19:17 9.4 C 66 %
1714 28-03-2015 06:31:17 9.3 C 65 %
1715 28-03-2015 06:43:17 9.2 C 65 %
1716 28-03-2015 06:55:17 9.2 C 64 %
1717 28-03-2015 07:07:17 9.2 C 64 %
1718 28-03-2015 07:19:17 9.2 C 64 %
1719 28-03-2015 07:31:17 9.2 C 65 %
1720 28-03-2015 07:43:17 9.2 C 65 %
1721 28-03-2015 07:55:17 9.3 C 65 %
1722 28-03-2015 08:07:17 9.2 C 65 %
1723 28-03-2015 08:19:17 9.2 C 65 %
1724 28-03-2015 08:31:17 9.3 C 66 %
1725 28-03-2015 08:43:17 9.3 C 66 %
Sensor: Nr:Datum:Temp:Feuchte:
G-T/H 1726 28-03-2015 08:55:17 9.3 C 66 %
1727 28-03-2015 09:07:17 9.2 C 66 %
1728 28-03-2015 09:19:17 9.3 C 66 %
1729 28-03-2015 09:31:17 9.2 C 66 %
1730 28-03-2015 09:43:17 9.3 C 66 %
1731 28-03-2015 09:55:17 9.2 C 66 %
1732 28-03-2015 10:07:17 9.2 C 66 %
1733 28-03-2015 10:19:17 9.3 C 66 %
1734 28-03-2015 10:31:17 9.3 C 67 %
1735 28-03-2015 10:43:17 9.3 C 67 %
1736 28-03-2015 10:55:17 9.3 C 67 %
1737 28-03-2015 11:07:17 9.3 C 67 %
1738 28-03-2015 11:19:17 9.3 C 67 %
1739 28-03-2015 11:31:17 9.4 C 67 %
1740 28-03-2015 11:43:17 9.4 C 67 %
1741 28-03-2015 11:55:17 9.5 C 66 %
1742 28-03-2015 12:07:17 9.6 C 66 %
1743 28-03-2015 12:19:18 9.6 C 66 %
1744 28-03-2015 12:31:17 9.7 C 66 %
1745 28-03-2015 12:43:17 9.7 C 66 %
1746 28-03-2015 12:55:17 9.7 C 67 %
1747 28-03-2015 13:08:17 9.7 C 67 %
1748 28-03-2015 13:19:17 9.7 C 67 %
1749 28-03-2015 13:31:17 9.7 C 67 %
1750 28-03-2015 13:43:17 9.7 C 67 %
Sensor: Nr:Datum:Temp:Feuchte:
G-T/H 1751 28-03-2015 13:55:17 9.7 C 67 %
1752 28-03-2015 14:07:17 9.7 C 67 %
1753 28-03-2015 14:19:17 9.7 C 67 %
1754 28-03-2015 14:31:17 9.7 C 67 %
1755 28-03-2015 14:43:17 9.8 C 67 %
1756 28-03-2015 14:56:17 9.8 C 67 %
1757 28-03-2015 15:07:17 9.8 C 67 %
1758 28-03-2015 15:19:17 9.8 C 68 %
1759 28-03-2015 15:31:17 9.8 C 68 %
1760 28-03-2015 15:43:17 9.8 C 68 %
1761 28-03-2015 15:56:17 9.8 C 68 %
1762 28-03-2015 16:07:17 9.9 C 68 %
1763 28-03-2015 16:20:17 9.9 C 68 %
1764 28-03-2015 16:31:17 9.9 C 68 %
1765 28-03-2015 16:43:17 9.9 C 68 %
1766 28-03-2015 16:55:17 9.9 C 68 %
1767 28-03-2015 17:07:17 9.9 C 69 %
1768 28-03-2015 17:20:17 10 C 68 %
1769 28-03-2015 17:31:17 10 C 68 %
1770 28-03-2015 17:43:17 10 C 68 %
1771 28-03-2015 17:55:17 10 C 68 %
1772 28-03-2015 18:07:17 9.9 C 69 %
1773 28-03-2015 18:19:17 10 C 68 %
1774 28-03-2015 18:31:17 10 C 68 %
1775 28-03-2015 18:43:17 10 C 68 %
Sensor: Nr:Datum:Temp:Feuchte:
G-T/H 1776 28-03-2015 18:56:17 10 C 68 %
1777 28-03-2015 19:07:17 10 C 68 %
1778 28-03-2015 19:19:17 10 C 68 %
1779 28-03-2015 19:31:17 10 C 68 %
1780 28-03-2015 19:43:17 10 C 68 %
1781 28-03-2015 19:56:17 10 C 68 %
1782 28-03-2015 20:07:17 10 C 68 %
1783 28-03-2015 20:20:17 10 C 68 %
1784 28-03-2015 20:32:17 10 C 68 %
1785 28-03-2015 20:44:17 10 C 68 %
1786 28-03-2015 20:55:17 10 C 68 %
1787 28-03-2015 21:07:18 10 C 68 %
1788 28-03-2015 21:20:17 10 C 69 %
1789 28-03-2015 21:32:17 10.1 C 69 %
1790 28-03-2015 21:44:17 10.1 C 69 %
1791 28-03-2015 21:55:17 10.1 C 69 %
1792 28-03-2015 22:07:17 10.1 C 69 %
1793 28-03-2015 22:20:17 10.1 C 69 %
1794 28-03-2015 22:31:17 10.1 C 69 %
1795 28-03-2015 22:43:17 10.1 C 69 %
1796 28-03-2015 22:56:17 10.1 C 69 %
1797 28-03-2015 23:08:17 10.1 C 69 %
1798 28-03-2015 23:20:17 10.1 C 69 %
1799 28-03-2015 23:32:17 10.1 C 69 %
1800 28-03-2015 23:44:17 10.1 C 69 %
Sensor: Nr:Datum:Temp:Feuchte:
G-T/H 1801 28-03-2015 23:56:17 10.1 C 69 %
1802 29-03-2015 00:08:17 10.1 C 69 %
1803 29-03-2015 00:19:17 10.2 C 69 %
1804 29-03-2015 00:32:17 10.1 C 69 %
1805 29-03-2015 00:44:17 10.2 C 69 %
1806 29-03-2015 00:56:17 10.2 C 69 %
1807 29-03-2015 01:08:17 10.2 C 69 %
1808 29-03-2015 01:20:17 10.2 C 69 %
1809 29-03-2015 01:32:17 10.2 C 69 %
1810 29-03-2015 01:44:17 10.2 C 69 %
1811 29-03-2015 01:56:17 10.2 C 69 %
1812 29-03-2015 02:08:17 10.2 C 69 %
1813 29-03-2015 02:20:17 10.2 C 69 %
1814 29-03-2015 02:32:17 10.2 C 69 %
1815 29-03-2015 02:44:17 10.2 C 69 %
1816 29-03-2015 02:56:17 10.2 C 69 %
1817 29-03-2015 04:08:17 10.2 C 69 %
1818 29-03-2015 04:20:17 10.2 C 69 %
1819 29-03-2015 04:32:17 10.2 C 69 %
1820 29-03-2015 04:44:17 10.2 C 69 %
1821 29-03-2015 04:56:17 10.3 C 69 %
1822 29-03-2015 05:08:17 10.3 C 69 %
1823 29-03-2015 05:20:17 10.2 C 69 %
1824 29-03-2015 05:32:17 10.3 C 69 %
1825 29-03-2015 05:44:17 10.3 C 70 %
Sensor: Nr:Datum:Temp:Feuchte:
G-T/H 1826 29-03-2015 05:56:17 10.2 C 70 %
1827 29-03-2015 06:08:18 10.2 C 70 %
1828 29-03-2015 06:20:17 10.3 C 70 %
1829 29-03-2015 06:32:17 10.3 C 70 %
1830 29-03-2015 06:44:17 10.3 C 70 %
1831 29-03-2015 06:56:16 10.3 C 70 %
1832 29-03-2015 07:08:17 10.3 C 70 %
1833 29-03-2015 07:20:17 10.3 C 70 %
1834 29-03-2015 07:32:17 10.3 C 70 %
1835 29-03-2015 07:44:17 10.3 C 70 %
1836 29-03-2015 07:56:17 10.3 C 70 %
1837 29-03-2015 08:08:17 10.3 C 70 %
1838 29-03-2015 08:20:17 10.3 C 70 %
1839 29-03-2015 08:32:17 10.3 C 70 %
1840 29-03-2015 08:44:17 10.3 C 70 %
1841 29-03-2015 08:56:17 10.3 C 70 %
1842 29-03-2015 09:08:17 10.3 C 70 %
1843 29-03-2015 09:20:17 10.3 C 70 %
1844 29-03-2015 09:32:17 10.3 C 70 %
1845 29-03-2015 09:44:17 10.3 C 70 %
1846 29-03-2015 09:56:16 10.4 C 70 %
1847 29-03-2015 10:08:17 10.4 C 70 %
1848 29-03-2015 10:20:17 10.4 C 70 %
1849 29-03-2015 10:32:17 10.3 C 70 %
1850 29-03-2015 10:44:17 10.4 C 70 %
Sensor: Nr:Datum:Temp:Feuchte:
G-T/H 1851 29-03-2015 10:56:17 10.5 C 70 %
1852 29-03-2015 11:08:17 10.4 C 70 %
1853 29-03-2015 11:20:16 10.4 C 70 %
1854 29-03-2015 11:32:17 10.4 C 70 %
1855 29-03-2015 11:44:17 10.4 C 70 %
1856 29-03-2015 11:56:17 10.4 C 70 %
1857 29-03-2015 12:08:17 10.5 C 70 %
1858 29-03-2015 12:20:17 10.4 C 70 %
1859 29-03-2015 12:32:16 10.4 C 70 %
1860 29-03-2015 12:44:17 10.4 C 70 %
1861 29-03-2015 12:56:17 10.4 C 70 %
1862 29-03-2015 13:08:17 10.4 C 70 %
1863 29-03-2015 13:20:17 10.4 C 70 %
1864 29-03-2015 13:32:17 10.4 C 70 %
1865 29-03-2015 13:44:17 10.5 C 70 %
1866 29-03-2015 13:56:16 10.5 C 70 %
1867 29-03-2015 14:08:17 10.5 C 71 %
1868 29-03-2015 14:20:17 10.5 C 71 %
1869 29-03-2015 14:32:16 10.5 C 71 %
1870 29-03-2015 14:44:16 10.5 C 71 %
1871 29-03-2015 14:56:17 10.5 C 71 %
1872 29-03-2015 15:08:17 10.5 C 71 %
1873 29-03-2015 15:20:17 10.5 C 71 %
1874 29-03-2015 15:32:17 10.5 C 71 %
1875 29-03-2015 15:44:17 10.5 C 71 %
Sensor: Nr:Datum:Temp:Feuchte:
G-T/H 1876 29-03-2015 15:56:17 10.5 C 71 %
1877 29-03-2015 16:08:17 10.5 C 71 %
1878 29-03-2015 16:20:16 10.5 C 71 %
1879 29-03-2015 16:32:17 10.6 C 71 %
1880 29-03-2015 16:44:17 10.6 C 71 %
1881 29-03-2015 16:56:17 10.6 C 71 %
1882 29-03-2015 17:08:17 10.6 C 71 %
1883 29-03-2015 17:20:16 10.6 C 71 %
1884 29-03-2015 17:32:17 10.6 C 71 %
1885 29-03-2015 17:44:17 10.6 C 71 %
1886 29-03-2015 17:56:17 10.7 C 71 %
1887 29-03-2015 18:08:17 10.7 C 71 %
1888 29-03-2015 18:20:17 10.7 C 71 %
1889 29-03-2015 18:32:17 10.7 C 71 %
1890 29-03-2015 18:44:18 10.7 C 71 %
1891 29-03-2015 18:56:17 10.7 C 71 %
1892 29-03-2015 19:08:17 10.7 C 71 %
1893 29-03-2015 19:20:17 10.7 C 71 %
1894 29-03-2015 19:32:17 10.7 C 71 %
1895 29-03-2015 19:44:17 10.7 C 72 %
1896 29-03-2015 19:56:17 10.7 C 72 %
1897 29-03-2015 20:08:17 10.8 C 72 %
1898 29-03-2015 20:20:17 10.7 C 72 %
1899 29-03-2015 20:32:17 10.7 C 72 %
1900 29-03-2015 20:44:17 10.7 C 72 %
Sensor: Nr:Datum:Temp:Feuchte:
G-T/H 1901 29-03-2015 20:56:17 10.7 C 72 %
1902 29-03-2015 21:08:17 10.7 C 72 %
1903 29-03-2015 21:20:17 10.7 C 72 %
1904 29-03-2015 21:32:17 10.8 C 72 %
1905 29-03-2015 21:44:17 10.7 C 72 %
1906 29-03-2015 21:56:17 10.8 C 72 %
1907 29-03-2015 22:08:17 10.8 C 72 %
1908 29-03-2015 22:20:17 10.8 C 72 %
1909 29-03-2015 22:32:17 10.8 C 72 %
1910 29-03-2015 22:44:17 10.8 C 72 %
1911 29-03-2015 22:56:17 10.8 C 72 %
1912 29-03-2015 23:08:17 10.7 C 72 %
1913 29-03-2015 23:20:17 10.7 C 72 %
1914 29-03-2015 23:32:17 10.7 C 71 %
1915 29-03-2015 23:44:17 10.8 C 71 %
1916 29-03-2015 23:56:17 10.7 C 71 %
1917 30-03-2015 00:08:17 10.7 C 71 %
1918 30-03-2015 00:20:17 10.7 C 71 %
1919 30-03-2015 00:32:17 10.7 C 71 %
1920 30-03-2015 00:44:17 10.7 C 71 %
1921 30-03-2015 00:56:17 10.7 C 71 %
1922 30-03-2015 01:08:17 10.7 C 71 %
1923 30-03-2015 01:20:17 10.7 C 71 %
1924 30-03-2015 01:32:17 10.7 C 71 %
1925 30-03-2015 01:44:17 10.7 C 71 %
Sensor: Nr:Datum:Temp:Feuchte:
G-T/H 1926 30-03-2015 01:56:17 10.7 C 71 %
1927 30-03-2015 02:08:17 10.7 C 71 %
1928 30-03-2015 02:20:17 10.7 C 71 %
1929 30-03-2015 02:32:17 10.6 C 71 %
1930 30-03-2015 02:44:18 10.6 C 71 %
1931 30-03-2015 02:56:17 10.7 C 71 %
1932 30-03-2015 03:08:17 10.6 C 71 %
1933 30-03-2015 03:20:17 10.6 C 71 %
1934 30-03-2015 03:32:17 10.7 C 71 %
1935 30-03-2015 03:44:17 10.6 C 71 %
1936 30-03-2015 03:56:17 10.7 C 71 %
1937 30-03-2015 04:08:17 10.6 C 71 %
1938 30-03-2015 04:20:17 10.6 C 71 %
1939 30-03-2015 04:32:17 10.6 C 71 %
1940 30-03-2015 04:44:17 10.6 C 71 %
1941 30-03-2015 04:56:17 10.6 C 71 %
1942 30-03-2015 05:08:17 10.6 C 71 %
1943 30-03-2015 05:20:17 10.5 C 71 %
1944 30-03-2015 05:32:17 10.5 C 71 %
1945 30-03-2015 05:44:17 10.5 C 71 %
1946 30-03-2015 05:56:17 10.5 C 71 %
1947 30-03-2015 06:08:17 10.5 C 71 %
1948 30-03-2015 06:20:17 10.5 C 70 %
1949 30-03-2015 06:32:17 10.5 C 70 %
1950 30-03-2015 06:44:17 10.5 C 70 %
Sensor: Nr:Datum:Temp:Feuchte:
G-T/H 1951 30-03-2015 06:56:17 10.5 C 70 %
1952 30-03-2015 07:08:17 10.5 C 70 %
1953 30-03-2015 07:20:17 10.4 C 70 %
1954 30-03-2015 07:32:17 10.3 C 69 %
1955 30-03-2015 07:44:17 10.2 C 69 %
1956 30-03-2015 07:56:17 10.2 C 68 %
1957 30-03-2015 08:08:17 10.1 C 67 %
1958 30-03-2015 08:20:17 10.1 C 66 %
1959 30-03-2015 08:32:17 10.2 C 67 %
1960 30-03-2015 08:44:17 10.2 C 67 %
1961 30-03-2015 08:56:17 10.2 C 67 %
1962 30-03-2015 09:08:17 10.2 C 67 %
1963 30-03-2015 09:20:17 10.3 C 68 %
1964 30-03-2015 09:32:17 10.3 C 68 %
1965 30-03-2015 09:44:17 10.2 C 68 %
1966 30-03-2015 09:56:17 10.2 C 68 %
1967 30-03-2015 10:08:17 10.1 C 67 %
1968 30-03-2015 10:20:17 10.1 C 66 %
1969 30-03-2015 10:32:17 10.1 C 66 %
1970 30-03-2015 10:44:17 10.2 C 66 %
1971 30-03-2015 10:56:17 10.2 C 67 %
1972 30-03-2015 11:08:17 10.2 C 67 %
1973 30-03-2015 11:20:17 10.2 C 67 %
1974 30-03-2015 11:32:17 10.1 C 65 %
1975 30-03-2015 11:44:17 10.1 C 64 %
Sensor: Nr:Datum:Temp:Feuchte:
G-T/H 1976 30-03-2015 11:56:17 10.1 C 63 %
1977 30-03-2015 12:08:17 10 C 63 %
1978 30-03-2015 12:20:17 10 C 62 %
1979 30-03-2015 12:32:17 10 C 62 %
1980 30-03-2015 12:44:17 10.1 C 62 %
1981 30-03-2015 12:56:17 10.1 C 63 %
1982 30-03-2015 13:08:18 10.1 C 63 %
1983 30-03-2015 13:20:17 10.1 C 64 %
1984 30-03-2015 13:32:17 10.2 C 64 %
1985 30-03-2015 13:44:17 10.2 C 64 %
1986 30-03-2015 13:56:17 10.2 C 62 %
1987 30-03-2015 14:08:17 10.1 C 61 %
1988 30-03-2015 14:20:17 10.1 C 62 %
1989 30-03-2015 14:32:17 10.2 C 62 %
1990 30-03-2015 14:44:17 10.2 C 63 %
1991 30-03-2015 14:56:17 10.2 C 63 %
1992 30-03-2015 15:08:17 10.2 C 64 %
1993 30-03-2015 15:20:17 10.3 C 64 %
1994 30-03-2015 15:32:17 10.2 C 64 %
1995 30-03-2015 15:44:17 10.2 C 65 %
1996 30-03-2015 15:56:17 10.3 C 65 %
1997 30-03-2015 16:08:17 10.3 C 64 %
1998 30-03-2015 16:20:17 10.3 C 63 %
1999 30-03-2015 16:32:17 10.2 C 62 %
2000 30-03-2015 16:44:17 10.3 C 63 %
Sensor: Nr:Datum:Temp:Feuchte:
G-T/H 2001 30-03-2015 16:56:17 10.3 C 62 %
2002 30-03-2015 17:08:17 10.2 C 62 %
2003 30-03-2015 17:20:17 10.3 C 62 %
2004 30-03-2015 17:32:17 10.3 C 62 %
2005 30-03-2015 17:44:17 10.3 C 60 %
2006 30-03-2015 17:56:17 10.3 C 60 %
2007 30-03-2015 18:08:17 10.3 C 60 %
2008 30-03-2015 18:20:17 10.2 C 58 %
2009 30-03-2015 18:32:17 10.2 C 57 %
2010 30-03-2015 18:44:17 10.3 C 58 %
2011 30-03-2015 18:56:17 10.3 C 59 %
2012 30-03-2015 19:08:17 10.3 C 60 %
2013 30-03-2015 19:20:17 10.3 C 60 %
2014 30-03-2015 19:32:17 10.3 C 61 %
2015 30-03-2015 19:44:17 10.3 C 61 %
2016 30-03-2015 19:56:17 10.3 C 60 %
2017 30-03-2015 20:08:17 10.2 C 59 %
2018 30-03-2015 20:20:17 10.1 C 57 %
2019 30-03-2015 20:32:17 10.2 C 58 %
2020 30-03-2015 20:44:17 10.2 C 59 %
2021 30-03-2015 20:56:17 10.2 C 59 %
2022 30-03-2015 21:08:17 10.2 C 60 %
2023 30-03-2015 21:20:17 10.2 C 60 %
2024 30-03-2015 21:32:17 10.2 C 60 %
2025 30-03-2015 21:44:17 10.2 C 61 %
Sensor: Nr:Datum:Temp:Feuchte:
G-T/H 2026 30-03-2015 21:56:17 10.1 C 61 %
2027 30-03-2015 22:08:17 10 C 60 %
2028 30-03-2015 22:20:17 10 C 60 %
2029 30-03-2015 22:32:17 9.9 C 60 %
2030 30-03-2015 22:44:17 10 C 59 %
2031 30-03-2015 22:56:17 10 C 60 %
2032 30-03-2015 23:08:17 10 C 60 %
2033 30-03-2015 23:20:17 10.1 C 60 %
2034 30-03-2015 23:32:17 10.1 C 61 %
2035 30-03-2015 23:44:17 10.1 C 61 %
2036 30-03-2015 23:56:17 10.1 C 61 %
2037 31-03-2015 00:08:17 10.1 C 61 %
2038 31-03-2015 00:20:17 10.1 C 62 %
2039 31-03-2015 00:32:17 10.1 C 62 %
2040 31-03-2015 00:44:17 10.1 C 62 %
2041 31-03-2015 00:56:17 10.1 C 62 %
2042 31-03-2015 01:08:17 10.1 C 63 %
2043 31-03-2015 01:20:17 10.1 C 63 %
2044 31-03-2015 01:32:17 10.1 C 63 %
2045 31-03-2015 01:44:17 10.1 C 63 %
2046 31-03-2015 01:56:17 10.1 C 63 %
2047 31-03-2015 02:08:17 10.1 C 64 %
2048 31-03-2015 02:20:17 10.1 C 64 %
2049 31-03-2015 02:32:17 10.1 C 64 %
2050 31-03-2015 02:44:17 10.1 C 64 %
Sensor: Nr:Datum:Temp:Feuchte:
G-T/H 2051 31-03-2015 02:56:17 10.1 C 64 %
2052 31-03-2015 03:08:17 10.1 C 64 %
2053 31-03-2015 03:20:17 10.1 C 64 %
2054 31-03-2015 03:32:17 10.1 C 65 %
2055 31-03-2015 03:44:17 10 C 65 %
2056 31-03-2015 03:56:17 10 C 65 %
2057 31-03-2015 04:08:17 10.1 C 65 %
2058 31-03-2015 04:20:17 10 C 65 %
2059 31-03-2015 04:32:17 10.1 C 65 %
2060 31-03-2015 04:44:17 10.1 C 66 %
2061 31-03-2015 04:56:17 10.1 C 66 %
2062 31-03-2015 05:08:17 10.1 C 66 %
2063 31-03-2015 05:20:17 10.1 C 66 %
2064 31-03-2015 05:32:17 10.1 C 66 %
2065 31-03-2015 05:44:17 10.1 C 66 %
2066 31-03-2015 05:56:17 10.1 C 66 %
2067 31-03-2015 06:08:17 10.1 C 66 %
2068 31-03-2015 06:20:17 10.1 C 66 %
2069 31-03-2015 06:32:17 10.1 C 66 %
2070 31-03-2015 06:44:17 10.1 C 67 %
2071 31-03-2015 06:56:17 10.1 C 67 %
2072 31-03-2015 07:08:17 10.2 C 67 %
2073 31-03-2015 07:20:17 10.2 C 67 %
2074 31-03-2015 07:32:17 10.2 C 67 %
2075 31-03-2015 07:44:17 10.2 C 67 %
Sensor: Nr:Datum:Temp:Feuchte:
G-T/H 2076 31-03-2015 07:56:17 10.2 C 67 %
2077 31-03-2015 08:08:17 10.1 C 67 %
2078 31-03-2015 08:20:17 10.2 C 67 %
2079 31-03-2015 08:32:17 10.2 C 67 %
2080 31-03-2015 08:44:17 10.2 C 67 %
2081 31-03-2015 08:56:17 10.2 C 67 %
2082 31-03-2015 09:08:17 10.2 C 67 %
2083 31-03-2015 09:20:17 10.2 C 67 %
2084 31-03-2015 09:32:17 10.2 C 67 %
2085 31-03-2015 09:44:17 10.2 C 68 %
2086 31-03-2015 09:56:17 10.2 C 68 %
2087 31-03-2015 10:08:17 10.2 C 68 %
2088 31-03-2015 10:20:17 10.3 C 68 %
2089 31-03-2015 10:32:17 10.3 C 68 %
2090 31-03-2015 10:44:17 10.3 C 68 %
2091 31-03-2015 10:56:17 10.4 C 68 %
2092 31-03-2015 11:08:17 10.4 C 68 %
2093 31-03-2015 11:20:17 10.4 C 68 %
2094 31-03-2015 11:32:17 10.4 C 68 %
2095 31-03-2015 11:44:17 10.4 C 68 %
2096 31-03-2015 11:56:17 10.4 C 68 %
2097 31-03-2015 12:08:17 10.4 C 68 %
2098 31-03-2015 12:20:17 10.4 C 68 %
2099 31-03-2015 12:32:17 10.4 C 68 %
2100 31-03-2015 12:44:17 10.4 C 68 %
Sensor: Nr:Datum:Temp:Feuchte:
G-T/H 2101 31-03-2015 12:56:17 10.4 C 68 %
2102 31-03-2015 13:08:17 10.4 C 68 %
2103 31-03-2015 13:20:17 10.4 C 68 %
2104 31-03-2015 13:32:17 10.4 C 68 %
2105 31-03-2015 13:44:17 10.4 C 68 %
2106 31-03-2015 13:56:17 10.4 C 68 %
2107 31-03-2015 14:08:17 10.4 C 68 %
2108 31-03-2015 14:20:17 10.5 C 68 %
2109 31-03-2015 14:32:17 10.5 C 68 %
2110 31-03-2015 14:44:17 10.5 C 68 %
2111 31-03-2015 14:56:17 10.5 C 68 %
2112 31-03-2015 15:08:17 10.5 C 68 %
2113 31-03-2015 15:20:17 10.4 C 68 %
2114 31-03-2015 15:32:17 10.5 C 68 %
2115 31-03-2015 15:44:17 10.5 C 68 %
2116 31-03-2015 15:56:17 10.5 C 68 %
2117 31-03-2015 16:08:17 10.5 C 68 %
2118 31-03-2015 16:20:17 10.5 C 68 %
2119 31-03-2015 16:32:17 10.5 C 68 %
2120 31-03-2015 16:44:17 10.5 C 68 %
2121 31-03-2015 16:56:17 10.6 C 69 %
2122 31-03-2015 17:08:17 10.5 C 68 %
2123 31-03-2015 17:20:17 10.5 C 68 %
2124 31-03-2015 17:32:17 10.6 C 68 %
2125 31-03-2015 17:44:17 10.5 C 67 %
Sensor: Nr:Datum:Temp:Feuchte:
G-T/H 2126 31-03-2015 17:56:17 10.6 C 66 %
2127 31-03-2015 18:08:17 10.5 C 66 %
2128 31-03-2015 18:20:17 10.5 C 65 %
2129 31-03-2015 18:32:18 10.5 C 64 %
2130 31-03-2015 18:44:18 10.5 C 63 %
2131 31-03-2015 18:56:17 10.4 C 61 %
2132 31-03-2015 19:08:17 10.4 C 60 %
2133 31-03-2015 19:20:17 10.4 C 59 %
2134 31-03-2015 19:32:17 10.4 C 58 %
2135 31-03-2015 19:44:17 10.4 C 58 %
2136 31-03-2015 19:56:17 10.4 C 59 %
2137 31-03-2015 20:08:17 10.4 C 60 %
2138 31-03-2015 20:20:17 10.4 C 60 %
2139 31-03-2015 20:32:17 10.4 C 60 %
2140 31-03-2015 20:44:17 10.2 C 58 %
2141 31-03-2015 20:56:17 10.3 C 58 %
2142 31-03-2015 21:08:17 10.3 C 58 %
2143 31-03-2015 21:20:17 10.4 C 59 %
2144 31-03-2015 21:32:17 10.3 C 60 %
2145 31-03-2015 21:44:17 10.3 C 60 %
2146 31-03-2015 21:56:17 10.3 C 61 %
2147 31-03-2015 22:08:17 10.3 C 61 %
2148 31-03-2015 22:20:17 10.3 C 61 %
2149 31-03-2015 22:32:17 10.3 C 62 %
2150 31-03-2015 22:44:17 10.3 C 62 %
Sensor: Nr:Datum:Temp:Feuchte:
G-T/H 2151 31-03-2015 22:56:17 10.3 C 62 %
2152 31-03-2015 23:08:17 10.3 C 62 %
2153 31-03-2015 23:20:17 10.3 C 63 %
2154 31-03-2015 23:32:17 10.3 C 63 %
2155 31-03-2015 23:44:17 10.3 C 63 %
2156 31-03-2015 23:56:17 10.2 C 63 %
2157 01-04-2015 00:08:17 10.2 C 63 %
2158 01-04-2015 00:20:17 10.2 C 63 %
2159 01-04-2015 00:32:17 10.1 C 63 %
2160 01-04-2015 00:44:17 10.2 C 63 %
2161 01-04-2015 00:56:17 10.2 C 63 %
2162 01-04-2015 01:08:17 10.2 C 63 %
2163 01-04-2015 01:20:17 10.1 C 63 %
2164 01-04-2015 01:32:17 10.1 C 64 %
2165 01-04-2015 01:44:17 10.1 C 64 %
2166 01-04-2015 01:56:17 10.1 C 64 %
2167 01-04-2015 02:08:17 10.1 C 64 %
2168 01-04-2015 02:20:17 10.1 C 64 %
2169 01-04-2015 02:32:17 10 C 64 %
2170 01-04-2015 02:44:17 10 C 64 %
2171 01-04-2015 02:56:17 10 C 64 %
2172 01-04-2015 03:08:17 10 C 64 %
2173 01-04-2015